<?xml version='1.0' encoding='UTF-8'?><gpx version="1.1" creator="JPX - https://github.com/jenetics/jpx" xmlns="http://www.topografix.com/GPX/1/1"><trk><trkseg><trkpt lat="45.22022451859033" lon="11.895501742382514"><ele>3.9999999999999996</ele><time>2026-05-01T08:44:58Z</time></trkpt><trkpt lat="45.22031000293278" lon="11.895497485695072"><ele>4.0</ele><time>2026-05-01T08:45:01Z</time></trkpt><trkpt lat="45.22038072058255" lon="11.895512044711795"><ele>4.0</ele><time>2026-05-01T08:45:03Z</time></trkpt><trkpt lat="45.220457949630706" lon="11.895527063764444"><ele>4.0</ele><time>2026-05-01T08:45:04.999Z</time></trkpt><trkpt lat="45.22053915575104" lon="11.895544376635545"><ele>3.9999999999999996</ele><time>2026-05-01T08:45:06.999Z</time></trkpt><trkpt lat="45.22061286341343" lon="11.89558068730311"><ele>4.0</ele><time>2026-05-01T08:45:09.999Z</time></trkpt><trkpt lat="45.22063199806023" lon="11.895676301414005"><ele>4.0</ele><time>2026-05-01T08:45:11.999Z</time></trkpt><trkpt lat="45.220615649405495" lon="11.895781697049493"><ele>4.0</ele><time>2026-05-01T08:45:13.999Z</time></trkpt><trkpt lat="45.22060510198155" lon="11.895897857391924"><ele>4.0</ele><time>2026-05-01T08:45:15.999Z</time></trkpt><trkpt lat="45.22058242627367" lon="11.896032742083937"><ele>4.0</ele><time>2026-05-01T08:45:17.999Z</time></trkpt><trkpt lat="45.22054254966677" lon="11.896183901178194"><ele>4.0</ele><time>2026-05-01T08:45:19.999Z</time></trkpt><trkpt lat="45.22050496868465" lon="11.896337792061981"><ele>3.6666666666666665</ele><time>2026-05-01T08:45:21.999Z</time></trkpt><trkpt lat="45.220461194541464" lon="11.896516617718143"><ele>3.333333333333333</ele><time>2026-05-01T08:45:23.999Z</time></trkpt><trkpt lat="45.22043553974537" lon="11.896616671658638"><ele>3.0</ele><time>2026-05-01T08:45:24.999Z</time></trkpt><trkpt lat="45.220411049818274" lon="11.896718279307754"><ele>2.6666666666666665</ele><time>2026-05-01T08:45:25.999Z</time></trkpt><trkpt lat="45.220389524657804" lon="11.896820303257442"><ele>2.333333333333333</ele><time>2026-05-01T08:45:26.999Z</time></trkpt><trkpt lat="45.22035908341065" lon="11.896927077028245"><ele>2.0</ele><time>2026-05-01T08:45:27.999Z</time></trkpt><trkpt lat="45.22033314221893" lon="11.897029765234706"><ele>1.9999999999999998</ele><time>2026-05-01T08:45:28.999Z</time></trkpt><trkpt lat="45.22030851548811" lon="11.897134797404334"><ele>2.0</ele><time>2026-05-01T08:45:29.999Z</time></trkpt><trkpt lat="45.22028293865923" lon="11.897236438673708"><ele>2.0</ele><time>2026-05-01T08:45:30.999Z</time></trkpt><trkpt lat="45.22025658325992" lon="11.897340595258324"><ele>2.0</ele><time>2026-05-01T08:45:31.999Z</time></trkpt><trkpt lat="45.220229676214245" lon="11.897448925093272"><ele>1.9999999999999998</ele><time>2026-05-01T08:45:32.999Z</time></trkpt><trkpt lat="45.22020316345979" lon="11.897557687258324"><ele>2.0</ele><time>2026-05-01T08:45:33.999Z</time></trkpt><trkpt lat="45.220177455978465" lon="11.897669777346877"><ele>2.1666666666666665</ele><time>2026-05-01T08:45:34.999Z</time></trkpt><trkpt lat="45.220153952942475" lon="11.89778425194547"><ele>2.333333333333333</ele><time>2026-05-01T08:45:35.999Z</time></trkpt><trkpt lat="45.22013313705907" lon="11.897901342910767"><ele>2.5</ele><time>2026-05-01T08:45:36.999Z</time></trkpt><trkpt lat="45.22011179031062" lon="11.898019198450585"><ele>2.6666666666666665</ele><time>2026-05-01T08:45:37.999Z</time></trkpt><trkpt lat="45.220087289717" lon="11.898137171485182"><ele>2.8333333333333335</ele><time>2026-05-01T08:45:38.999Z</time></trkpt><trkpt lat="45.22006221063975" lon="11.898253217717084"><ele>3.0</ele><time>2026-05-01T08:45:39.999Z</time></trkpt><trkpt lat="45.220033187281416" lon="11.898368959683731"><ele>3.0</ele><time>2026-05-01T08:45:40.999Z</time></trkpt><trkpt lat="45.21998797837853" lon="11.89848267178615"><ele>3.0</ele><time>2026-05-01T08:45:41.999Z</time></trkpt><trkpt lat="45.21993424187343" lon="11.898580088929647"><ele>3.0</ele><time>2026-05-01T08:45:42.999Z</time></trkpt><trkpt lat="45.21987230201229" lon="11.898669667781558"><ele>3.0</ele><time>2026-05-01T08:45:43.999Z</time></trkpt><trkpt lat="45.21979937953094" lon="11.898741813584992"><ele>3.0</ele><time>2026-05-01T08:45:44.999Z</time></trkpt><trkpt lat="45.21971579546429" lon="11.898790934621909"><ele>3.0</ele><time>2026-05-01T08:45:45.999Z</time></trkpt><trkpt lat="45.219627820631786" lon="11.898834797023543"><ele>2.8</ele><time>2026-05-01T08:45:46.999Z</time></trkpt><trkpt lat="45.21953738193823" lon="11.898846046227465"><ele>2.5999999999999996</ele><time>2026-05-01T08:45:47.999Z</time></trkpt><trkpt lat="45.21945244778517" lon="11.898898447512046"><ele>2.4000000000000004</ele><time>2026-05-01T08:45:48.999Z</time></trkpt><trkpt lat="45.21936512836696" lon="11.898930298210258"><ele>2.2</ele><time>2026-05-01T08:45:49.999Z</time></trkpt><trkpt lat="45.21927600846623" lon="11.898961815388171"><ele>2.0</ele><time>2026-05-01T08:45:50.999Z</time></trkpt><trkpt lat="45.21918474197313" lon="11.898994432832906"><ele>2.0</ele><time>2026-05-01T08:45:51.999Z</time></trkpt><trkpt lat="45.219096117336015" lon="11.899031184791243"><ele>2.0</ele><time>2026-05-01T08:45:52.999Z</time></trkpt><trkpt lat="45.21900686236569" lon="11.89906542775626"><ele>2.0</ele><time>2026-05-01T08:45:53.999Z</time></trkpt><trkpt lat="45.218921815824906" lon="11.899128883927839"><ele>2.0</ele><time>2026-05-01T08:45:54.999Z</time></trkpt><trkpt lat="45.218838790455564" lon="11.899197340934153"><ele>2.0</ele><time>2026-05-01T08:45:55.999Z</time></trkpt><trkpt lat="45.21876483545216" lon="11.89927955393007"><ele>1.6</ele><time>2026-05-01T08:45:56.999Z</time></trkpt><trkpt lat="45.21869782718972" lon="11.89938083236585"><ele>1.2000000000000002</ele><time>2026-05-01T08:45:57.999Z</time></trkpt><trkpt lat="45.218639082397964" lon="11.899489878393137"><ele>0.8</ele><time>2026-05-01T08:45:58.999Z</time></trkpt><trkpt lat="45.21857999317595" lon="11.899596648678731"><ele>0.4</ele><time>2026-05-01T08:45:59.999Z</time></trkpt><trkpt lat="45.218534461290716" lon="11.899713263096876"><ele>0.0</ele><time>2026-05-01T08:46:00.999Z</time></trkpt><trkpt lat="45.21848526179137" lon="11.899828408003689"><ele>0.0</ele><time>2026-05-01T08:46:01.999Z</time></trkpt><trkpt lat="45.21843487994177" lon="11.899939596110066"><ele>0.0</ele><time>2026-05-01T08:46:02.999Z</time></trkpt><trkpt lat="45.2183835659593" lon="11.900051915279843"><ele>0.0</ele><time>2026-05-01T08:46:03.999Z</time></trkpt><trkpt lat="45.218331081095926" lon="11.900161089173162"><ele>0.0</ele><time>2026-05-01T08:46:04.999Z</time></trkpt><trkpt lat="45.218275973602374" lon="11.900266698408346"><ele>0.0</ele><time>2026-05-01T08:46:05.999Z</time></trkpt><trkpt lat="45.21822036036631" lon="11.900372075237748"><ele>0.2</ele><time>2026-05-01T08:46:06.999Z</time></trkpt><trkpt lat="45.21816784177796" lon="11.900481581811354"><ele>0.4</ele><time>2026-05-01T08:46:07.999Z</time></trkpt><trkpt lat="45.218112642858685" lon="11.90058982877406"><ele>0.6000000000000001</ele><time>2026-05-01T08:46:08.999Z</time></trkpt><trkpt lat="45.21805623117787" lon="11.900696716998954"><ele>0.8</ele><time>2026-05-01T08:46:09.998Z</time></trkpt><trkpt lat="45.21800114461974" lon="11.900805823581385"><ele>1.0</ele><time>2026-05-01T08:46:10.998Z</time></trkpt><trkpt lat="45.217948640923225" lon="11.900915977513028"><ele>1.4</ele><time>2026-05-01T08:46:11.998Z</time></trkpt><trkpt lat="45.21789388284471" lon="11.901024494020225"><ele>1.8</ele><time>2026-05-01T08:46:12.998Z</time></trkpt><trkpt lat="45.21783758504295" lon="11.901133464716722"><ele>2.1999999999999997</ele><time>2026-05-01T08:46:13.998Z</time></trkpt><trkpt lat="45.217783218517916" lon="11.90124520632537"><ele>2.6</ele><time>2026-05-01T08:46:14.998Z</time></trkpt><trkpt lat="45.21772862751744" lon="11.90135745223987"><ele>3.0</ele><time>2026-05-01T08:46:15.998Z</time></trkpt><trkpt lat="45.2176732496605" lon="11.901465685802377"><ele>3.0</ele><time>2026-05-01T08:46:16.998Z</time></trkpt><trkpt lat="45.21762055617066" lon="11.901576338439916"><ele>3.0</ele><time>2026-05-01T08:46:17.998Z</time></trkpt><trkpt lat="45.217553546450326" lon="11.901672526112916"><ele>3.0</ele><time>2026-05-01T08:46:18.998Z</time></trkpt><trkpt lat="45.21750057884809" lon="11.90178437080667"><ele>3.0</ele><time>2026-05-01T08:46:19.998Z</time></trkpt><trkpt lat="45.21746715842122" lon="11.901911592178902"><ele>3.0</ele><time>2026-05-01T08:46:21Z</time></trkpt><trkpt lat="45.21742203850468" lon="11.90202212123107"><ele>2.8</ele><time>2026-05-01T08:46:22Z</time></trkpt><trkpt lat="45.21739402248749" lon="11.902144884551591"><ele>2.5999999999999996</ele><time>2026-05-01T08:46:23Z</time></trkpt><trkpt lat="45.21737523894167" lon="11.902270980578416"><ele>2.4000000000000004</ele><time>2026-05-01T08:46:24Z</time></trkpt><trkpt lat="45.21736125841635" lon="11.902398150498081"><ele>2.2</ele><time>2026-05-01T08:46:25Z</time></trkpt><trkpt lat="45.21734950641839" lon="11.90252676470561"><ele>2.0</ele><time>2026-05-01T08:46:26Z</time></trkpt><trkpt lat="45.21733740181195" lon="11.90265447661403"><ele>2.0</ele><time>2026-05-01T08:46:27Z</time></trkpt><trkpt lat="45.21732166614171" lon="11.90278601480587"><ele>2.0</ele><time>2026-05-01T08:46:28Z</time></trkpt><trkpt lat="45.21730585349943" lon="11.902918242506727"><ele>2.0</ele><time>2026-05-01T08:46:29Z</time></trkpt><trkpt lat="45.217291216466855" lon="11.903042750296699"><ele>2.0</ele><time>2026-05-01T08:46:30Z</time></trkpt><trkpt lat="45.21727305294066" lon="11.90316521472864"><ele>2.0</ele><time>2026-05-01T08:46:31Z</time></trkpt><trkpt lat="45.2172527819121" lon="11.903290238969175"><ele>2.2</ele><time>2026-05-01T08:46:32Z</time></trkpt><trkpt lat="45.21723193505176" lon="11.903417096572914"><ele>2.4000000000000004</ele><time>2026-05-01T08:46:33Z</time></trkpt><trkpt lat="45.21721401900954" lon="11.903543942192636"><ele>2.5999999999999996</ele><time>2026-05-01T08:46:34Z</time></trkpt><trkpt lat="45.217192004076466" lon="11.903675056233551"><ele>2.8</ele><time>2026-05-01T08:46:35Z</time></trkpt><trkpt lat="45.21716697183722" lon="11.903800858422963"><ele>3.0</ele><time>2026-05-01T08:46:36Z</time></trkpt><trkpt lat="45.21714670996028" lon="11.903933487524338"><ele>3.0</ele><time>2026-05-01T08:46:37Z</time></trkpt><trkpt lat="45.21712048802749" lon="11.90406850986446"><ele>3.0</ele><time>2026-05-01T08:46:38Z</time></trkpt><trkpt lat="45.217097072447785" lon="11.904207159881171"><ele>3.0</ele><time>2026-05-01T08:46:39Z</time></trkpt><trkpt lat="45.21707159618101" lon="11.904346059129177"><ele>3.0</ele><time>2026-05-01T08:46:40Z</time></trkpt><trkpt lat="45.217048977878136" lon="11.90448576824629"><ele>3.0</ele><time>2026-05-01T08:46:41Z</time></trkpt><trkpt lat="45.21702601689662" lon="11.904621188890404"><ele>3.0</ele><time>2026-05-01T08:46:42Z</time></trkpt><trkpt lat="45.2169988273596" lon="11.904757037646398"><ele>3.0</ele><time>2026-05-01T08:46:43Z</time></trkpt><trkpt lat="45.21696707960637" lon="11.904891562875452"><ele>3.0</ele><time>2026-05-01T08:46:44Z</time></trkpt><trkpt lat="45.216932043166445" lon="11.905026594691229"><ele>3.0</ele><time>2026-05-01T08:46:45Z</time></trkpt><trkpt lat="45.216893138779014" lon="11.90516066738712"><ele>3.0</ele><time>2026-05-01T08:46:46Z</time></trkpt><trkpt lat="45.2168534353873" lon="11.905293487008478"><ele>3.0</ele><time>2026-05-01T08:46:47Z</time></trkpt><trkpt lat="45.21680877455597" lon="11.905423235442491"><ele>3.0</ele><time>2026-05-01T08:46:48Z</time></trkpt><trkpt lat="45.21676824420121" lon="11.905555876122358"><ele>3.0</ele><time>2026-05-01T08:46:49Z</time></trkpt><trkpt lat="45.216729661325964" lon="11.905688953604677"><ele>3.0</ele><time>2026-05-01T08:46:50Z</time></trkpt><trkpt lat="45.21669067696209" lon="11.905819615578686"><ele>3.0</ele><time>2026-05-01T08:46:51Z</time></trkpt><trkpt lat="45.21664851254373" lon="11.905954043316312"><ele>2.8</ele><time>2026-05-01T08:46:52Z</time></trkpt><trkpt lat="45.216603844293175" lon="11.906082596855203"><ele>2.5999999999999996</ele><time>2026-05-01T08:46:53Z</time></trkpt><trkpt lat="45.216560805818375" lon="11.906201417092118"><ele>2.4000000000000004</ele><time>2026-05-01T08:46:54Z</time></trkpt><trkpt lat="45.21650402319366" lon="11.90630739765129"><ele>2.2</ele><time>2026-05-01T08:46:55Z</time></trkpt><trkpt lat="45.21642604269994" lon="11.90639886245078"><ele>2.0</ele><time>2026-05-01T08:46:56Z</time></trkpt><trkpt lat="45.21633575688167" lon="11.906471811169787"><ele>2.0</ele><time>2026-05-01T08:46:57Z</time></trkpt><trkpt lat="45.21623094166915" lon="11.906489889951969"><ele>2.0</ele><time>2026-05-01T08:46:58Z</time></trkpt><trkpt lat="45.21613293941703" lon="11.906522061935876"><ele>2.0</ele><time>2026-05-01T08:46:59Z</time></trkpt><trkpt lat="45.21602777068283" lon="11.906561652642301"><ele>2.0</ele><time>2026-05-01T08:47:00Z</time></trkpt><trkpt lat="45.21592072566586" lon="11.906589120799179"><ele>2.0</ele><time>2026-05-01T08:47:01Z</time></trkpt><trkpt lat="45.215820438252884" lon="11.906612980910698"><ele>2.0</ele><time>2026-05-01T08:47:02Z</time></trkpt><trkpt lat="45.21572053431562" lon="11.906643215638985"><ele>2.0</ele><time>2026-05-01T08:47:02.999Z</time></trkpt><trkpt lat="45.215618169487556" lon="11.906689994259265"><ele>2.0</ele><time>2026-05-01T08:47:03.999Z</time></trkpt><trkpt lat="45.21551580530435" lon="11.90672037368615"><ele>2.0</ele><time>2026-05-01T08:47:04.999Z</time></trkpt><trkpt lat="45.21541087798363" lon="11.906744187300028"><ele>2.0</ele><time>2026-05-01T08:47:05.999Z</time></trkpt><trkpt lat="45.215308236204436" lon="11.906786778225445"><ele>1.6</ele><time>2026-05-01T08:47:06.999Z</time></trkpt><trkpt lat="45.21520135084011" lon="11.906832114993493"><ele>1.2000000000000002</ele><time>2026-05-01T08:47:07.999Z</time></trkpt><trkpt lat="45.215094839955235" lon="11.906866712998763"><ele>0.8</ele><time>2026-05-01T08:47:08.999Z</time></trkpt><trkpt lat="45.21498461643573" lon="11.906905144234157"><ele>0.4</ele><time>2026-05-01T08:47:09.999Z</time></trkpt><trkpt lat="45.21487815204259" lon="11.906950359109434"><ele>0.0</ele><time>2026-05-01T08:47:10.999Z</time></trkpt><trkpt lat="45.214769917277756" lon="11.90699494030962"><ele>-0.4</ele><time>2026-05-01T08:47:11.999Z</time></trkpt><trkpt lat="45.21466472459772" lon="11.907041938448431"><ele>-0.8</ele><time>2026-05-01T08:47:12.999Z</time></trkpt><trkpt lat="45.214567119878716" lon="11.90708169499339"><ele>-1.2000000000000002</ele><time>2026-05-01T08:47:13.999Z</time></trkpt><trkpt lat="45.21446976665504" lon="11.907118490776416"><ele>-1.6</ele><time>2026-05-01T08:47:14.999Z</time></trkpt><trkpt lat="45.21437161830105" lon="11.907151736023168"><ele>-2.0</ele><time>2026-05-01T08:47:15.999Z</time></trkpt><trkpt lat="45.214267944237115" lon="11.907154545435608"><ele>-2.0</ele><time>2026-05-01T08:47:16.999Z</time></trkpt><trkpt lat="45.21416160973624" lon="11.907151978262375"><ele>-2.0</ele><time>2026-05-01T08:47:17.999Z</time></trkpt><trkpt lat="45.2140529665623" lon="11.907135452347186"><ele>-2.0</ele><time>2026-05-01T08:47:18.999Z</time></trkpt><trkpt lat="45.213940915107884" lon="11.907109575736824"><ele>-2.0</ele><time>2026-05-01T08:47:19.999Z</time></trkpt><trkpt lat="45.213836250509125" lon="11.9070576851657"><ele>-2.0</ele><time>2026-05-01T08:47:20.999Z</time></trkpt><trkpt lat="45.21374017410598" lon="11.906979568406415"><ele>-1.75</ele><time>2026-05-01T08:47:21.999Z</time></trkpt><trkpt lat="45.21365104570416" lon="11.906887045641552"><ele>-1.5</ele><time>2026-05-01T08:47:22.999Z</time></trkpt><trkpt lat="45.213562608217934" lon="11.906786078346308"><ele>-1.25</ele><time>2026-05-01T08:47:23.999Z</time></trkpt><trkpt lat="45.21347511724541" lon="11.906680293639159"><ele>-1.0</ele><time>2026-05-01T08:47:24.999Z</time></trkpt><trkpt lat="45.21338968941087" lon="11.90657503309235"><ele>-1.0</ele><time>2026-05-01T08:47:25.999Z</time></trkpt><trkpt lat="45.21330446040136" lon="11.906470017528328"><ele>-1.0</ele><time>2026-05-01T08:47:26.999Z</time></trkpt><trkpt lat="45.21320709531856" lon="11.906385629417823"><ele>-1.0</ele><time>2026-05-01T08:47:27.999Z</time></trkpt><trkpt lat="45.21311700512718" lon="11.906309234251108"><ele>-1.0</ele><time>2026-05-01T08:47:28.999Z</time></trkpt><trkpt lat="45.2130222679018" lon="11.906264716067671"><ele>-1.0</ele><time>2026-05-01T08:47:29.999Z</time></trkpt><trkpt lat="45.212927913144284" lon="11.906245121247808"><ele>-0.9999999999999999</ele><time>2026-05-01T08:47:30.999Z</time></trkpt><trkpt lat="45.2128387139561" lon="11.90624556558302"><ele>-1.0</ele><time>2026-05-01T08:47:31.999Z</time></trkpt><trkpt lat="45.212751958879885" lon="11.906239591154053"><ele>-1.0</ele><time>2026-05-01T08:47:32.999Z</time></trkpt><trkpt lat="45.21266397691028" lon="11.90624176657613"><ele>-1.0</ele><time>2026-05-01T08:47:33.999Z</time></trkpt><trkpt lat="45.21258225289411" lon="11.906258708606623"><ele>-0.9999999999999999</ele><time>2026-05-01T08:47:34.999Z</time></trkpt><trkpt lat="45.212508868661295" lon="11.906272239681083"><ele>-1.0</ele><time>2026-05-01T08:47:35.999Z</time></trkpt><trkpt lat="45.21244009126426" lon="11.906302629263967"><ele>-1.0</ele><time>2026-05-01T08:47:36.999Z</time></trkpt><trkpt lat="45.2123793352874" lon="11.906340528750844"><ele>-1.0</ele><time>2026-05-01T08:47:37.999Z</time></trkpt><trkpt lat="45.21228342104651" lon="11.906407118433952"><ele>-1.0</ele><time>2026-05-01T08:47:39.999Z</time></trkpt><trkpt lat="45.21221887934422" lon="11.906416901236769"><ele>-1.0</ele><time>2026-05-01T08:47:41.999Z</time></trkpt><trkpt lat="45.212134583940646" lon="11.906429755556132"><ele>-1.0</ele><time>2026-05-01T08:48:03.999Z</time></trkpt><trkpt lat="45.21207483722625" lon="11.906629157580296"><ele>-0.6000000000000001</ele><time>2026-05-01T08:48:05.999Z</time></trkpt><trkpt lat="45.21206673249165" lon="11.906753697170707"><ele>-0.20000000000000007</ele><time>2026-05-01T08:48:06.999Z</time></trkpt><trkpt lat="45.212066809784474" lon="11.906884372228927"><ele>0.20000000000000007</ele><time>2026-05-01T08:48:07.999Z</time></trkpt><trkpt lat="45.21206232369894" lon="11.907017190997186"><ele>0.6000000000000001</ele><time>2026-05-01T08:48:08.999Z</time></trkpt><trkpt lat="45.212057248445824" lon="11.907160137653854"><ele>1.0</ele><time>2026-05-01T08:48:09.999Z</time></trkpt><trkpt lat="45.21205314904842" lon="11.907308054685378"><ele>1.0</ele><time>2026-05-01T08:48:10.998Z</time></trkpt><trkpt lat="45.21204748335317" lon="11.90746332639749"><ele>1.0</ele><time>2026-05-01T08:48:11.998Z</time></trkpt><trkpt lat="45.21204319261956" lon="11.907621080639098"><ele>1.0</ele><time>2026-05-01T08:48:12.998Z</time></trkpt><trkpt lat="45.21203810063147" lon="11.907777290244406"><ele>1.0</ele><time>2026-05-01T08:48:13.998Z</time></trkpt><trkpt lat="45.212031184752945" lon="11.907935279236142"><ele>1.0</ele><time>2026-05-01T08:48:14.998Z</time></trkpt><trkpt lat="45.212027507042" lon="11.908089636999067"><ele>0.8</ele><time>2026-05-01T08:48:15.998Z</time></trkpt><trkpt lat="45.212022017282436" lon="11.908248192879542"><ele>0.6000000000000001</ele><time>2026-05-01T08:48:16.998Z</time></trkpt><trkpt lat="45.21201644522192" lon="11.908407693011902"><ele>0.4</ele><time>2026-05-01T08:48:17.998Z</time></trkpt><trkpt lat="45.2120098826921" lon="11.908566070796242"><ele>0.2</ele><time>2026-05-01T08:48:18.998Z</time></trkpt><trkpt lat="45.212001510783686" lon="11.908725657488633"><ele>0.0</ele><time>2026-05-01T08:48:19.998Z</time></trkpt><trkpt lat="45.21199874209185" lon="11.908883015695581"><ele>0.0</ele><time>2026-05-01T08:48:20.998Z</time></trkpt><trkpt lat="45.21199094210316" lon="11.909041951334531"><ele>0.0</ele><time>2026-05-01T08:48:21.998Z</time></trkpt><trkpt lat="45.21198561612998" lon="11.909204144908635"><ele>0.0</ele><time>2026-05-01T08:48:22.998Z</time></trkpt><trkpt lat="45.21198163021" lon="11.909365683955832"><ele>0.0</ele><time>2026-05-01T08:48:23.998Z</time></trkpt><trkpt lat="45.21197802316787" lon="11.909527880103493"><ele>0.25</ele><time>2026-05-01T08:48:24.998Z</time></trkpt><trkpt lat="45.211971704093585" lon="11.909690259114358"><ele>0.5</ele><time>2026-05-01T08:48:25.998Z</time></trkpt><trkpt lat="45.21196468710584" lon="11.909851916460465"><ele>0.75</ele><time>2026-05-01T08:48:27Z</time></trkpt><trkpt lat="45.21196096789671" lon="11.909985483925979"><ele>1.0</ele><time>2026-05-01T08:48:28Z</time></trkpt><trkpt lat="45.211954834453834" lon="11.910168969701205"><ele>1.0</ele><time>2026-05-01T08:48:29Z</time></trkpt><trkpt lat="45.21194909640889" lon="11.910327937797483"><ele>1.0</ele><time>2026-05-01T08:48:30Z</time></trkpt><trkpt lat="45.21194696504059" lon="11.910469474233697"><ele>1.0</ele><time>2026-05-01T08:48:31Z</time></trkpt><trkpt lat="45.21193872912187" lon="11.91060955832668"><ele>1.0</ele><time>2026-05-01T08:48:32Z</time></trkpt><trkpt lat="45.2119335420513" lon="11.910732170166636"><ele>1.0</ele><time>2026-05-01T08:48:33Z</time></trkpt><trkpt lat="45.21193115341846" lon="11.910832884063911"><ele>1.0</ele><time>2026-05-01T08:48:34Z</time></trkpt><trkpt lat="45.21189939185161" lon="11.91097435541128"><ele>1.0</ele><time>2026-05-01T08:48:36Z</time></trkpt><trkpt lat="45.211858473587476" lon="11.911080189742034"><ele>1.0</ele><time>2026-05-01T08:48:38Z</time></trkpt><trkpt lat="45.21170292091056" lon="11.911121458864782"><ele>1.0</ele><time>2026-05-01T08:48:39Z</time></trkpt><trkpt lat="45.211627837974234" lon="11.911194284283518"><ele>1.0</ele><time>2026-05-01T08:48:40Z</time></trkpt><trkpt lat="45.211563667194824" lon="11.911289779966468"><ele>0.9999999999999999</ele><time>2026-05-01T08:48:41Z</time></trkpt><trkpt lat="45.211499487880545" lon="11.911368931702318"><ele>1.0</ele><time>2026-05-01T08:48:42Z</time></trkpt><trkpt lat="45.21143013163822" lon="11.911432932154806"><ele>1.0</ele><time>2026-05-01T08:48:43Z</time></trkpt><trkpt lat="45.21135199022112" lon="11.911461291135387"><ele>1.0</ele><time>2026-05-01T08:48:44Z</time></trkpt><trkpt lat="45.21128147165571" lon="11.911505882761954"><ele>0.9999999999999999</ele><time>2026-05-01T08:48:45Z</time></trkpt><trkpt lat="45.21122458148983" lon="11.911561565188336"><ele>1.0</ele><time>2026-05-01T08:48:46Z</time></trkpt><trkpt lat="45.21116198086476" lon="11.91159088033526"><ele>0.9999999999999999</ele><time>2026-05-01T08:48:47Z</time></trkpt><trkpt lat="45.21110083235569" lon="11.91162239799226"><ele>1.0</ele><time>2026-05-01T08:48:48Z</time></trkpt><trkpt lat="45.21100546437347" lon="11.911703336387268"><ele>1.0</ele><time>2026-05-01T08:48:50Z</time></trkpt><trkpt lat="45.210941982784824" lon="11.91182361549081"><ele>1.0</ele><time>2026-05-01T08:48:52Z</time></trkpt><trkpt lat="45.21093943692939" lon="11.911943169293371"><ele>0.9999999999999999</ele><time>2026-05-01T08:48:54Z</time></trkpt><trkpt lat="45.21092388291466" lon="11.912050415622735"><ele>1.0</ele><time>2026-05-01T08:48:56Z</time></trkpt><trkpt lat="45.21088886010821" lon="11.912209205276087"><ele>1.0</ele><time>2026-05-01T08:48:58Z</time></trkpt><trkpt lat="45.21086840728892" lon="11.912306015289861"><ele>1.0</ele><time>2026-05-01T08:48:59Z</time></trkpt><trkpt lat="45.210889875929546" lon="11.912438369616423"><ele>1.0</ele><time>2026-05-01T08:49:00Z</time></trkpt><trkpt lat="45.21086636311696" lon="11.912563141985082"><ele>1.0</ele><time>2026-05-01T08:49:01Z</time></trkpt><trkpt lat="45.21087028093271" lon="11.912700150255521"><ele>1.0</ele><time>2026-05-01T08:49:02Z</time></trkpt><trkpt lat="45.21084179364299" lon="11.91284259674718"><ele>1.0</ele><time>2026-05-01T08:49:03Z</time></trkpt><trkpt lat="45.2108442504417" lon="11.91297582632106"><ele>1.0</ele><time>2026-05-01T08:49:04Z</time></trkpt><trkpt lat="45.21084367470653" lon="11.913107830032613"><ele>1.0</ele><time>2026-05-01T08:49:05Z</time></trkpt><trkpt lat="45.21083676734263" lon="11.913251945428112"><ele>1.0</ele><time>2026-05-01T08:49:06Z</time></trkpt><trkpt lat="45.21083112340526" lon="11.913394907185479"><ele>1.0</ele><time>2026-05-01T08:49:07Z</time></trkpt><trkpt lat="45.21082022602564" lon="11.913529542290417"><ele>1.0</ele><time>2026-05-01T08:49:07.999Z</time></trkpt><trkpt lat="45.21079415378893" lon="11.91365468820532"><ele>1.0</ele><time>2026-05-01T08:49:08.999Z</time></trkpt><trkpt lat="45.210810078646226" lon="11.913785045878598"><ele>1.0</ele><time>2026-05-01T08:49:09.999Z</time></trkpt><trkpt lat="45.2108091106848" lon="11.913915025493147"><ele>1.0</ele><time>2026-05-01T08:49:10.999Z</time></trkpt><trkpt lat="45.21080584964183" lon="11.914046376576277"><ele>1.0</ele><time>2026-05-01T08:49:11.999Z</time></trkpt><trkpt lat="45.210803376463076" lon="11.914179736339275"><ele>1.0</ele><time>2026-05-01T08:49:12.999Z</time></trkpt><trkpt lat="45.21077779972416" lon="11.914313928968648"><ele>1.0</ele><time>2026-05-01T08:49:13.999Z</time></trkpt><trkpt lat="45.210774364932334" lon="11.914452415524607"><ele>1.0</ele><time>2026-05-01T08:49:14.999Z</time></trkpt><trkpt lat="45.21077083250957" lon="11.914594838405701"><ele>1.0</ele><time>2026-05-01T08:49:15.999Z</time></trkpt><trkpt lat="45.21079523654824" lon="11.914740445662881"><ele>1.0</ele><time>2026-05-01T08:49:16.999Z</time></trkpt><trkpt lat="45.21079297120215" lon="11.914884897373883"><ele>1.0</ele><time>2026-05-01T08:49:17.999Z</time></trkpt><trkpt lat="45.21078350786041" lon="11.915028178278584"><ele>1.0</ele><time>2026-05-01T08:49:18.999Z</time></trkpt><trkpt lat="45.210779458324424" lon="11.915169419395363"><ele>1.0</ele><time>2026-05-01T08:49:19.999Z</time></trkpt><trkpt lat="45.21077594929908" lon="11.915316472176032"><ele>1.0</ele><time>2026-05-01T08:49:20.999Z</time></trkpt><trkpt lat="45.21077558604142" lon="11.915462471798085"><ele>1.0</ele><time>2026-05-01T08:49:21.999Z</time></trkpt><trkpt lat="45.21074155558052" lon="11.915606670350547"><ele>1.2000000000000002</ele><time>2026-05-01T08:49:22.999Z</time></trkpt><trkpt lat="45.210761196713726" lon="11.915751114507795"><ele>1.4000000000000001</ele><time>2026-05-01T08:49:23.999Z</time></trkpt><trkpt lat="45.21075399790549" lon="11.915882102177363"><ele>1.6</ele><time>2026-05-01T08:49:24.999Z</time></trkpt><trkpt lat="45.21074875084616" lon="11.916003668139586"><ele>1.8</ele><time>2026-05-01T08:49:25.999Z</time></trkpt><trkpt lat="45.21074784912698" lon="11.916128783315596"><ele>2.0</ele><time>2026-05-01T08:49:26.999Z</time></trkpt><trkpt lat="45.21074520248678" lon="11.916253187805673"><ele>2.0</ele><time>2026-05-01T08:49:27.999Z</time></trkpt><trkpt lat="45.21074798485973" lon="11.91637184902361"><ele>1.9999999999999998</ele><time>2026-05-01T08:49:28.999Z</time></trkpt><trkpt lat="45.21074456797589" lon="11.91648077376041"><ele>2.0</ele><time>2026-05-01T08:49:29.999Z</time></trkpt><trkpt lat="45.210742166949146" lon="11.916580029820432"><ele>2.0</ele><time>2026-05-01T08:49:30.999Z</time></trkpt><trkpt lat="45.21074080878261" lon="11.916674124584711"><ele>1.9999999999999998</ele><time>2026-05-01T08:49:31.999Z</time></trkpt><trkpt lat="45.21070740237423" lon="11.91675272868214"><ele>2.0</ele><time>2026-05-01T08:49:32.999Z</time></trkpt><trkpt lat="45.21067830566403" lon="11.916870093401773"><ele>2.0</ele><time>2026-05-01T08:49:34.999Z</time></trkpt><trkpt lat="45.210531968397724" lon="11.916850082354335"><ele>2.0</ele><time>2026-05-01T08:49:36.999Z</time></trkpt><trkpt lat="45.21046958716753" lon="11.916781096019996"><ele>2.0</ele><time>2026-05-01T08:49:37.999Z</time></trkpt><trkpt lat="45.21040757968154" lon="11.916699752784028"><ele>2.0</ele><time>2026-05-01T08:49:38.999Z</time></trkpt><trkpt lat="45.210338288945124" lon="11.91661233012363"><ele>2.0</ele><time>2026-05-01T08:49:39.999Z</time></trkpt><trkpt lat="45.21027593990886" lon="11.916511907767063"><ele>2.0</ele><time>2026-05-01T08:49:40.999Z</time></trkpt><trkpt lat="45.21021730635343" lon="11.916395909537787"><ele>1.8</ele><time>2026-05-01T08:49:41.999Z</time></trkpt><trkpt lat="45.21015980640346" lon="11.916269531745284"><ele>1.6</ele><time>2026-05-01T08:49:42.999Z</time></trkpt><trkpt lat="45.21010697910359" lon="11.916135247769791"><ele>1.4000000000000001</ele><time>2026-05-01T08:49:43.999Z</time></trkpt><trkpt lat="45.210051448536106" lon="11.916006178945503"><ele>1.2000000000000002</ele><time>2026-05-01T08:49:44.999Z</time></trkpt><trkpt lat="45.21001056650911" lon="11.91587042414999"><ele>1.0</ele><time>2026-05-01T08:49:45.999Z</time></trkpt><trkpt lat="45.20998836386293" lon="11.915728460573245"><ele>1.0</ele><time>2026-05-01T08:49:46.999Z</time></trkpt><trkpt lat="45.209981668768" lon="11.9155873368975"><ele>1.0</ele><time>2026-05-01T08:49:47.999Z</time></trkpt><trkpt lat="45.20998785902599" lon="11.915451717695694"><ele>1.0</ele><time>2026-05-01T08:49:48.999Z</time></trkpt><trkpt lat="45.20998214382719" lon="11.915330973563096"><ele>1.0</ele><time>2026-05-01T08:49:49.999Z</time></trkpt><trkpt lat="45.209947749117596" lon="11.915211973613944"><ele>1.0</ele><time>2026-05-01T08:49:50.999Z</time></trkpt><trkpt lat="45.20989190208965" lon="11.915113252329753"><ele>1.0</ele><time>2026-05-01T08:49:51.999Z</time></trkpt><trkpt lat="45.209822902553924" lon="11.915042113748559"><ele>1.0</ele><time>2026-05-01T08:49:52.999Z</time></trkpt><trkpt lat="45.20973260324992" lon="11.914996221966652"><ele>1.0</ele><time>2026-05-01T08:49:53.999Z</time></trkpt><trkpt lat="45.209636938077026" lon="11.914967634143519"><ele>1.0</ele><time>2026-05-01T08:49:54.999Z</time></trkpt><trkpt lat="45.20953599848273" lon="11.914961930260548"><ele>1.0</ele><time>2026-05-01T08:49:55.999Z</time></trkpt><trkpt lat="45.20943144034153" lon="11.914966291695663"><ele>1.0</ele><time>2026-05-01T08:49:56.999Z</time></trkpt><trkpt lat="45.20932884176715" lon="11.914970475214771"><ele>1.0</ele><time>2026-05-01T08:49:57.999Z</time></trkpt><trkpt lat="45.20922103313212" lon="11.914955748880933"><ele>1.0</ele><time>2026-05-01T08:49:58.999Z</time></trkpt><trkpt lat="45.20912729816603" lon="11.914954581979298"><ele>1.0</ele><time>2026-05-01T08:49:59.999Z</time></trkpt><trkpt lat="45.209031578941676" lon="11.91494013014197"><ele>1.0</ele><time>2026-05-01T08:50:00.999Z</time></trkpt><trkpt lat="45.20894572683905" lon="11.914939634656958"><ele>0.8333333333333333</ele><time>2026-05-01T08:50:01.999Z</time></trkpt><trkpt lat="45.20886831243144" lon="11.914930258795552"><ele>0.6666666666666666</ele><time>2026-05-01T08:50:02.999Z</time></trkpt><trkpt lat="45.208798110496474" lon="11.914922629914209"><ele>0.5</ele><time>2026-05-01T08:50:03.999Z</time></trkpt><trkpt lat="45.208730336339784" lon="11.914922523804403"><ele>0.3333333333333333</ele><time>2026-05-01T08:50:04.999Z</time></trkpt><trkpt lat="45.208659854668866" lon="11.914915560126934"><ele>0.16666666666666666</ele><time>2026-05-01T08:50:05.999Z</time></trkpt><trkpt lat="45.208576082310806" lon="11.91491321692761"><ele>0.0</ele><time>2026-05-01T08:50:06.999Z</time></trkpt><trkpt lat="45.208482634501884" lon="11.914909370069918"><ele>0.0</ele><time>2026-05-01T08:50:07.999Z</time></trkpt><trkpt lat="45.20839024456632" lon="11.914898357571646"><ele>0.0</ele><time>2026-05-01T08:50:08.999Z</time></trkpt><trkpt lat="45.20829216849627" lon="11.91489553523212"><ele>0.0</ele><time>2026-05-01T08:50:09.999Z</time></trkpt><trkpt lat="45.20819248796206" lon="11.914893779856273"><ele>0.0</ele><time>2026-05-01T08:50:10.999Z</time></trkpt><trkpt lat="45.20808954593168" lon="11.914885382689947"><ele>0.0</ele><time>2026-05-01T08:50:11.999Z</time></trkpt><trkpt lat="45.20798632474331" lon="11.914886369597575"><ele>0.4</ele><time>2026-05-01T08:50:12.999Z</time></trkpt><trkpt lat="45.20788294012118" lon="11.914893668610055"><ele>0.8</ele><time>2026-05-01T08:50:13.999Z</time></trkpt><trkpt lat="45.20778206688674" lon="11.914901036978195"><ele>1.2000000000000002</ele><time>2026-05-01T08:50:14.999Z</time></trkpt><trkpt lat="45.20768369021537" lon="11.914911253495166"><ele>1.6</ele><time>2026-05-01T08:50:15.999Z</time></trkpt><trkpt lat="45.207594426640924" lon="11.914934208075683"><ele>2.0</ele><time>2026-05-01T08:50:16.999Z</time></trkpt><trkpt lat="45.20751275073657" lon="11.914979669774734"><ele>2.0</ele><time>2026-05-01T08:50:17.999Z</time></trkpt><trkpt lat="45.207421768781316" lon="11.915019679704141"><ele>2.0</ele><time>2026-05-01T08:50:18.999Z</time></trkpt><trkpt lat="45.20735102636713" lon="11.915144435746477"><ele>2.0</ele><time>2026-05-01T08:50:19.998Z</time></trkpt><trkpt lat="45.20726658224996" lon="11.915233685062212"><ele>2.0</ele><time>2026-05-01T08:50:20.998Z</time></trkpt><trkpt lat="45.20717893960353" lon="11.915315013921056"><ele>2.0</ele><time>2026-05-01T08:50:21.998Z</time></trkpt><trkpt lat="45.20708538077804" lon="11.915394695427826"><ele>1.6</ele><time>2026-05-01T08:50:22.998Z</time></trkpt><trkpt lat="45.20698576254249" lon="11.915461260941209"><ele>1.2000000000000002</ele><time>2026-05-01T08:50:23.998Z</time></trkpt><trkpt lat="45.20688384932761" lon="11.915512280033603"><ele>0.8</ele><time>2026-05-01T08:50:24.998Z</time></trkpt><trkpt lat="45.206775334735276" lon="11.915551874321633"><ele>0.4</ele><time>2026-05-01T08:50:25.998Z</time></trkpt><trkpt lat="45.2066667800767" lon="11.915587572305933"><ele>0.0</ele><time>2026-05-01T08:50:26.998Z</time></trkpt><trkpt lat="45.206557521795794" lon="11.915604194566718"><ele>0.6</ele><time>2026-05-01T08:50:27.998Z</time></trkpt><trkpt lat="45.20644404637254" lon="11.915601592114532"><ele>1.2</ele><time>2026-05-01T08:50:28.998Z</time></trkpt><trkpt lat="45.20633343703956" lon="11.915567883532638"><ele>1.7999999999999998</ele><time>2026-05-01T08:50:29.998Z</time></trkpt><trkpt lat="45.20622549354364" lon="11.915520967213352"><ele>2.4</ele><time>2026-05-01T08:50:30.998Z</time></trkpt><trkpt lat="45.20612120152745" lon="11.9154715905466"><ele>3.0</ele><time>2026-05-01T08:50:31.998Z</time></trkpt><trkpt lat="45.20601264588309" lon="11.915418994709952"><ele>3.0</ele><time>2026-05-01T08:50:33Z</time></trkpt><trkpt lat="45.20590711678019" lon="11.915375148086621"><ele>3.0</ele><time>2026-05-01T08:50:34Z</time></trkpt><trkpt lat="45.20580021750198" lon="11.915329206760884"><ele>3.0</ele><time>2026-05-01T08:50:35Z</time></trkpt><trkpt lat="45.205692175022506" lon="11.915285365759665"><ele>3.0</ele><time>2026-05-01T08:50:36Z</time></trkpt><trkpt lat="45.20557968944349" lon="11.9152744462581"><ele>3.0</ele><time>2026-05-01T08:50:37Z</time></trkpt><trkpt lat="45.205466453532274" lon="11.915273315010763"><ele>2.8</ele><time>2026-05-01T08:50:38Z</time></trkpt><trkpt lat="45.205360297281" lon="11.915276299532522"><ele>2.5999999999999996</ele><time>2026-05-01T08:50:39Z</time></trkpt><trkpt lat="45.2052477473696" lon="11.915271734775555"><ele>2.4000000000000004</ele><time>2026-05-01T08:50:40Z</time></trkpt><trkpt lat="45.205134022767545" lon="11.915269875567366"><ele>2.2</ele><time>2026-05-01T08:50:41Z</time></trkpt><trkpt lat="45.20502325833599" lon="11.915271370081518"><ele>2.0</ele><time>2026-05-01T08:50:42Z</time></trkpt><trkpt lat="45.20491595079461" lon="11.91526472854378"><ele>1.8</ele><time>2026-05-01T08:50:43Z</time></trkpt><trkpt lat="45.20480829745811" lon="11.915263858875527"><ele>1.6</ele><time>2026-05-01T08:50:44Z</time></trkpt><trkpt lat="45.204699667442874" lon="11.915275162321576"><ele>1.4000000000000001</ele><time>2026-05-01T08:50:45Z</time></trkpt><trkpt lat="45.2045870942725" lon="11.91529632189655"><ele>1.2000000000000002</ele><time>2026-05-01T08:50:46Z</time></trkpt><trkpt lat="45.20448609141013" lon="11.915333930940191"><ele>1.0</ele><time>2026-05-01T08:50:47Z</time></trkpt><trkpt lat="45.20438494573966" lon="11.915388833833038"><ele>1.0</ele><time>2026-05-01T08:50:48Z</time></trkpt><trkpt lat="45.20428847743236" lon="11.915462329979755"><ele>1.0</ele><time>2026-05-01T08:50:49Z</time></trkpt><trkpt lat="45.204201671858335" lon="11.915549511290255"><ele>1.0</ele><time>2026-05-01T08:50:50Z</time></trkpt><trkpt lat="45.204114602317844" lon="11.915638815956171"><ele>1.0</ele><time>2026-05-01T08:50:51Z</time></trkpt><trkpt lat="45.20402821048915" lon="11.91572411988628"><ele>1.0</ele><time>2026-05-01T08:50:52Z</time></trkpt><trkpt lat="45.203944585480585" lon="11.915808043347166"><ele>1.0</ele><time>2026-05-01T08:50:53Z</time></trkpt><trkpt lat="45.203861661625915" lon="11.915890565453813"><ele>1.0</ele><time>2026-05-01T08:50:54Z</time></trkpt><trkpt lat="45.20377683328134" lon="11.915967701708356"><ele>1.0</ele><time>2026-05-01T08:50:55Z</time></trkpt><trkpt lat="45.203690989359714" lon="11.91604103375393"><ele>1.0</ele><time>2026-05-01T08:50:56Z</time></trkpt><trkpt lat="45.203599646617484" lon="11.916086640215754"><ele>1.0</ele><time>2026-05-01T08:50:57Z</time></trkpt><trkpt lat="45.203505208574356" lon="11.91613198616062"><ele>1.0</ele><time>2026-05-01T08:50:58Z</time></trkpt><trkpt lat="45.20340876680329" lon="11.916161061288568"><ele>1.0</ele><time>2026-05-01T08:50:59Z</time></trkpt><trkpt lat="45.203306769558516" lon="11.916162765605595"><ele>1.0</ele><time>2026-05-01T08:51:00Z</time></trkpt><trkpt lat="45.203204459085256" lon="11.916136122542808"><ele>1.0</ele><time>2026-05-01T08:51:01Z</time></trkpt><trkpt lat="45.20310557704502" lon="11.916084462937471"><ele>1.0</ele><time>2026-05-01T08:51:02Z</time></trkpt><trkpt lat="45.203011187052695" lon="11.915996395476169"><ele>1.25</ele><time>2026-05-01T08:51:03Z</time></trkpt><trkpt lat="45.20291943032748" lon="11.915899659494336"><ele>1.5</ele><time>2026-05-01T08:51:04Z</time></trkpt><trkpt lat="45.20282244012457" lon="11.915814158461234"><ele>1.75</ele><time>2026-05-01T08:51:05Z</time></trkpt><trkpt lat="45.2027355777966" lon="11.915717473178244"><ele>2.0</ele><time>2026-05-01T08:51:06Z</time></trkpt><trkpt lat="45.20263982221299" lon="11.915633865808351"><ele>2.0</ele><time>2026-05-01T08:51:07Z</time></trkpt><trkpt lat="45.20253872851841" lon="11.915581748057024"><ele>2.0</ele><time>2026-05-01T08:51:08Z</time></trkpt><trkpt lat="45.20243117422715" lon="11.915525873837796"><ele>2.0</ele><time>2026-05-01T08:51:09Z</time></trkpt><trkpt lat="45.20232324252286" lon="11.915483928107566"><ele>2.0</ele><time>2026-05-01T08:51:10Z</time></trkpt><trkpt lat="45.20222058282129" lon="11.915446380926586"><ele>2.0</ele><time>2026-05-01T08:51:11Z</time></trkpt><trkpt lat="45.202112799965064" lon="11.91541719453056"><ele>2.0</ele><time>2026-05-01T08:51:12Z</time></trkpt><trkpt lat="45.20200473996237" lon="11.91538715628285"><ele>2.0</ele><time>2026-05-01T08:51:13Z</time></trkpt><trkpt lat="45.20190347939911" lon="11.91536213375574"><ele>2.0</ele><time>2026-05-01T08:51:14Z</time></trkpt><trkpt lat="45.201803985610795" lon="11.91535053991682"><ele>2.0</ele><time>2026-05-01T08:51:15Z</time></trkpt><trkpt lat="45.20171075042207" lon="11.91535286163803"><ele>2.0</ele><time>2026-05-01T08:51:16Z</time></trkpt><trkpt lat="45.20162428916342" lon="11.915351670595893"><ele>1.9999999999999998</ele><time>2026-05-01T08:51:17Z</time></trkpt><trkpt lat="45.20154633350196" lon="11.915353247709001"><ele>2.0</ele><time>2026-05-01T08:51:18Z</time></trkpt><trkpt lat="45.20147513831182" lon="11.915372263971237"><ele>2.0</ele><time>2026-05-01T08:51:19Z</time></trkpt><trkpt lat="45.2014168542357" lon="11.915406095304789"><ele>2.0</ele><time>2026-05-01T08:51:19.999Z</time></trkpt><trkpt lat="45.20131295986942" lon="11.915519614253553"><ele>1.9999999999999998</ele><time>2026-05-01T08:51:21.999Z</time></trkpt><trkpt lat="45.20126015295158" lon="11.915609840254579"><ele>2.0</ele><time>2026-05-01T08:51:22.999Z</time></trkpt><trkpt lat="45.20122456104756" lon="11.915726423702004"><ele>2.2</ele><time>2026-05-01T08:51:23.999Z</time></trkpt><trkpt lat="45.201178513042706" lon="11.915850747220656"><ele>2.4000000000000004</ele><time>2026-05-01T08:51:24.999Z</time></trkpt><trkpt lat="45.201128937106525" lon="11.915973801107612"><ele>2.5999999999999996</ele><time>2026-05-01T08:51:25.999Z</time></trkpt><trkpt lat="45.20107791821551" lon="11.9160924083869"><ele>2.8</ele><time>2026-05-01T08:51:26.999Z</time></trkpt><trkpt lat="45.20102705715834" lon="11.916213049649063"><ele>3.0</ele><time>2026-05-01T08:51:27.999Z</time></trkpt><trkpt lat="45.20097259336945" lon="11.916334350699694"><ele>2.6</ele><time>2026-05-01T08:51:28.999Z</time></trkpt><trkpt lat="45.20091835912305" lon="11.91646177873035"><ele>2.1999999999999997</ele><time>2026-05-01T08:51:29.999Z</time></trkpt><trkpt lat="45.20085969965651" lon="11.916587320480723"><ele>1.8</ele><time>2026-05-01T08:51:30.999Z</time></trkpt><trkpt lat="45.200797341428384" lon="11.916708968428633"><ele>1.4</ele><time>2026-05-01T08:51:31.999Z</time></trkpt><trkpt lat="45.20073499495515" lon="11.916830100707699"><ele>1.0</ele><time>2026-05-01T08:51:32.999Z</time></trkpt><trkpt lat="45.20067313982906" lon="11.916948659236215"><ele>0.8</ele><time>2026-05-01T08:51:33.999Z</time></trkpt><trkpt lat="45.200608831597606" lon="11.917070719234681"><ele>0.6000000000000001</ele><time>2026-05-01T08:51:34.999Z</time></trkpt><trkpt lat="45.20054191787798" lon="11.91718761461733"><ele>0.4</ele><time>2026-05-01T08:51:35.999Z</time></trkpt><trkpt lat="45.20047500350865" lon="11.917306834033814"><ele>0.2</ele><time>2026-05-01T08:51:36.999Z</time></trkpt><trkpt lat="45.200404582241" lon="11.917425330442528"><ele>0.0</ele><time>2026-05-01T08:51:37.999Z</time></trkpt><trkpt lat="45.20032956033374" lon="11.917536923155193"><ele>0.0</ele><time>2026-05-01T08:51:38.999Z</time></trkpt><trkpt lat="45.200243960818575" lon="11.917632458578835"><ele>0.0</ele><time>2026-05-01T08:51:39.999Z</time></trkpt><trkpt lat="45.20015005758712" lon="11.91771300509678"><ele>0.0</ele><time>2026-05-01T08:51:40.999Z</time></trkpt><trkpt lat="45.20005811072468" lon="11.917785826127886"><ele>0.0</ele><time>2026-05-01T08:51:41.999Z</time></trkpt><trkpt lat="45.1999652098001" lon="11.917860585465519"><ele>0.0</ele><time>2026-05-01T08:51:42.999Z</time></trkpt><trkpt lat="45.19987042708383" lon="11.917934707099219"><ele>0.2</ele><time>2026-05-01T08:51:43.999Z</time></trkpt><trkpt lat="45.19977694223512" lon="11.91801494594762"><ele>0.4</ele><time>2026-05-01T08:51:44.999Z</time></trkpt><trkpt lat="45.19968436984734" lon="11.918094451889722"><ele>0.6000000000000001</ele><time>2026-05-01T08:51:45.999Z</time></trkpt><trkpt lat="45.19959466790232" lon="11.918172879689617"><ele>0.8</ele><time>2026-05-01T08:51:46.999Z</time></trkpt><trkpt lat="45.199495527244416" lon="11.918253541905871"><ele>1.0</ele><time>2026-05-01T08:51:47.999Z</time></trkpt><trkpt lat="45.19940498266042" lon="11.918337713429453"><ele>1.2000000000000002</ele><time>2026-05-01T08:51:48.999Z</time></trkpt><trkpt lat="45.19931856255052" lon="11.91841326508521"><ele>1.4000000000000001</ele><time>2026-05-01T08:51:49.999Z</time></trkpt><trkpt lat="45.19922052894994" lon="11.918485522759298"><ele>1.6</ele><time>2026-05-01T08:51:50.999Z</time></trkpt><trkpt lat="45.19913119611454" lon="11.918575945916388"><ele>1.8</ele><time>2026-05-01T08:51:51.999Z</time></trkpt><trkpt lat="45.199043348715996" lon="11.918668179850739"><ele>2.0</ele><time>2026-05-01T08:51:52.999Z</time></trkpt><trkpt lat="45.19895714156012" lon="11.918773884618618"><ele>2.0</ele><time>2026-05-01T08:51:53.999Z</time></trkpt><trkpt lat="45.19887123899704" lon="11.918868887570826"><ele>2.0</ele><time>2026-05-01T08:51:54.999Z</time></trkpt><trkpt lat="45.19878466250441" lon="11.91896981868064"><ele>2.0</ele><time>2026-05-01T08:51:55.999Z</time></trkpt><trkpt lat="45.198695640856755" lon="11.91906781504861"><ele>2.0</ele><time>2026-05-01T08:51:56.999Z</time></trkpt><trkpt lat="45.19861619383676" lon="11.919170205740329"><ele>2.0</ele><time>2026-05-01T08:51:57.999Z</time></trkpt><trkpt lat="45.198555036845825" lon="11.919284827791676"><ele>2.0</ele><time>2026-05-01T08:51:58.999Z</time></trkpt><trkpt lat="45.19849748987633" lon="11.91942780843826"><ele>2.0</ele><time>2026-05-01T08:51:59.999Z</time></trkpt><trkpt lat="45.198454623517705" lon="11.919570980884734"><ele>2.0</ele><time>2026-05-01T08:52:00.999Z</time></trkpt><trkpt lat="45.19841562214609" lon="11.919714710665302"><ele>2.0</ele><time>2026-05-01T08:52:01.999Z</time></trkpt><trkpt lat="45.198384757863906" lon="11.919863129914475"><ele>2.0</ele><time>2026-05-01T08:52:02.999Z</time></trkpt><trkpt lat="45.19834005102592" lon="11.919998857835717"><ele>1.8</ele><time>2026-05-01T08:52:03.999Z</time></trkpt><trkpt lat="45.19827945058567" lon="11.920118312131292"><ele>1.6</ele><time>2026-05-01T08:52:04.999Z</time></trkpt><trkpt lat="45.19819236873753" lon="11.920205794260454"><ele>1.4000000000000001</ele><time>2026-05-01T08:52:05.999Z</time></trkpt><trkpt lat="45.198113101957354" lon="11.92031181439512"><ele>1.2000000000000002</ele><time>2026-05-01T08:52:06.999Z</time></trkpt><trkpt lat="45.19801479261699" lon="11.92039273632885"><ele>1.0</ele><time>2026-05-01T08:52:07.999Z</time></trkpt><trkpt lat="45.197917338618026" lon="11.920455389272915"><ele>1.0</ele><time>2026-05-01T08:52:08.999Z</time></trkpt><trkpt lat="45.197816287409665" lon="11.920513867980244"><ele>1.0</ele><time>2026-05-01T08:52:09.999Z</time></trkpt><trkpt lat="45.19771287688807" lon="11.920575291866294"><ele>1.0</ele><time>2026-05-01T08:52:10.999Z</time></trkpt><trkpt lat="45.197607795255564" lon="11.920638955275898"><ele>1.0</ele><time>2026-05-01T08:52:11.999Z</time></trkpt><trkpt lat="45.19751190835209" lon="11.920703519448317"><ele>1.0</ele><time>2026-05-01T08:52:12.999Z</time></trkpt><trkpt lat="45.197414270553246" lon="11.92075985463758"><ele>1.2000000000000002</ele><time>2026-05-01T08:52:13.999Z</time></trkpt><trkpt lat="45.19731460775955" lon="11.920819005931577"><ele>1.4000000000000001</ele><time>2026-05-01T08:52:14.999Z</time></trkpt><trkpt lat="45.19721307800782" lon="11.920878414207271"><ele>1.6</ele><time>2026-05-01T08:52:15.999Z</time></trkpt><trkpt lat="45.197115972972725" lon="11.920939834889472"><ele>1.8</ele><time>2026-05-01T08:52:16.999Z</time></trkpt><trkpt lat="45.197016949807605" lon="11.921002876745515"><ele>2.0</ele><time>2026-05-01T08:52:17.999Z</time></trkpt><trkpt lat="45.19691671192949" lon="11.921069473809556"><ele>2.0</ele><time>2026-05-01T08:52:18.999Z</time></trkpt><trkpt lat="45.19681836730029" lon="11.921128872735249"><ele>2.0</ele><time>2026-05-01T08:52:19.999Z</time></trkpt><trkpt lat="45.19671241318855" lon="11.921186896135612"><ele>2.0</ele><time>2026-05-01T08:52:20.999Z</time></trkpt><trkpt lat="45.19661325859996" lon="11.921249884422044"><ele>2.0</ele><time>2026-05-01T08:52:21.999Z</time></trkpt><trkpt lat="45.196516450927994" lon="11.921309732460605"><ele>2.0</ele><time>2026-05-01T08:52:22.999Z</time></trkpt><trkpt lat="45.19641707093211" lon="11.921366368164897"><ele>2.0</ele><time>2026-05-01T08:52:23.999Z</time></trkpt><trkpt lat="45.19631417942391" lon="11.921429944324865"><ele>2.0</ele><time>2026-05-01T08:52:24.999Z</time></trkpt><trkpt lat="45.19620407935724" lon="11.921480926480948"><ele>2.0</ele><time>2026-05-01T08:52:25.999Z</time></trkpt><trkpt lat="45.19608819737066" lon="11.92149599512846"><ele>2.0</ele><time>2026-05-01T08:52:26.999Z</time></trkpt><trkpt lat="45.19598565416277" lon="11.921482216231245"><ele>2.0</ele><time>2026-05-01T08:52:27.999Z</time></trkpt><trkpt lat="45.19587991338621" lon="11.921484800833285"><ele>2.0</ele><time>2026-05-01T08:52:28.999Z</time></trkpt><trkpt lat="45.195770527413586" lon="11.92148897748269"><ele>2.0</ele><time>2026-05-01T08:52:29.999Z</time></trkpt><trkpt lat="45.195661429730286" lon="11.921490942433111"><ele>2.0</ele><time>2026-05-01T08:52:30.999Z</time></trkpt><trkpt lat="45.19555196270542" lon="11.921490439475932"><ele>2.0</ele><time>2026-05-01T08:52:31.999Z</time></trkpt><trkpt lat="45.19544497456045" lon="11.921491139155803"><ele>2.0</ele><time>2026-05-01T08:52:32.999Z</time></trkpt><trkpt lat="45.19533216781096" lon="11.921491842388608"><ele>1.8</ele><time>2026-05-01T08:52:33.999Z</time></trkpt><trkpt lat="45.195221023874204" lon="11.921504823869864"><ele>1.6</ele><time>2026-05-01T08:52:34.999Z</time></trkpt><trkpt lat="45.19511556439205" lon="11.921504765481176"><ele>1.4000000000000001</ele><time>2026-05-01T08:52:35.998Z</time></trkpt><trkpt lat="45.19500567586726" lon="11.92150806299336"><ele>1.2000000000000002</ele><time>2026-05-01T08:52:36.998Z</time></trkpt><trkpt lat="45.194894398067134" lon="11.921513784798512"><ele>1.0</ele><time>2026-05-01T08:52:37.998Z</time></trkpt><trkpt lat="45.194783504681986" lon="11.921514551839278"><ele>1.0</ele><time>2026-05-01T08:52:39Z</time></trkpt><trkpt lat="45.19467365454986" lon="11.921527930560561"><ele>1.0</ele><time>2026-05-01T08:52:40Z</time></trkpt><trkpt lat="45.19456107619799" lon="11.921543246356856"><ele>1.0</ele><time>2026-05-01T08:52:41Z</time></trkpt><trkpt lat="45.194450422008224" lon="11.921559748999908"><ele>1.0</ele><time>2026-05-01T08:52:42Z</time></trkpt><trkpt lat="45.19433967772899" lon="11.921575039546296"><ele>1.0</ele><time>2026-05-01T08:52:43Z</time></trkpt><trkpt lat="45.194229290469615" lon="11.921591033436478"><ele>1.0</ele><time>2026-05-01T08:52:44Z</time></trkpt><trkpt lat="45.19412067416507" lon="11.921609568173091"><ele>1.0</ele><time>2026-05-01T08:52:45Z</time></trkpt><trkpt lat="45.194013834745995" lon="11.921624300892198"><ele>1.0</ele><time>2026-05-01T08:52:46Z</time></trkpt><trkpt lat="45.19389894299681" lon="11.921640224216395"><ele>1.0</ele><time>2026-05-01T08:52:47Z</time></trkpt><trkpt lat="45.193791598328744" lon="11.921670346333123"><ele>1.0</ele><time>2026-05-01T08:52:48Z</time></trkpt><trkpt lat="45.19368699077845" lon="11.92169532936209"><ele>0.8</ele><time>2026-05-01T08:52:49Z</time></trkpt><trkpt lat="45.193570028365734" lon="11.921725980571834"><ele>0.6000000000000001</ele><time>2026-05-01T08:52:50Z</time></trkpt><trkpt lat="45.193465482581274" lon="11.9217588530937"><ele>0.4</ele><time>2026-05-01T08:52:51Z</time></trkpt><trkpt lat="45.19336172299958" lon="11.921792635302584"><ele>0.2</ele><time>2026-05-01T08:52:52Z</time></trkpt><trkpt lat="45.19324969644223" lon="11.921821942977775"><ele>0.0</ele><time>2026-05-01T08:52:53Z</time></trkpt><trkpt lat="45.1931311966314" lon="11.921846962359268"><ele>0.0</ele><time>2026-05-01T08:52:54Z</time></trkpt><trkpt lat="45.1930217890096" lon="11.921816205991037"><ele>0.0</ele><time>2026-05-01T08:52:55Z</time></trkpt><trkpt lat="45.19292721120315" lon="11.921795872575968"><ele>0.0</ele><time>2026-05-01T08:52:56Z</time></trkpt><trkpt lat="45.19281621423491" lon="11.921785071260393"><ele>0.0</ele><time>2026-05-01T08:52:57Z</time></trkpt><trkpt lat="45.192708351118675" lon="11.921739556699059"><ele>0.0</ele><time>2026-05-01T08:52:58Z</time></trkpt><trkpt lat="45.19259796551279" lon="11.92170123153854"><ele>0.0</ele><time>2026-05-01T08:52:59Z</time></trkpt><trkpt lat="45.19249235579203" lon="11.921672673814847"><ele>0.0</ele><time>2026-05-01T08:53:00Z</time></trkpt><trkpt lat="45.19238991167422" lon="11.921638620585501"><ele>0.0</ele><time>2026-05-01T08:53:01Z</time></trkpt><trkpt lat="45.1922853265727" lon="11.921629324425625"><ele>0.0</ele><time>2026-05-01T08:53:02Z</time></trkpt><trkpt lat="45.19217387971865" lon="11.92165176362939"><ele>0.0</ele><time>2026-05-01T08:53:03Z</time></trkpt><trkpt lat="45.192058430806924" lon="11.921683868970707"><ele>0.2</ele><time>2026-05-01T08:53:04Z</time></trkpt><trkpt lat="45.19193256760161" lon="11.921716278945263"><ele>0.4</ele><time>2026-05-01T08:53:05Z</time></trkpt><trkpt lat="45.19185315310718" lon="11.921760168662875"><ele>0.6000000000000001</ele><time>2026-05-01T08:53:06Z</time></trkpt><trkpt lat="45.191750238416354" lon="11.921801980656838"><ele>0.8</ele><time>2026-05-01T08:53:07Z</time></trkpt><trkpt lat="45.19163869974077" lon="11.921845127577994"><ele>1.0</ele><time>2026-05-01T08:53:08Z</time></trkpt><trkpt lat="45.19152970933453" lon="11.921852962179871"><ele>1.0</ele><time>2026-05-01T08:53:09Z</time></trkpt><trkpt lat="45.19141969609421" lon="11.921856776395348"><ele>1.0</ele><time>2026-05-01T08:53:10Z</time></trkpt><trkpt lat="45.1913031097357" lon="11.921860940774764"><ele>1.0</ele><time>2026-05-01T08:53:11Z</time></trkpt><trkpt lat="45.19118453257097" lon="11.921867355539616"><ele>1.0</ele><time>2026-05-01T08:53:12Z</time></trkpt><trkpt lat="45.19106367267682" lon="11.92187458016844"><ele>1.0</ele><time>2026-05-01T08:53:13Z</time></trkpt><trkpt lat="45.19094297846898" lon="11.92188162360704"><ele>1.0</ele><time>2026-05-01T08:53:14Z</time></trkpt><trkpt lat="45.190822329026346" lon="11.921887000528958"><ele>1.0</ele><time>2026-05-01T08:53:15Z</time></trkpt><trkpt lat="45.19070263199357" lon="11.921894168516465"><ele>1.0</ele><time>2026-05-01T08:53:16Z</time></trkpt><trkpt lat="45.19058439102696" lon="11.921896452812293"><ele>1.2000000000000002</ele><time>2026-05-01T08:53:17Z</time></trkpt><trkpt lat="45.19046623189208" lon="11.921898557188955"><ele>1.4000000000000001</ele><time>2026-05-01T08:53:18Z</time></trkpt><trkpt lat="45.19035741636518" lon="11.921916576229629"><ele>1.6</ele><time>2026-05-01T08:53:19Z</time></trkpt><trkpt lat="45.19025103284548" lon="11.921936830866308"><ele>1.8</ele><time>2026-05-01T08:53:20Z</time></trkpt><trkpt lat="45.190146173752005" lon="11.921964141688807"><ele>2.0</ele><time>2026-05-01T08:53:21Z</time></trkpt><trkpt lat="45.19004089689756" lon="11.922009360289959"><ele>2.0</ele><time>2026-05-01T08:53:22Z</time></trkpt><trkpt lat="45.18993698305135" lon="11.922066955934028"><ele>2.0</ele><time>2026-05-01T08:53:22.999Z</time></trkpt><trkpt lat="45.18983413363578" lon="11.92213303370659"><ele>2.0</ele><time>2026-05-01T08:53:23.999Z</time></trkpt><trkpt lat="45.18973117785195" lon="11.922200996353181"><ele>2.0</ele><time>2026-05-01T08:53:24.999Z</time></trkpt><trkpt lat="45.18963081609375" lon="11.92227018167399"><ele>2.0</ele><time>2026-05-01T08:53:25.999Z</time></trkpt><trkpt lat="45.1895324619032" lon="11.922335979747158"><ele>2.0</ele><time>2026-05-01T08:53:26.999Z</time></trkpt><trkpt lat="45.18943948419351" lon="11.92241590739781"><ele>2.0</ele><time>2026-05-01T08:53:27.999Z</time></trkpt><trkpt lat="45.18934053498099" lon="11.922485548090467"><ele>2.0</ele><time>2026-05-01T08:53:28.999Z</time></trkpt><trkpt lat="45.18924018182488" lon="11.922554164705252"><ele>2.0</ele><time>2026-05-01T08:53:29.999Z</time></trkpt><trkpt lat="45.18914103063993" lon="11.9226183572997"><ele>1.8</ele><time>2026-05-01T08:53:30.999Z</time></trkpt><trkpt lat="45.18903523839389" lon="11.922672817752227"><ele>1.6</ele><time>2026-05-01T08:53:31.999Z</time></trkpt><trkpt lat="45.18893302362625" lon="11.922726629282451"><ele>1.4000000000000001</ele><time>2026-05-01T08:53:32.999Z</time></trkpt><trkpt lat="45.188826634235056" lon="11.922773699928394"><ele>1.2000000000000002</ele><time>2026-05-01T08:53:33.999Z</time></trkpt><trkpt lat="45.18871819523946" lon="11.922815331785962"><ele>1.0</ele><time>2026-05-01T08:53:34.999Z</time></trkpt><trkpt lat="45.18861390708257" lon="11.922860988838211"><ele>0.8</ele><time>2026-05-01T08:53:35.999Z</time></trkpt><trkpt lat="45.18851197493409" lon="11.922897256541093"><ele>0.6000000000000001</ele><time>2026-05-01T08:53:36.999Z</time></trkpt><trkpt lat="45.18840641083535" lon="11.922921795547202"><ele>0.4</ele><time>2026-05-01T08:53:37.999Z</time></trkpt><trkpt lat="45.18829392348195" lon="11.922942607446746"><ele>0.2</ele><time>2026-05-01T08:53:38.999Z</time></trkpt><trkpt lat="45.18818333599345" lon="11.922957867953562"><ele>0.0</ele><time>2026-05-01T08:53:39.999Z</time></trkpt><trkpt lat="45.188072136082724" lon="11.922970487406655"><ele>0.75</ele><time>2026-05-01T08:53:40.999Z</time></trkpt><trkpt lat="45.18795826112717" lon="11.922977978796677"><ele>1.5</ele><time>2026-05-01T08:53:41.999Z</time></trkpt><trkpt lat="45.187843766400604" lon="11.922987018506532"><ele>2.25</ele><time>2026-05-01T08:53:42.999Z</time></trkpt><trkpt lat="45.18773109227796" lon="11.923005367921553"><ele>3.0</ele><time>2026-05-01T08:53:43.999Z</time></trkpt><trkpt lat="45.18762355205791" lon="11.923040218067213"><ele>3.0</ele><time>2026-05-01T08:53:44.999Z</time></trkpt><trkpt lat="45.18751810760121" lon="11.923089411008823"><ele>3.0</ele><time>2026-05-01T08:53:45.999Z</time></trkpt><trkpt lat="45.18741837042572" lon="11.923133522648884"><ele>3.0</ele><time>2026-05-01T08:53:46.999Z</time></trkpt><trkpt lat="45.18732332099864" lon="11.923183352721868"><ele>3.0</ele><time>2026-05-01T08:53:47.999Z</time></trkpt><trkpt lat="45.18723692005988" lon="11.9232305590757"><ele>3.0</ele><time>2026-05-01T08:53:48.999Z</time></trkpt><trkpt lat="45.18715939668897" lon="11.923292798228289"><ele>2.8</ele><time>2026-05-01T08:53:49.999Z</time></trkpt><trkpt lat="45.1870940981343" lon="11.923383598457193"><ele>2.5999999999999996</ele><time>2026-05-01T08:53:50.999Z</time></trkpt><trkpt lat="45.187036645342594" lon="11.92349761557607"><ele>2.4000000000000004</ele><time>2026-05-01T08:53:51.999Z</time></trkpt><trkpt lat="45.18699927419198" lon="11.92363054194742"><ele>2.2</ele><time>2026-05-01T08:53:52.999Z</time></trkpt><trkpt lat="45.18697860608616" lon="11.923782321836596"><ele>2.0</ele><time>2026-05-01T08:53:53.999Z</time></trkpt><trkpt lat="45.18697330820748" lon="11.923939822577713"><ele>2.0</ele><time>2026-05-01T08:53:54.999Z</time></trkpt><trkpt lat="45.18695360331191" lon="11.92409529285708"><ele>2.0</ele><time>2026-05-01T08:53:55.999Z</time></trkpt><trkpt lat="45.18694607575528" lon="11.92425547347095"><ele>2.0</ele><time>2026-05-01T08:53:56.999Z</time></trkpt><trkpt lat="45.18693653124342" lon="11.924415553561548"><ele>2.0</ele><time>2026-05-01T08:53:57.999Z</time></trkpt><trkpt lat="45.186922481787114" lon="11.924573458184643"><ele>1.8333333333333333</ele><time>2026-05-01T08:53:58.999Z</time></trkpt><trkpt lat="45.18690354057311" lon="11.92472374649388"><ele>1.6666666666666665</ele><time>2026-05-01T08:53:59.999Z</time></trkpt><trkpt lat="45.18687975087366" lon="11.924858411886744"><ele>1.5</ele><time>2026-05-01T08:54:00.999Z</time></trkpt><trkpt lat="45.18684933268068" lon="11.924967726346827"><ele>1.3333333333333333</ele><time>2026-05-01T08:54:01.999Z</time></trkpt><trkpt lat="45.18680618117426" lon="11.925066014202956"><ele>1.1666666666666665</ele><time>2026-05-01T08:54:02.999Z</time></trkpt><trkpt lat="45.18675299035912" lon="11.925142497952153"><ele>1.0</ele><time>2026-05-01T08:54:03.999Z</time></trkpt><trkpt lat="45.18666613239467" lon="11.925160999190364"><ele>1.0</ele><time>2026-05-01T08:54:04.999Z</time></trkpt><trkpt lat="45.186571368571244" lon="11.925135173713704"><ele>1.0</ele><time>2026-05-01T08:54:05.999Z</time></trkpt><trkpt lat="45.18648502650024" lon="11.925071076611516"><ele>1.0</ele><time>2026-05-01T08:54:06.999Z</time></trkpt><trkpt lat="45.18639634942075" lon="11.924991252297561"><ele>1.0</ele><time>2026-05-01T08:54:07.999Z</time></trkpt><trkpt lat="45.1862995027528" lon="11.924927408836988"><ele>1.0</ele><time>2026-05-01T08:54:08.999Z</time></trkpt><trkpt lat="45.18619787621745" lon="11.92487473390363"><ele>1.0</ele><time>2026-05-01T08:54:09.999Z</time></trkpt><trkpt lat="45.18609124648853" lon="11.924822189853167"><ele>1.0</ele><time>2026-05-01T08:54:10.999Z</time></trkpt><trkpt lat="45.18598157928559" lon="11.924772939960718"><ele>1.0</ele><time>2026-05-01T08:54:11.999Z</time></trkpt><trkpt lat="45.185871885452755" lon="11.924730954611508"><ele>1.0</ele><time>2026-05-01T08:54:12.999Z</time></trkpt><trkpt lat="45.18575685421361" lon="11.924699255330198"><ele>1.0</ele><time>2026-05-01T08:54:13.999Z</time></trkpt><trkpt lat="45.18564237410279" lon="11.92468341653532"><ele>1.0</ele><time>2026-05-01T08:54:14.999Z</time></trkpt><trkpt lat="45.185532315034166" lon="11.924667123979285"><ele>1.0</ele><time>2026-05-01T08:54:15.999Z</time></trkpt><trkpt lat="45.185426064078676" lon="11.924649462707265"><ele>1.0</ele><time>2026-05-01T08:54:16.999Z</time></trkpt><trkpt lat="45.18531247770974" lon="11.92462755031416"><ele>1.0</ele><time>2026-05-01T08:54:17.999Z</time></trkpt><trkpt lat="45.18520561018365" lon="11.924612181174064"><ele>1.0</ele><time>2026-05-01T08:54:18.999Z</time></trkpt><trkpt lat="45.18509691089197" lon="11.92458727341648"><ele>1.0</ele><time>2026-05-01T08:54:19.999Z</time></trkpt><trkpt lat="45.184986908606604" lon="11.924562990919664"><ele>1.0</ele><time>2026-05-01T08:54:20.999Z</time></trkpt><trkpt lat="45.18487471130832" lon="11.924533338951203"><ele>1.0</ele><time>2026-05-01T08:54:21.999Z</time></trkpt><trkpt lat="45.18476554461835" lon="11.924498682040465"><ele>1.0</ele><time>2026-05-01T08:54:22.999Z</time></trkpt><trkpt lat="45.18465354295021" lon="11.924469616884439"><ele>1.2000000000000002</ele><time>2026-05-01T08:54:23.999Z</time></trkpt><trkpt lat="45.18454770761079" lon="11.924416336593332"><ele>1.4000000000000001</ele><time>2026-05-01T08:54:24.999Z</time></trkpt><trkpt lat="45.184440719537" lon="11.924365262653515"><ele>1.6</ele><time>2026-05-01T08:54:25.999Z</time></trkpt><trkpt lat="45.18433355341484" lon="11.924312535856581"><ele>1.8</ele><time>2026-05-01T08:54:26.999Z</time></trkpt><trkpt lat="45.184229833760085" lon="11.924260973960015"><ele>2.0</ele><time>2026-05-01T08:54:27.999Z</time></trkpt><trkpt lat="45.18413649073185" lon="11.924219574876815"><ele>1.9999999999999998</ele><time>2026-05-01T08:54:28.999Z</time></trkpt><trkpt lat="45.184047165937855" lon="11.924181627041873"><ele>2.0</ele><time>2026-05-01T08:54:29.999Z</time></trkpt><trkpt lat="45.18396454226891" lon="11.924141742082757"><ele>2.0</ele><time>2026-05-01T08:54:30.999Z</time></trkpt><trkpt lat="45.18390039574707" lon="11.924109597755454"><ele>2.0</ele><time>2026-05-01T08:54:31.999Z</time></trkpt><trkpt lat="45.18381012052097" lon="11.924063564091458"><ele>1.9999999999999998</ele><time>2026-05-01T08:54:33.999Z</time></trkpt><trkpt lat="45.183715194264465" lon="11.924015061882672"><ele>2.0</ele><time>2026-05-01T08:54:35.999Z</time></trkpt><trkpt lat="45.183587070507265" lon="11.923947373483097"><ele>2.0</ele><time>2026-05-01T08:54:37.999Z</time></trkpt><trkpt lat="45.18350912358951" lon="11.923915455295381"><ele>2.0</ele><time>2026-05-01T08:54:38.999Z</time></trkpt><trkpt lat="45.18342424806001" lon="11.923877333379806"><ele>2.0</ele><time>2026-05-01T08:54:39.999Z</time></trkpt><trkpt lat="45.18333542137267" lon="11.923831024153264"><ele>2.0</ele><time>2026-05-01T08:54:40.998Z</time></trkpt><trkpt lat="45.18324053077901" lon="11.923784571537105"><ele>2.0</ele><time>2026-05-01T08:54:41.998Z</time></trkpt><trkpt lat="45.18314522552666" lon="11.92373898335821"><ele>1.8</ele><time>2026-05-01T08:54:42.998Z</time></trkpt><trkpt lat="45.183049436693295" lon="11.923694983034887"><ele>1.6</ele><time>2026-05-01T08:54:43.998Z</time></trkpt><trkpt lat="45.18296087012179" lon="11.923630380899706"><ele>1.4000000000000001</ele><time>2026-05-01T08:54:45Z</time></trkpt><trkpt lat="45.18286761746267" lon="11.923584103008498"><ele>1.2000000000000002</ele><time>2026-05-01T08:54:46Z</time></trkpt><trkpt lat="45.18277109636964" lon="11.923536416309233"><ele>1.0</ele><time>2026-05-01T08:54:47Z</time></trkpt><trkpt lat="45.18267192155338" lon="11.923487534936843"><ele>1.0</ele><time>2026-05-01T08:54:48Z</time></trkpt><trkpt lat="45.18257313963188" lon="11.923440959176196"><ele>1.0</ele><time>2026-05-01T08:54:49Z</time></trkpt><trkpt lat="45.182469002005384" lon="11.923412078058025"><ele>1.0</ele><time>2026-05-01T08:54:50Z</time></trkpt><trkpt lat="45.18236636859354" lon="11.92336453013842"><ele>1.0</ele><time>2026-05-01T08:54:51Z</time></trkpt><trkpt lat="45.1822670388034" lon="11.923311134709776"><ele>1.0</ele><time>2026-05-01T08:54:52Z</time></trkpt><trkpt lat="45.18216815025223" lon="11.923265337995014"><ele>1.6</ele><time>2026-05-01T08:54:53Z</time></trkpt><trkpt lat="45.18207868874377" lon="11.923212116559442"><ele>2.2</ele><time>2026-05-01T08:54:54Z</time></trkpt><trkpt lat="45.18198498342175" lon="11.923162008997442"><ele>2.8000000000000003</ele><time>2026-05-01T08:54:55Z</time></trkpt><trkpt lat="45.181883940972114" lon="11.923122630906192"><ele>3.4000000000000004</ele><time>2026-05-01T08:54:56Z</time></trkpt><trkpt lat="45.18178659999076" lon="11.923077743350333"><ele>4.0</ele><time>2026-05-01T08:54:57Z</time></trkpt><trkpt lat="45.18168907834604" lon="11.923034440852117"><ele>3.9999999999999996</ele><time>2026-05-01T08:54:58Z</time></trkpt><trkpt lat="45.1815981058171" lon="11.922995108019084"><ele>4.0</ele><time>2026-05-01T08:54:59Z</time></trkpt><trkpt lat="45.18151064406217" lon="11.92295810514904"><ele>4.0</ele><time>2026-05-01T08:55:00Z</time></trkpt><trkpt lat="45.18142911634669" lon="11.922919703306597"><ele>4.0</ele><time>2026-05-01T08:55:01Z</time></trkpt><trkpt lat="45.181354446727056" lon="11.9228836277693"><ele>3.9999999999999996</ele><time>2026-05-01T08:55:02Z</time></trkpt><trkpt lat="45.181293020018366" lon="11.922847588910916"><ele>4.0</ele><time>2026-05-01T08:55:03Z</time></trkpt><trkpt lat="45.18121697858297" lon="11.922788202988313"><ele>4.0</ele><time>2026-05-01T08:55:05Z</time></trkpt><trkpt lat="45.18114144627786" lon="11.922731583305907"><ele>4.0</ele><time>2026-05-01T08:55:10Z</time></trkpt><trkpt lat="45.18104594307144" lon="11.922828566193163"><ele>4.0</ele><time>2026-05-01T08:55:12Z</time></trkpt><trkpt lat="45.180994841697725" lon="11.922937769977038"><ele>4.0</ele><time>2026-05-01T08:55:13Z</time></trkpt><trkpt lat="45.180941356102856" lon="11.923032612073873"><ele>4.0</ele><time>2026-05-01T08:55:14Z</time></trkpt><trkpt lat="45.18087669770495" lon="11.923122988939648"><ele>4.0</ele><time>2026-05-01T08:55:15Z</time></trkpt><trkpt lat="45.180802924984675" lon="11.923213675286627"><ele>4.0</ele><time>2026-05-01T08:55:16Z</time></trkpt><trkpt lat="45.180727587978005" lon="11.923299341576715"><ele>4.0</ele><time>2026-05-01T08:55:17Z</time></trkpt><trkpt lat="45.18064777975097" lon="11.923381349489482"><ele>4.0</ele><time>2026-05-01T08:55:18Z</time></trkpt><trkpt lat="45.18055709049743" lon="11.923451394837466"><ele>4.0</ele><time>2026-05-01T08:55:19Z</time></trkpt><trkpt lat="45.180463823166086" lon="11.923529509800597"><ele>3.6</ele><time>2026-05-01T08:55:20Z</time></trkpt><trkpt lat="45.1803730056903" lon="11.923600848075282"><ele>3.2</ele><time>2026-05-01T08:55:21Z</time></trkpt><trkpt lat="45.18027259551246" lon="11.923656822887372"><ele>2.8000000000000003</ele><time>2026-05-01T08:55:22Z</time></trkpt><trkpt lat="45.180167937283144" lon="11.92370946819379"><ele>2.4000000000000004</ele><time>2026-05-01T08:55:23Z</time></trkpt><trkpt lat="45.180063094256596" lon="11.923754478994104"><ele>2.0</ele><time>2026-05-01T08:55:24Z</time></trkpt><trkpt lat="45.1799625418488" lon="11.923789091611264"><ele>2.0</ele><time>2026-05-01T08:55:25Z</time></trkpt><trkpt lat="45.179851264159694" lon="11.923833233472775"><ele>2.0</ele><time>2026-05-01T08:55:26Z</time></trkpt><trkpt lat="45.17974141636673" lon="11.923880182137713"><ele>2.0</ele><time>2026-05-01T08:55:27Z</time></trkpt><trkpt lat="45.179637659250965" lon="11.923921229957514"><ele>2.0</ele><time>2026-05-01T08:55:28Z</time></trkpt><trkpt lat="45.17953883194861" lon="11.92396586909488"><ele>2.0</ele><time>2026-05-01T08:55:29Z</time></trkpt><trkpt lat="45.17943456023126" lon="11.924008668247406"><ele>2.0</ele><time>2026-05-01T08:55:30Z</time></trkpt><trkpt lat="45.179332874559684" lon="11.92404708502666"><ele>2.0</ele><time>2026-05-01T08:55:31Z</time></trkpt><trkpt lat="45.17923393001443" lon="11.92408637417344"><ele>2.0</ele><time>2026-05-01T08:55:32Z</time></trkpt><trkpt lat="45.17913410498954" lon="11.924125427901357"><ele>2.0</ele><time>2026-05-01T08:55:33Z</time></trkpt><trkpt lat="45.17903187782239" lon="11.924164362520933"><ele>2.0</ele><time>2026-05-01T08:55:34Z</time></trkpt><trkpt lat="45.178931409716824" lon="11.92420457738037"><ele>2.4000000000000004</ele><time>2026-05-01T08:55:35Z</time></trkpt><trkpt lat="45.17882858852662" lon="11.924243935527421"><ele>2.8000000000000003</ele><time>2026-05-01T08:55:36Z</time></trkpt><trkpt lat="45.178724596238276" lon="11.924282759129147"><ele>3.2</ele><time>2026-05-01T08:55:36.999Z</time></trkpt><trkpt lat="45.178621772447066" lon="11.924323948790171"><ele>3.6</ele><time>2026-05-01T08:55:37.999Z</time></trkpt><trkpt lat="45.178519735917874" lon="11.924363803496313"><ele>4.0</ele><time>2026-05-01T08:55:38.999Z</time></trkpt><trkpt lat="45.17841704860988" lon="11.92440528407094"><ele>4.0</ele><time>2026-05-01T08:55:39.999Z</time></trkpt><trkpt lat="45.17831654440196" lon="11.924448874470873"><ele>4.0</ele><time>2026-05-01T08:55:40.999Z</time></trkpt><trkpt lat="45.178216111972546" lon="11.924491907354207"><ele>4.0</ele><time>2026-05-01T08:55:41.999Z</time></trkpt><trkpt lat="45.178119240928226" lon="11.924544567966038"><ele>4.0</ele><time>2026-05-01T08:55:42.999Z</time></trkpt><trkpt lat="45.17802372304831" lon="11.924597075778058"><ele>4.0</ele><time>2026-05-01T08:55:43.999Z</time></trkpt><trkpt lat="45.177935801162555" lon="11.924666429962532"><ele>4.0</ele><time>2026-05-01T08:55:44.999Z</time></trkpt><trkpt lat="45.177846613535216" lon="11.924744320069449"><ele>4.0</ele><time>2026-05-01T08:55:45.999Z</time></trkpt><trkpt lat="45.17776226419214" lon="11.924830888794224"><ele>4.0</ele><time>2026-05-01T08:55:46.999Z</time></trkpt><trkpt lat="45.177682693213455" lon="11.924928374447942"><ele>4.0</ele><time>2026-05-01T08:55:47.999Z</time></trkpt><trkpt lat="45.17760763435948" lon="11.925032047242157"><ele>4.0</ele><time>2026-05-01T08:55:48.999Z</time></trkpt><trkpt lat="45.17753534394457" lon="11.925141525537246"><ele>4.0</ele><time>2026-05-01T08:55:49.999Z</time></trkpt><trkpt lat="45.177469048093464" lon="11.925256258044627"><ele>4.0</ele><time>2026-05-01T08:55:50.999Z</time></trkpt><trkpt lat="45.17740290675943" lon="11.925371217939917"><ele>4.0</ele><time>2026-05-01T08:55:51.999Z</time></trkpt><trkpt lat="45.17733309090364" lon="11.92548271642652"><ele>4.0</ele><time>2026-05-01T08:55:52.999Z</time></trkpt><trkpt lat="45.177270001532875" lon="11.925599485741941"><ele>4.0</ele><time>2026-05-01T08:55:53.999Z</time></trkpt><trkpt lat="45.17720870222953" lon="11.925716607283906"><ele>3.8000000000000003</ele><time>2026-05-01T08:55:54.999Z</time></trkpt><trkpt lat="45.17713957784006" lon="11.925832604244372"><ele>3.6000000000000005</ele><time>2026-05-01T08:55:55.999Z</time></trkpt><trkpt lat="45.17707596394922" lon="11.92593807686914"><ele>3.4</ele><time>2026-05-01T08:55:56.999Z</time></trkpt><trkpt lat="45.17701441194664" lon="11.926049075792902"><ele>3.2</ele><time>2026-05-01T08:55:57.999Z</time></trkpt><trkpt lat="45.17696100793408" lon="11.926151757435594"><ele>3.0</ele><time>2026-05-01T08:55:58.999Z</time></trkpt><trkpt lat="45.176913012112486" lon="11.92624043808726"><ele>3.0</ele><time>2026-05-01T08:55:59.999Z</time></trkpt><trkpt lat="45.17686460110113" lon="11.926318602195215"><ele>3.0</ele><time>2026-05-01T08:56:00.999Z</time></trkpt><trkpt lat="45.17678539043535" lon="11.926437082267958"><ele>3.0</ele><time>2026-05-01T08:56:02.999Z</time></trkpt><trkpt lat="45.176704067386254" lon="11.926484787546915"><ele>3.0</ele><time>2026-05-01T08:56:04.999Z</time></trkpt><trkpt lat="45.17662817613035" lon="11.926384164994985"><ele>3.0</ele><time>2026-05-01T08:56:05.999Z</time></trkpt><trkpt lat="45.17654956601216" lon="11.926342101663645"><ele>2.6</ele><time>2026-05-01T08:56:06.999Z</time></trkpt><trkpt lat="45.17647222553761" lon="11.926258101487543"><ele>2.1999999999999997</ele><time>2026-05-01T08:56:07.999Z</time></trkpt><trkpt lat="45.17638877829459" lon="11.926186678424479"><ele>1.8</ele><time>2026-05-01T08:56:08.999Z</time></trkpt><trkpt lat="45.176297744608505" lon="11.926126640619538"><ele>1.4</ele><time>2026-05-01T08:56:09.999Z</time></trkpt><trkpt lat="45.17620713727661" lon="11.926056176610404"><ele>1.0</ele><time>2026-05-01T08:56:10.999Z</time></trkpt><trkpt lat="45.176114023588504" lon="11.925977881076983"><ele>1.0</ele><time>2026-05-01T08:56:11.999Z</time></trkpt><trkpt lat="45.17601553851945" lon="11.925896535929798"><ele>1.0</ele><time>2026-05-01T08:56:12.999Z</time></trkpt><trkpt lat="45.175920359365804" lon="11.925821776735146"><ele>1.0</ele><time>2026-05-01T08:56:13.999Z</time></trkpt><trkpt lat="45.17582704798273" lon="11.925755450824733"><ele>1.0</ele><time>2026-05-01T08:56:14.999Z</time></trkpt><trkpt lat="45.17572872152983" lon="11.92568209908778"><ele>1.0</ele><time>2026-05-01T08:56:15.999Z</time></trkpt><trkpt lat="45.17562770659872" lon="11.92560167128666"><ele>1.0</ele><time>2026-05-01T08:56:16.999Z</time></trkpt><trkpt lat="45.17553823200268" lon="11.92552298703005"><ele>1.0</ele><time>2026-05-01T08:56:17.999Z</time></trkpt><trkpt lat="45.17544556617717" lon="11.925442274109509"><ele>1.0</ele><time>2026-05-01T08:56:18.999Z</time></trkpt><trkpt lat="45.17534039332384" lon="11.925367614885122"><ele>1.0</ele><time>2026-05-01T08:56:19.999Z</time></trkpt><trkpt lat="45.175247207063855" lon="11.925294725303786"><ele>1.0</ele><time>2026-05-01T08:56:20.999Z</time></trkpt><trkpt lat="45.175154348034425" lon="11.925219740340472"><ele>1.0</ele><time>2026-05-01T08:56:21.999Z</time></trkpt><trkpt lat="45.17505811947426" lon="11.925140851604684"><ele>1.0</ele><time>2026-05-01T08:56:22.999Z</time></trkpt><trkpt lat="45.174963527209805" lon="11.925068436275916"><ele>1.0</ele><time>2026-05-01T08:56:23.999Z</time></trkpt><trkpt lat="45.174866759435695" lon="11.924995492108135"><ele>1.0</ele><time>2026-05-01T08:56:24.999Z</time></trkpt><trkpt lat="45.174777356138186" lon="11.924918685100183"><ele>1.0</ele><time>2026-05-01T08:56:25.999Z</time></trkpt><trkpt lat="45.174682422403286" lon="11.924847488817177"><ele>1.0</ele><time>2026-05-01T08:56:26.999Z</time></trkpt><trkpt lat="45.174584620778006" lon="11.92477368583205"><ele>1.0</ele><time>2026-05-01T08:56:27.999Z</time></trkpt><trkpt lat="45.17448911041309" lon="11.924693232971942"><ele>1.0</ele><time>2026-05-01T08:56:28.999Z</time></trkpt><trkpt lat="45.17439321050494" lon="11.92462028044126"><ele>1.0</ele><time>2026-05-01T08:56:29.999Z</time></trkpt><trkpt lat="45.174300064084434" lon="11.924535715213722"><ele>1.0</ele><time>2026-05-01T08:56:30.999Z</time></trkpt><trkpt lat="45.17420062508903" lon="11.924464939809958"><ele>1.0</ele><time>2026-05-01T08:56:31.999Z</time></trkpt><trkpt lat="45.174104842780906" lon="11.92438429375254"><ele>1.0</ele><time>2026-05-01T08:56:32.999Z</time></trkpt><trkpt lat="45.173999314940176" lon="11.924329920168352"><ele>1.0</ele><time>2026-05-01T08:56:33.999Z</time></trkpt><trkpt lat="45.173890714447516" lon="11.92428726773187"><ele>1.0</ele><time>2026-05-01T08:56:34.999Z</time></trkpt><trkpt lat="45.1737818471693" lon="11.92427082521432"><ele>1.0</ele><time>2026-05-01T08:56:35.999Z</time></trkpt><trkpt lat="45.17367610408456" lon="11.924243322935906"><ele>1.2000000000000002</ele><time>2026-05-01T08:56:36.999Z</time></trkpt><trkpt lat="45.17357248605542" lon="11.92421176866298"><ele>1.4000000000000001</ele><time>2026-05-01T08:56:37.999Z</time></trkpt><trkpt lat="45.17347076094507" lon="11.924180532408343"><ele>1.6</ele><time>2026-05-01T08:56:38.999Z</time></trkpt><trkpt lat="45.17336545786592" lon="11.924155359666274"><ele>1.8</ele><time>2026-05-01T08:56:39.999Z</time></trkpt><trkpt lat="45.17325912902432" lon="11.924140446917937"><ele>2.0</ele><time>2026-05-01T08:56:40.999Z</time></trkpt><trkpt lat="45.173153934702576" lon="11.924117103096462"><ele>2.0</ele><time>2026-05-01T08:56:41.999Z</time></trkpt><trkpt lat="45.1730476583736" lon="11.924089561311767"><ele>2.0</ele><time>2026-05-01T08:56:42.999Z</time></trkpt><trkpt lat="45.17294485574408" lon="11.924055638953131"><ele>2.0</ele><time>2026-05-01T08:56:43.999Z</time></trkpt><trkpt lat="45.17283767147116" lon="11.924037784521893"><ele>2.0</ele><time>2026-05-01T08:56:44.999Z</time></trkpt><trkpt lat="45.17273097690869" lon="11.924019883969772"><ele>2.0</ele><time>2026-05-01T08:56:45.999Z</time></trkpt><trkpt lat="45.17262352145089" lon="11.923988589084768"><ele>2.0</ele><time>2026-05-01T08:56:46.999Z</time></trkpt><trkpt lat="45.17251898930614" lon="11.923959697811462"><ele>2.0</ele><time>2026-05-01T08:56:47.999Z</time></trkpt><trkpt lat="45.172410901512066" lon="11.923931235451107"><ele>2.0</ele><time>2026-05-01T08:56:48.999Z</time></trkpt><trkpt lat="45.17231376054412" lon="11.923911103775078"><ele>2.0</ele><time>2026-05-01T08:56:49.999Z</time></trkpt><trkpt lat="45.17222063807316" lon="11.923886075607902"><ele>2.0</ele><time>2026-05-01T08:56:51Z</time></trkpt><trkpt lat="45.172126673279614" lon="11.923871910023015"><ele>1.8</ele><time>2026-05-01T08:56:52Z</time></trkpt><trkpt lat="45.172030085882376" lon="11.923848303594623"><ele>1.6</ele><time>2026-05-01T08:56:53Z</time></trkpt><trkpt lat="45.17193034065283" lon="11.923821822132078"><ele>1.4000000000000001</ele><time>2026-05-01T08:56:54Z</time></trkpt><trkpt lat="45.17181976086274" lon="11.923793432931326"><ele>1.2000000000000002</ele><time>2026-05-01T08:56:55Z</time></trkpt><trkpt lat="45.17171234369562" lon="11.923763265999028"><ele>1.0</ele><time>2026-05-01T08:56:56Z</time></trkpt><trkpt lat="45.171609559190884" lon="11.923737541972974"><ele>0.8</ele><time>2026-05-01T08:56:57Z</time></trkpt><trkpt lat="45.1714885724677" lon="11.923716055998687"><ele>0.6000000000000001</ele><time>2026-05-01T08:56:58Z</time></trkpt><trkpt lat="45.17137877797429" lon="11.92369811931784"><ele>0.4</ele><time>2026-05-01T08:56:59Z</time></trkpt><trkpt lat="45.171275516867624" lon="11.923676625792767"><ele>0.2</ele><time>2026-05-01T08:57:00Z</time></trkpt><trkpt lat="45.17116585810585" lon="11.923652501237848"><ele>0.0</ele><time>2026-05-01T08:57:01Z</time></trkpt><trkpt lat="45.17105491914435" lon="11.92362768280922"><ele>0.0</ele><time>2026-05-01T08:57:02Z</time></trkpt><trkpt lat="45.17094326306437" lon="11.923604548039153"><ele>0.0</ele><time>2026-05-01T08:57:03Z</time></trkpt><trkpt lat="45.170836873314144" lon="11.923577974977684"><ele>0.0</ele><time>2026-05-01T08:57:04Z</time></trkpt><trkpt lat="45.170728877439686" lon="11.923555029297175"><ele>0.0</ele><time>2026-05-01T08:57:05Z</time></trkpt><trkpt lat="45.17061791094872" lon="11.923527538956135"><ele>0.0</ele><time>2026-05-01T08:57:06Z</time></trkpt><trkpt lat="45.17051032778595" lon="11.923498811166166"><ele>-0.2</ele><time>2026-05-01T08:57:07Z</time></trkpt><trkpt lat="45.17040259792779" lon="11.923456740658448"><ele>-0.4</ele><time>2026-05-01T08:57:08Z</time></trkpt><trkpt lat="45.170300699481" lon="11.923430855176194"><ele>-0.6000000000000001</ele><time>2026-05-01T08:57:09Z</time></trkpt><trkpt lat="45.170200345647416" lon="11.923385449140115"><ele>-0.8</ele><time>2026-05-01T08:57:10Z</time></trkpt><trkpt lat="45.170097810729324" lon="11.923341573803471"><ele>-1.0</ele><time>2026-05-01T08:57:11Z</time></trkpt><trkpt lat="45.169993479273195" lon="11.923300978086782"><ele>-1.2000000000000002</ele><time>2026-05-01T08:57:12Z</time></trkpt><trkpt lat="45.16989243709923" lon="11.923254908893073"><ele>-1.4000000000000001</ele><time>2026-05-01T08:57:13Z</time></trkpt><trkpt lat="45.16979125024322" lon="11.923206975015306"><ele>-1.6</ele><time>2026-05-01T08:57:14Z</time></trkpt><trkpt lat="45.16968939129728" lon="11.923162474970367"><ele>-1.8</ele><time>2026-05-01T08:57:15Z</time></trkpt><trkpt lat="45.169585176431674" lon="11.92312012974375"><ele>-2.0</ele><time>2026-05-01T08:57:16Z</time></trkpt><trkpt lat="45.16948413259722" lon="11.923073908463165"><ele>-2.0</ele><time>2026-05-01T08:57:17Z</time></trkpt><trkpt lat="45.169381706576054" lon="11.923033768304482"><ele>-2.0</ele><time>2026-05-01T08:57:18Z</time></trkpt><trkpt lat="45.16927842120924" lon="11.922993085705066"><ele>-2.0</ele><time>2026-05-01T08:57:19Z</time></trkpt><trkpt lat="45.169174195397936" lon="11.922953005069568"><ele>-2.0</ele><time>2026-05-01T08:57:20Z</time></trkpt><trkpt lat="45.169071730113984" lon="11.922909446184176"><ele>-2.0</ele><time>2026-05-01T08:57:21Z</time></trkpt><trkpt lat="45.16896802624417" lon="11.922863307358867"><ele>-1.8</ele><time>2026-05-01T08:57:22Z</time></trkpt><trkpt lat="45.168865731788244" lon="11.922817297881407"><ele>-1.6</ele><time>2026-05-01T08:57:23Z</time></trkpt><trkpt lat="45.16875903272117" lon="11.922775494151962"><ele>-1.4000000000000001</ele><time>2026-05-01T08:57:24Z</time></trkpt><trkpt lat="45.16865389566002" lon="11.92273421682947"><ele>-1.2000000000000002</ele><time>2026-05-01T08:57:25Z</time></trkpt><trkpt lat="45.16855000502751" lon="11.922693884052801"><ele>-1.0</ele><time>2026-05-01T08:57:26Z</time></trkpt><trkpt lat="45.16844757863582" lon="11.922651209044679"><ele>-1.0</ele><time>2026-05-01T08:57:27Z</time></trkpt><trkpt lat="45.1683443930319" lon="11.922607355847695"><ele>-1.0</ele><time>2026-05-01T08:57:28Z</time></trkpt><trkpt lat="45.16824054298666" lon="11.922564988706567"><ele>-1.0</ele><time>2026-05-01T08:57:29Z</time></trkpt><trkpt lat="45.1681371537211" lon="11.922525299321329"><ele>-1.0</ele><time>2026-05-01T08:57:30Z</time></trkpt><trkpt lat="45.16803611446953" lon="11.922482301626829"><ele>-1.0</ele><time>2026-05-01T08:57:31Z</time></trkpt><trkpt lat="45.16793430453777" lon="11.9224381159355"><ele>-1.2000000000000002</ele><time>2026-05-01T08:57:32Z</time></trkpt><trkpt lat="45.16783101391486" lon="11.922397086848022"><ele>-1.4000000000000001</ele><time>2026-05-01T08:57:33Z</time></trkpt><trkpt lat="45.16772649400295" lon="11.922355711225364"><ele>-1.6</ele><time>2026-05-01T08:57:34Z</time></trkpt><trkpt lat="45.16762422725266" lon="11.922309992171948"><ele>-1.8</ele><time>2026-05-01T08:57:35Z</time></trkpt><trkpt lat="45.16751879879418" lon="11.922264992093131"><ele>-2.0</ele><time>2026-05-01T08:57:36Z</time></trkpt><trkpt lat="45.167412678043355" lon="11.922224977824499"><ele>-2.2</ele><time>2026-05-01T08:57:37Z</time></trkpt><trkpt lat="45.167306326474595" lon="11.922183900832092"><ele>-2.4000000000000004</ele><time>2026-05-01T08:57:38Z</time></trkpt><trkpt lat="45.1672078439009" lon="11.92214141298891"><ele>-2.5999999999999996</ele><time>2026-05-01T08:57:39Z</time></trkpt><trkpt lat="45.16710561334595" lon="11.922097893171479"><ele>-2.8</ele><time>2026-05-01T08:57:40Z</time></trkpt><trkpt lat="45.16700832267018" lon="11.92203780039841"><ele>-3.0</ele><time>2026-05-01T08:57:41Z</time></trkpt><trkpt lat="45.16691672378546" lon="11.92195133572074"><ele>-3.0</ele><time>2026-05-01T08:57:42Z</time></trkpt><trkpt lat="45.166839085545064" lon="11.92184054416416"><ele>-3.0</ele><time>2026-05-01T08:57:43Z</time></trkpt><trkpt lat="45.166775020344005" lon="11.921711930478855"><ele>-3.0</ele><time>2026-05-01T08:57:44Z</time></trkpt><trkpt lat="45.16671517859242" lon="11.921581082236486"><ele>-3.0</ele><time>2026-05-01T08:57:44.999Z</time></trkpt><trkpt lat="45.16665119720844" lon="11.921452289632384"><ele>-3.0</ele><time>2026-05-01T08:57:45.999Z</time></trkpt><trkpt lat="45.16658552040233" lon="11.921329118548185"><ele>-2.6</ele><time>2026-05-01T08:57:46.999Z</time></trkpt><trkpt lat="45.166517520809776" lon="11.921207324809359"><ele>-2.1999999999999997</ele><time>2026-05-01T08:57:47.999Z</time></trkpt><trkpt lat="45.166449429813134" lon="11.92108329002612"><ele>-1.8</ele><time>2026-05-01T08:57:48.999Z</time></trkpt><trkpt lat="45.16638422008982" lon="11.920959841269186"><ele>-1.4</ele><time>2026-05-01T08:57:49.999Z</time></trkpt><trkpt lat="45.16632112747222" lon="11.920840707158415"><ele>-1.0</ele><time>2026-05-01T08:57:50.999Z</time></trkpt><trkpt lat="45.166257883728704" lon="11.92071714789873"><ele>-0.8</ele><time>2026-05-01T08:57:51.999Z</time></trkpt><trkpt lat="45.16619449040204" lon="11.920593328330394"><ele>-0.6000000000000001</ele><time>2026-05-01T08:57:52.999Z</time></trkpt><trkpt lat="45.166127853328014" lon="11.920469925859452"><ele>-0.4</ele><time>2026-05-01T08:57:53.999Z</time></trkpt><trkpt lat="45.166059004421676" lon="11.920350380502462"><ele>-0.2</ele><time>2026-05-01T08:57:54.999Z</time></trkpt><trkpt lat="45.16598974066638" lon="11.92023372541877"><ele>0.0</ele><time>2026-05-01T08:57:55.999Z</time></trkpt><trkpt lat="45.165919784789395" lon="11.920117660788566"><ele>0.0</ele><time>2026-05-01T08:57:56.999Z</time></trkpt><trkpt lat="45.165835694011335" lon="11.920021197942365"><ele>0.0</ele><time>2026-05-01T08:57:57.999Z</time></trkpt><trkpt lat="45.16575036778228" lon="11.919930464546804"><ele>0.0</ele><time>2026-05-01T08:57:58.999Z</time></trkpt><trkpt lat="45.16566334061262" lon="11.919846697977222"><ele>0.0</ele><time>2026-05-01T08:57:59.999Z</time></trkpt><trkpt lat="45.16557838360886" lon="11.91976029455181"><ele>0.0</ele><time>2026-05-01T08:58:00.999Z</time></trkpt><trkpt lat="45.16549360269441" lon="11.919673077103104"><ele>0.0</ele><time>2026-05-01T08:58:01.999Z</time></trkpt><trkpt lat="45.165408485550465" lon="11.919584073891475"><ele>0.0</ele><time>2026-05-01T08:58:02.999Z</time></trkpt><trkpt lat="45.16532096706687" lon="11.919493734563464"><ele>0.0</ele><time>2026-05-01T08:58:03.999Z</time></trkpt><trkpt lat="45.165231685809985" lon="11.91941037631364"><ele>0.0</ele><time>2026-05-01T08:58:04.999Z</time></trkpt><trkpt lat="45.16514117970782" lon="11.919325127499956"><ele>0.0</ele><time>2026-05-01T08:58:05.999Z</time></trkpt><trkpt lat="45.165052361244086" lon="11.919236226724381"><ele>-0.4</ele><time>2026-05-01T08:58:06.999Z</time></trkpt><trkpt lat="45.1649633586697" lon="11.919150032219063"><ele>-0.8</ele><time>2026-05-01T08:58:07.999Z</time></trkpt><trkpt lat="45.164875656969" lon="11.919064433465488"><ele>-1.2000000000000002</ele><time>2026-05-01T08:58:08.999Z</time></trkpt><trkpt lat="45.164789235463616" lon="11.918973866682684"><ele>-1.6</ele><time>2026-05-01T08:58:09.999Z</time></trkpt><trkpt lat="45.16470030297197" lon="11.918886895455103"><ele>-2.0</ele><time>2026-05-01T08:58:10.999Z</time></trkpt><trkpt lat="45.1646122943881" lon="11.918800660003305"><ele>-2.0</ele><time>2026-05-01T08:58:11.999Z</time></trkpt><trkpt lat="45.16452522885876" lon="11.918712923948211"><ele>-2.0</ele><time>2026-05-01T08:58:12.999Z</time></trkpt><trkpt lat="45.164437064605366" lon="11.918625943522754"><ele>-2.0</ele><time>2026-05-01T08:58:13.999Z</time></trkpt><trkpt lat="45.164347492275176" lon="11.918540202103852"><ele>-2.0</ele><time>2026-05-01T08:58:14.999Z</time></trkpt><trkpt lat="45.16425845629358" lon="11.9184538435463"><ele>-2.0</ele><time>2026-05-01T08:58:15.999Z</time></trkpt><trkpt lat="45.1641712042017" lon="11.91836297118327"><ele>-2.0</ele><time>2026-05-01T08:58:16.999Z</time></trkpt><trkpt lat="45.164084819329545" lon="11.918271762936946"><ele>-2.0</ele><time>2026-05-01T08:58:17.999Z</time></trkpt><trkpt lat="45.16400006577663" lon="11.91817580268033"><ele>-2.0</ele><time>2026-05-01T08:58:18.999Z</time></trkpt><trkpt lat="45.16391834885316" lon="11.91807509828117"><ele>-2.0</ele><time>2026-05-01T08:58:19.999Z</time></trkpt><trkpt lat="45.16384009239495" lon="11.917971950288331"><ele>-2.0</ele><time>2026-05-01T08:58:20.999Z</time></trkpt><trkpt lat="45.16376317562178" lon="11.917862090731845"><ele>-1.8</ele><time>2026-05-01T08:58:21.999Z</time></trkpt><trkpt lat="45.16368752721434" lon="11.917754682471365"><ele>-1.6</ele><time>2026-05-01T08:58:22.999Z</time></trkpt><trkpt lat="45.16361181085701" lon="11.917652525126297"><ele>-1.4000000000000001</ele><time>2026-05-01T08:58:23.999Z</time></trkpt><trkpt lat="45.163533450921506" lon="11.917551058929721"><ele>-1.2000000000000002</ele><time>2026-05-01T08:58:24.999Z</time></trkpt><trkpt lat="45.16345415095212" lon="11.917451989449987"><ele>-1.0</ele><time>2026-05-01T08:58:25.999Z</time></trkpt><trkpt lat="45.16337670098921" lon="11.917354359544387"><ele>-1.0</ele><time>2026-05-01T08:58:26.999Z</time></trkpt><trkpt lat="45.16330239260486" lon="11.917258424188299"><ele>-1.0</ele><time>2026-05-01T08:58:27.999Z</time></trkpt><trkpt lat="45.16322269022166" lon="11.917169323723343"><ele>-1.0</ele><time>2026-05-01T08:58:28.999Z</time></trkpt><trkpt lat="45.163137939511216" lon="11.917086087001453"><ele>-1.0</ele><time>2026-05-01T08:58:29.999Z</time></trkpt><trkpt lat="45.16304826513598" lon="11.917007571705541"><ele>-1.0</ele><time>2026-05-01T08:58:30.999Z</time></trkpt><trkpt lat="45.16295853739624" lon="11.916931344946413"><ele>-1.0</ele><time>2026-05-01T08:58:31.999Z</time></trkpt><trkpt lat="45.16286577525946" lon="11.916859101126496"><ele>-1.0</ele><time>2026-05-01T08:58:32.999Z</time></trkpt><trkpt lat="45.16276575837298" lon="11.916791741804312"><ele>-1.0</ele><time>2026-05-01T08:58:33.999Z</time></trkpt><trkpt lat="45.16266517754215" lon="11.916732710692962"><ele>-1.0</ele><time>2026-05-01T08:58:34.999Z</time></trkpt><trkpt lat="45.16256048639914" lon="11.916673064141126"><ele>-1.0</ele><time>2026-05-01T08:58:35.999Z</time></trkpt><trkpt lat="45.162458534787575" lon="11.916614895087948"><ele>-1.0</ele><time>2026-05-01T08:58:36.999Z</time></trkpt><trkpt lat="45.162352749038476" lon="11.916561676675942"><ele>-1.0</ele><time>2026-05-01T08:58:37.999Z</time></trkpt><trkpt lat="45.16225033507624" lon="11.91650843821588"><ele>-1.0</ele><time>2026-05-01T08:58:38.999Z</time></trkpt><trkpt lat="45.162149756716616" lon="11.916456513489996"><ele>-1.0</ele><time>2026-05-01T08:58:39.999Z</time></trkpt><trkpt lat="45.16204835989151" lon="11.916400193972809"><ele>-1.0</ele><time>2026-05-01T08:58:40.999Z</time></trkpt><trkpt lat="45.161946148370106" lon="11.91634591764535"><ele>-1.0</ele><time>2026-05-01T08:58:41.999Z</time></trkpt><trkpt lat="45.16184314861487" lon="11.916294481523202"><ele>-1.0</ele><time>2026-05-01T08:58:42.999Z</time></trkpt><trkpt lat="45.161740123720534" lon="11.916245219197176"><ele>-1.0</ele><time>2026-05-01T08:58:43.999Z</time></trkpt><trkpt lat="45.16163472699919" lon="11.91618891238046"><ele>-1.0</ele><time>2026-05-01T08:58:44.999Z</time></trkpt><trkpt lat="45.16153473813014" lon="11.91612988712248"><ele>-1.0</ele><time>2026-05-01T08:58:45.999Z</time></trkpt><trkpt lat="45.16143583407949" lon="11.916075275784113"><ele>-1.0</ele><time>2026-05-01T08:58:46.999Z</time></trkpt><trkpt lat="45.161336147658716" lon="11.91602131591531"><ele>-1.0</ele><time>2026-05-01T08:58:47.999Z</time></trkpt><trkpt lat="45.161237236823546" lon="11.915969857900755"><ele>-1.0</ele><time>2026-05-01T08:58:48.999Z</time></trkpt><trkpt lat="45.16113884750948" lon="11.915915923629937"><ele>-1.0</ele><time>2026-05-01T08:58:49.999Z</time></trkpt><trkpt lat="45.161039196963614" lon="11.915859105283117"><ele>-1.0</ele><time>2026-05-01T08:58:50.999Z</time></trkpt><trkpt lat="45.16093836518989" lon="11.915801408199913"><ele>-1.0</ele><time>2026-05-01T08:58:51.999Z</time></trkpt><trkpt lat="45.160836131071406" lon="11.91574320354253"><ele>-1.0</ele><time>2026-05-01T08:58:52.999Z</time></trkpt><trkpt lat="45.16073391835827" lon="11.915689723606826"><ele>-1.0</ele><time>2026-05-01T08:58:53.999Z</time></trkpt><trkpt lat="45.160628650211905" lon="11.915633075689334"><ele>-1.0</ele><time>2026-05-01T08:58:54.999Z</time></trkpt><trkpt lat="45.160526457911416" lon="11.915581597457209"><ele>-1.0</ele><time>2026-05-01T08:58:55.999Z</time></trkpt><trkpt lat="45.160422556949605" lon="11.915527665292869"><ele>-1.0</ele><time>2026-05-01T08:58:57Z</time></trkpt><trkpt lat="45.16031905513472" lon="11.915470654588962"><ele>-1.0</ele><time>2026-05-01T08:58:58Z</time></trkpt><trkpt lat="45.16021766437207" lon="11.91540836565106"><ele>-1.0</ele><time>2026-05-01T08:58:59Z</time></trkpt><trkpt lat="45.1601153331852" lon="11.915351187644118"><ele>-1.0</ele><time>2026-05-01T08:59:00Z</time></trkpt><trkpt lat="45.16001342823167" lon="11.915296783930764"><ele>-1.0</ele><time>2026-05-01T08:59:01Z</time></trkpt><trkpt lat="45.159911765891984" lon="11.915242003860605"><ele>-0.8</ele><time>2026-05-01T08:59:02Z</time></trkpt><trkpt lat="45.15980999364211" lon="11.915187811547327"><ele>-0.6000000000000001</ele><time>2026-05-01T08:59:03Z</time></trkpt><trkpt lat="45.159707590001425" lon="11.915135570063564"><ele>-0.4</ele><time>2026-05-01T08:59:04Z</time></trkpt><trkpt lat="45.15960690618984" lon="11.91507825056591"><ele>-0.2</ele><time>2026-05-01T08:59:05Z</time></trkpt><trkpt lat="45.15950801534553" lon="11.915021789221553"><ele>0.0</ele><time>2026-05-01T08:59:06Z</time></trkpt><trkpt lat="45.15940865130166" lon="11.914969150985618"><ele>0.0</ele><time>2026-05-01T08:59:07Z</time></trkpt><trkpt lat="45.15930863485027" lon="11.914915837796814"><ele>0.0</ele><time>2026-05-01T08:59:08Z</time></trkpt><trkpt lat="45.15920918443848" lon="11.914861625980551"><ele>0.0</ele><time>2026-05-01T08:59:09Z</time></trkpt><trkpt lat="45.159109137662405" lon="11.914808401677126"><ele>0.0</ele><time>2026-05-01T08:59:10Z</time></trkpt><trkpt lat="45.159008296797566" lon="11.914757478056242"><ele>0.0</ele><time>2026-05-01T08:59:11Z</time></trkpt><trkpt lat="45.158906178697066" lon="11.914700949115955"><ele>0.2</ele><time>2026-05-01T08:59:12Z</time></trkpt><trkpt lat="45.158804034816015" lon="11.91464259779226"><ele>0.4</ele><time>2026-05-01T08:59:13Z</time></trkpt><trkpt lat="45.1587022172375" lon="11.914587676797487"><ele>0.6000000000000001</ele><time>2026-05-01T08:59:14Z</time></trkpt><trkpt lat="45.15859732917282" lon="11.914532390882826"><ele>0.8</ele><time>2026-05-01T08:59:15Z</time></trkpt><trkpt lat="45.1584943544544" lon="11.914467783334416"><ele>1.0</ele><time>2026-05-01T08:59:16Z</time></trkpt><trkpt lat="45.15839556304282" lon="11.914410980327958"><ele>1.0</ele><time>2026-05-01T08:59:17Z</time></trkpt><trkpt lat="45.15829380419043" lon="11.914364219626602"><ele>1.0</ele><time>2026-05-01T08:59:18Z</time></trkpt><trkpt lat="45.1581858933169" lon="11.914307629705775"><ele>1.0</ele><time>2026-05-01T08:59:19Z</time></trkpt><trkpt lat="45.15808749623354" lon="11.914249062987432"><ele>1.0</ele><time>2026-05-01T08:59:20Z</time></trkpt><trkpt lat="45.157986984521294" lon="11.914192098561667"><ele>1.0</ele><time>2026-05-01T08:59:21Z</time></trkpt><trkpt lat="45.15788426514311" lon="11.914140365166825"><ele>0.6000000000000001</ele><time>2026-05-01T08:59:22Z</time></trkpt><trkpt lat="45.15778171637561" lon="11.91409002748844"><ele>0.20000000000000007</ele><time>2026-05-01T08:59:23Z</time></trkpt><trkpt lat="45.15768732442716" lon="11.914040252975635"><ele>-0.20000000000000007</ele><time>2026-05-01T08:59:24Z</time></trkpt><trkpt lat="45.1575983146745" lon="11.913987242263644"><ele>-0.6000000000000001</ele><time>2026-05-01T08:59:25Z</time></trkpt><trkpt lat="45.15750967992759" lon="11.913931851569433"><ele>-1.0</ele><time>2026-05-01T08:59:26Z</time></trkpt><trkpt lat="45.157425720032265" lon="11.913886173722577"><ele>-0.8333333333333333</ele><time>2026-05-01T08:59:27Z</time></trkpt><trkpt lat="45.1573447773564" lon="11.913843515553618"><ele>-0.6666666666666666</ele><time>2026-05-01T08:59:28Z</time></trkpt><trkpt lat="45.1572809357702" lon="11.913802156782854"><ele>-0.5</ele><time>2026-05-01T08:59:29Z</time></trkpt><trkpt lat="45.15722745632362" lon="11.913748020416557"><ele>-0.3333333333333333</ele><time>2026-05-01T08:59:31Z</time></trkpt><trkpt lat="45.15712717406624" lon="11.913731484821664"><ele>-0.16666666666666666</ele><time>2026-05-01T08:59:44Z</time></trkpt><trkpt lat="45.1570169486905" lon="11.91367746462958"><ele>0.0</ele><time>2026-05-01T08:59:45.999Z</time></trkpt><trkpt lat="45.15695725076663" lon="11.913637640904133"><ele>0.0</ele><time>2026-05-01T08:59:46.999Z</time></trkpt><trkpt lat="45.15689413603764" lon="11.91360224724855"><ele>0.0</ele><time>2026-05-01T08:59:47.999Z</time></trkpt><trkpt lat="45.15683071020183" lon="11.913572110207118"><ele>0.0</ele><time>2026-05-01T08:59:48.999Z</time></trkpt><trkpt lat="45.15672616782832" lon="11.9135102553275"><ele>0.0</ele><time>2026-05-01T08:59:50.999Z</time></trkpt><trkpt lat="45.156664605262456" lon="11.913463054458566"><ele>0.0</ele><time>2026-05-01T08:59:52.999Z</time></trkpt><trkpt lat="45.15671825363551" lon="11.913310918029786"><ele>0.0</ele><time>2026-05-01T08:59:55.999Z</time></trkpt><trkpt lat="45.15675477059044" lon="11.913221070752781"><ele>0.2</ele><time>2026-05-01T08:59:56.999Z</time></trkpt><trkpt lat="45.15681189533565" lon="11.913139516633652"><ele>0.4</ele><time>2026-05-01T08:59:57.999Z</time></trkpt><trkpt lat="45.15686740963728" lon="11.913045523262767"><ele>0.6000000000000001</ele><time>2026-05-01T08:59:58.999Z</time></trkpt><trkpt lat="45.156925240471004" lon="11.912940423402599"><ele>0.8</ele><time>2026-05-01T08:59:59.999Z</time></trkpt><trkpt lat="45.15698531902159" lon="11.912831651454631"><ele>1.0</ele><time>2026-05-01T09:00:00.999Z</time></trkpt><trkpt lat="45.15704589127712" lon="11.912721364172633"><ele>1.0</ele><time>2026-05-01T09:00:01.999Z</time></trkpt><trkpt lat="45.15710854554279" lon="11.912609314486312"><ele>1.0</ele><time>2026-05-01T09:00:02.999Z</time></trkpt><trkpt lat="45.15717291375187" lon="11.912496999780833"><ele>1.0</ele><time>2026-05-01T09:00:03.999Z</time></trkpt><trkpt lat="45.15723757383993" lon="11.912392884137912"><ele>1.0</ele><time>2026-05-01T09:00:04.999Z</time></trkpt><trkpt lat="45.1573005854669" lon="11.912284821799748"><ele>1.0</ele><time>2026-05-01T09:00:05.999Z</time></trkpt><trkpt lat="45.1573685601712" lon="11.912179539198398"><ele>0.8</ele><time>2026-05-01T09:00:06.999Z</time></trkpt><trkpt lat="45.15744101071641" lon="11.912073023494521"><ele>0.6000000000000001</ele><time>2026-05-01T09:00:07.999Z</time></trkpt><trkpt lat="45.157511436678064" lon="11.911969088872587"><ele>0.4</ele><time>2026-05-01T09:00:08.999Z</time></trkpt><trkpt lat="45.15756817433754" lon="11.911846507807052"><ele>0.2</ele><time>2026-05-01T09:00:09.999Z</time></trkpt><trkpt lat="45.15759787562548" lon="11.911706083166509"><ele>0.0</ele><time>2026-05-01T09:00:10.999Z</time></trkpt><trkpt lat="45.157613118636334" lon="11.911554161685018"><ele>0.0</ele><time>2026-05-01T09:00:11.999Z</time></trkpt><trkpt lat="45.15762811631921" lon="11.911404165740201"><ele>0.0</ele><time>2026-05-01T09:00:12.999Z</time></trkpt><trkpt lat="45.157666465136415" lon="11.911266947864233"><ele>0.0</ele><time>2026-05-01T09:00:13.999Z</time></trkpt><trkpt lat="45.15769608930216" lon="11.911130599982323"><ele>0.0</ele><time>2026-05-01T09:00:14.999Z</time></trkpt><trkpt lat="45.157730719692466" lon="11.910993500625633"><ele>0.0</ele><time>2026-05-01T09:00:15.999Z</time></trkpt><trkpt lat="45.1577596812639" lon="11.910850557776625"><ele>0.0</ele><time>2026-05-01T09:00:16.999Z</time></trkpt><trkpt lat="45.15781299197144" lon="11.910720674561144"><ele>0.0</ele><time>2026-05-01T09:00:17.999Z</time></trkpt><trkpt lat="45.15786278902674" lon="11.91058786671103"><ele>0.0</ele><time>2026-05-01T09:00:18.999Z</time></trkpt><trkpt lat="45.15791859188188" lon="11.910458015617014"><ele>0.0</ele><time>2026-05-01T09:00:19.999Z</time></trkpt><trkpt lat="45.15797472654551" lon="11.910328688399517"><ele>0.0</ele><time>2026-05-01T09:00:20.999Z</time></trkpt><trkpt lat="45.1580364494002" lon="11.91020547004808"><ele>0.0</ele><time>2026-05-01T09:00:21.999Z</time></trkpt><trkpt lat="45.15810309545365" lon="11.910086508155958"><ele>0.0</ele><time>2026-05-01T09:00:22.999Z</time></trkpt><trkpt lat="45.15817344609826" lon="11.909972067740457"><ele>0.0</ele><time>2026-05-01T09:00:23.999Z</time></trkpt><trkpt lat="45.158248020748914" lon="11.909861892278798"><ele>0.0</ele><time>2026-05-01T09:00:24.999Z</time></trkpt><trkpt lat="45.15831970879497" lon="11.909747410862778"><ele>0.0</ele><time>2026-05-01T09:00:25.999Z</time></trkpt><trkpt lat="45.158391194213834" lon="11.909631525027661"><ele>0.0</ele><time>2026-05-01T09:00:26.999Z</time></trkpt><trkpt lat="45.158468796913716" lon="11.909523132196243"><ele>0.0</ele><time>2026-05-01T09:00:27.999Z</time></trkpt><trkpt lat="45.15854248801233" lon="11.909411218521408"><ele>0.0</ele><time>2026-05-01T09:00:28.999Z</time></trkpt><trkpt lat="45.15861434052074" lon="11.909298489667878"><ele>0.0</ele><time>2026-05-01T09:00:29.999Z</time></trkpt><trkpt lat="45.158686852428005" lon="11.909183722078577"><ele>0.0</ele><time>2026-05-01T09:00:30.999Z</time></trkpt><trkpt lat="45.158752790542884" lon="11.90906397467617"><ele>0.0</ele><time>2026-05-01T09:00:31.999Z</time></trkpt><trkpt lat="45.15882173820954" lon="11.908947654240961"><ele>0.0</ele><time>2026-05-01T09:00:32.999Z</time></trkpt><trkpt lat="45.15888181628823" lon="11.908819523772"><ele>0.0</ele><time>2026-05-01T09:00:33.999Z</time></trkpt><trkpt lat="45.15895012236019" lon="11.90870156056151"><ele>0.0</ele><time>2026-05-01T09:00:34.999Z</time></trkpt><trkpt lat="45.15900884070756" lon="11.908573394513725"><ele>0.0</ele><time>2026-05-01T09:00:35.999Z</time></trkpt><trkpt lat="45.15906652362292" lon="11.908447488552165"><ele>-0.2</ele><time>2026-05-01T09:00:36.999Z</time></trkpt><trkpt lat="45.15910890489394" lon="11.908313436128358"><ele>-0.4</ele><time>2026-05-01T09:00:37.999Z</time></trkpt><trkpt lat="45.159167076755246" lon="11.908194594008627"><ele>-0.6000000000000001</ele><time>2026-05-01T09:00:38.999Z</time></trkpt><trkpt lat="45.15922280257467" lon="11.90808196955378"><ele>-0.8</ele><time>2026-05-01T09:00:39.999Z</time></trkpt><trkpt lat="45.15927577679503" lon="11.907957832344168"><ele>-1.0</ele><time>2026-05-01T09:00:40.999Z</time></trkpt><trkpt lat="45.159331929371554" lon="11.90783613405376"><ele>-1.0</ele><time>2026-05-01T09:00:41.999Z</time></trkpt><trkpt lat="45.159391214961175" lon="11.907715592689637"><ele>-1.0</ele><time>2026-05-01T09:00:42.999Z</time></trkpt><trkpt lat="45.15944662268991" lon="11.907588824420696"><ele>-1.0</ele><time>2026-05-01T09:00:43.999Z</time></trkpt><trkpt lat="45.159518270900996" lon="11.90747461837051"><ele>-1.0</ele><time>2026-05-01T09:00:44.999Z</time></trkpt><trkpt lat="45.159566800675954" lon="11.907333097398523"><ele>-1.0</ele><time>2026-05-01T09:00:45.999Z</time></trkpt><trkpt lat="45.15963244849978" lon="11.907210946092155"><ele>-0.8</ele><time>2026-05-01T09:00:46.999Z</time></trkpt><trkpt lat="45.159698982442535" lon="11.907086379966062"><ele>-0.6000000000000001</ele><time>2026-05-01T09:00:47.999Z</time></trkpt><trkpt lat="45.1597603501697" lon="11.906961015170733"><ele>-0.4</ele><time>2026-05-01T09:00:48.999Z</time></trkpt><trkpt lat="45.15982066633244" lon="11.906830959912256"><ele>-0.2</ele><time>2026-05-01T09:00:49.999Z</time></trkpt><trkpt lat="45.15988152181513" lon="11.90670062647248"><ele>0.0</ele><time>2026-05-01T09:00:50.999Z</time></trkpt><trkpt lat="45.15993689839748" lon="11.906573988039376"><ele>0.0</ele><time>2026-05-01T09:00:51.999Z</time></trkpt><trkpt lat="45.16001208592085" lon="11.906465878650058"><ele>0.0</ele><time>2026-05-01T09:00:52.999Z</time></trkpt><trkpt lat="45.16007525250244" lon="11.906347025979237"><ele>0.0</ele><time>2026-05-01T09:00:53.999Z</time></trkpt><trkpt lat="45.16012855985082" lon="11.906216920730694"><ele>0.0</ele><time>2026-05-01T09:00:54.999Z</time></trkpt><trkpt lat="45.16019476203037" lon="11.906099041492421"><ele>0.0</ele><time>2026-05-01T09:00:55.999Z</time></trkpt><trkpt lat="45.160264947796875" lon="11.905986160922694"><ele>0.0</ele><time>2026-05-01T09:00:56.999Z</time></trkpt><trkpt lat="45.16033253829937" lon="11.905876315820429"><ele>0.0</ele><time>2026-05-01T09:00:57.999Z</time></trkpt><trkpt lat="45.16039983454908" lon="11.905768146517083"><ele>0.0</ele><time>2026-05-01T09:00:58.999Z</time></trkpt><trkpt lat="45.16046701970433" lon="11.905657207102239"><ele>0.0</ele><time>2026-05-01T09:00:59.999Z</time></trkpt><trkpt lat="45.160536548703156" lon="11.905544125847696"><ele>0.0</ele><time>2026-05-01T09:01:00.999Z</time></trkpt><trkpt lat="45.160604060401766" lon="11.905428101641922"><ele>0.0</ele><time>2026-05-01T09:01:01.999Z</time></trkpt><trkpt lat="45.160675414253625" lon="11.905310963627521"><ele>0.0</ele><time>2026-05-01T09:01:03Z</time></trkpt><trkpt lat="45.16075185481894" lon="11.90520472281757"><ele>0.0</ele><time>2026-05-01T09:01:04Z</time></trkpt><trkpt lat="45.16081896540255" lon="11.905092420460722"><ele>0.0</ele><time>2026-05-01T09:01:05Z</time></trkpt><trkpt lat="45.16088381750643" lon="11.90499000226322"><ele>0.0</ele><time>2026-05-01T09:01:06Z</time></trkpt><trkpt lat="45.1609425777248" lon="11.904891369586567"><ele>-0.2</ele><time>2026-05-01T09:01:07Z</time></trkpt><trkpt lat="45.16099944572851" lon="11.904792834292067"><ele>-0.4</ele><time>2026-05-01T09:01:08Z</time></trkpt><trkpt lat="45.161056563004216" lon="11.904687304151144"><ele>-0.6000000000000001</ele><time>2026-05-01T09:01:09Z</time></trkpt><trkpt lat="45.16111591055515" lon="11.904579589737972"><ele>-0.8</ele><time>2026-05-01T09:01:10Z</time></trkpt><trkpt lat="45.161165485757806" lon="11.904457886481438"><ele>-1.0</ele><time>2026-05-01T09:01:11Z</time></trkpt><trkpt lat="45.161210707703006" lon="11.904340368318024"><ele>-1.0</ele><time>2026-05-01T09:01:12Z</time></trkpt><trkpt lat="45.161246958770576" lon="11.904214240973793"><ele>-1.0</ele><time>2026-05-01T09:01:13Z</time></trkpt><trkpt lat="45.16127783267694" lon="11.904085085547667"><ele>-1.0</ele><time>2026-05-01T09:01:14Z</time></trkpt><trkpt lat="45.161304196031864" lon="11.903950803067957"><ele>-1.0</ele><time>2026-05-01T09:01:15Z</time></trkpt><trkpt lat="45.16132241073439" lon="11.903806991475655"><ele>-1.0</ele><time>2026-05-01T09:01:16Z</time></trkpt><trkpt lat="45.16133300847378" lon="11.90366327860096"><ele>-1.0</ele><time>2026-05-01T09:01:17Z</time></trkpt><trkpt lat="45.16134577549601" lon="11.90351741995017"><ele>-1.0</ele><time>2026-05-01T09:01:18Z</time></trkpt><trkpt lat="45.16136582660629" lon="11.903368938832406"><ele>-1.0</ele><time>2026-05-01T09:01:19Z</time></trkpt><trkpt lat="45.16138372193258" lon="11.903217889127198"><ele>-1.0</ele><time>2026-05-01T09:01:20Z</time></trkpt><trkpt lat="45.161401839744016" lon="11.903064637889816"><ele>-1.0</ele><time>2026-05-01T09:01:21Z</time></trkpt><trkpt lat="45.1614264452919" lon="11.902910951271938"><ele>-1.0</ele><time>2026-05-01T09:01:22Z</time></trkpt><trkpt lat="45.16145446750855" lon="11.902757561407816"><ele>-1.0</ele><time>2026-05-01T09:01:23Z</time></trkpt><trkpt lat="45.16148368957738" lon="11.902603935640258"><ele>-1.0</ele><time>2026-05-01T09:01:24Z</time></trkpt><trkpt lat="45.16150915420721" lon="11.90245199611149"><ele>-1.0</ele><time>2026-05-01T09:01:25Z</time></trkpt><trkpt lat="45.16154139775755" lon="11.902301701848408"><ele>-1.0</ele><time>2026-05-01T09:01:26Z</time></trkpt><trkpt lat="45.16158006367673" lon="11.902153456693334"><ele>-1.0</ele><time>2026-05-01T09:01:27Z</time></trkpt><trkpt lat="45.16161444600294" lon="11.90200369345814"><ele>-1.0</ele><time>2026-05-01T09:01:28Z</time></trkpt><trkpt lat="45.1616428545669" lon="11.901854629149174"><ele>-1.0</ele><time>2026-05-01T09:01:29Z</time></trkpt><trkpt lat="45.16166421533349" lon="11.901716211693763"><ele>-1.0</ele><time>2026-05-01T09:01:30Z</time></trkpt><trkpt lat="45.16166932152485" lon="11.901572950022228"><ele>-1.0</ele><time>2026-05-01T09:01:31Z</time></trkpt><trkpt lat="45.1616537516831" lon="11.90142479728768"><ele>-0.8</ele><time>2026-05-01T09:01:32Z</time></trkpt><trkpt lat="45.16161452738755" lon="11.901274574187145"><ele>-0.6000000000000001</ele><time>2026-05-01T09:01:33Z</time></trkpt><trkpt lat="45.1615651554954" lon="11.901132629284419"><ele>-0.4</ele><time>2026-05-01T09:01:34Z</time></trkpt><trkpt lat="45.16151251941149" lon="11.90099687540269"><ele>-0.2</ele><time>2026-05-01T09:01:35Z</time></trkpt><trkpt lat="45.16145483158661" lon="11.900870616041356"><ele>0.0</ele><time>2026-05-01T09:01:36Z</time></trkpt><trkpt lat="45.161390398634325" lon="11.900752121245224"><ele>0.5</ele><time>2026-05-01T09:01:37Z</time></trkpt><trkpt lat="45.16131642031841" lon="11.90064160394519"><ele>1.0</ele><time>2026-05-01T09:01:38Z</time></trkpt><trkpt lat="45.161228628114706" lon="11.900535449121595"><ele>1.5</ele><time>2026-05-01T09:01:39Z</time></trkpt><trkpt lat="45.1611368966427" lon="11.900439954027146"><ele>2.0</ele><time>2026-05-01T09:01:40Z</time></trkpt><trkpt lat="45.161041291610395" lon="11.900353000852318"><ele>2.0</ele><time>2026-05-01T09:01:41Z</time></trkpt><trkpt lat="45.16095425299953" lon="11.900256006697608"><ele>2.0</ele><time>2026-05-01T09:01:42Z</time></trkpt><trkpt lat="45.16087129554828" lon="11.90015495763836"><ele>2.0</ele><time>2026-05-01T09:01:43Z</time></trkpt><trkpt lat="45.16079248807276" lon="11.900051602729953"><ele>2.0</ele><time>2026-05-01T09:01:44Z</time></trkpt><trkpt lat="45.16070641980723" lon="11.899949815578642"><ele>2.0</ele><time>2026-05-01T09:01:45Z</time></trkpt><trkpt lat="45.16064062941229" lon="11.899820100253395"><ele>1.5</ele><time>2026-05-01T09:01:46Z</time></trkpt><trkpt lat="45.16056368354319" lon="11.89970413074001"><ele>1.0</ele><time>2026-05-01T09:01:47Z</time></trkpt><trkpt lat="45.1605162322823" lon="11.899554346301395"><ele>0.5</ele><time>2026-05-01T09:01:48Z</time></trkpt><trkpt lat="45.16049183155435" lon="11.899404140129047"><ele>0.0</ele><time>2026-05-01T09:01:49Z</time></trkpt><trkpt lat="45.16045403442427" lon="11.89925278732251"><ele>-0.25</ele><time>2026-05-01T09:01:50Z</time></trkpt><trkpt lat="45.16045198650014" lon="11.899089635286124"><ele>-0.5</ele><time>2026-05-01T09:01:51Z</time></trkpt><trkpt lat="45.16043482494226" lon="11.89893622382857"><ele>-0.75</ele><time>2026-05-01T09:01:52Z</time></trkpt><trkpt lat="45.160445008544414" lon="11.898775431649918"><ele>-1.0</ele><time>2026-05-01T09:01:53Z</time></trkpt><trkpt lat="45.16045579348704" lon="11.898617901714987"><ele>-1.0</ele><time>2026-05-01T09:01:54Z</time></trkpt><trkpt lat="45.160467476257594" lon="11.898460370214371"><ele>-1.0</ele><time>2026-05-01T09:01:55Z</time></trkpt><trkpt lat="45.16047852562522" lon="11.898302370940415"><ele>-1.0</ele><time>2026-05-01T09:01:56Z</time></trkpt><trkpt lat="45.16049103468779" lon="11.898143602218045"><ele>-1.0</ele><time>2026-05-01T09:01:57Z</time></trkpt><trkpt lat="45.16049447200923" lon="11.897991207112568"><ele>-1.0</ele><time>2026-05-01T09:01:57.999Z</time></trkpt><trkpt lat="45.16048368436253" lon="11.897836546686733"><ele>-1.0</ele><time>2026-05-01T09:01:58.999Z</time></trkpt><trkpt lat="45.16048442771592" lon="11.897676781688672"><ele>-1.0</ele><time>2026-05-01T09:01:59.999Z</time></trkpt><trkpt lat="45.160483169530785" lon="11.897524078951148"><ele>-1.0</ele><time>2026-05-01T09:02:00.999Z</time></trkpt><trkpt lat="45.16048326922121" lon="11.897365044205257"><ele>-1.0</ele><time>2026-05-01T09:02:01.999Z</time></trkpt><trkpt lat="45.160483360476334" lon="11.897210868111795"><ele>-1.0</ele><time>2026-05-01T09:02:02.999Z</time></trkpt><trkpt lat="45.16048538392799" lon="11.897048897473674"><ele>-1.0</ele><time>2026-05-01T09:02:03.999Z</time></trkpt><trkpt lat="45.160488566012106" lon="11.896889953997663"><ele>-1.0</ele><time>2026-05-01T09:02:04.999Z</time></trkpt><trkpt lat="45.160505818776514" lon="11.896739560264793"><ele>-1.0</ele><time>2026-05-01T09:02:05.999Z</time></trkpt><trkpt lat="45.16053561938729" lon="11.896582607753935"><ele>-1.0</ele><time>2026-05-01T09:02:06.999Z</time></trkpt><trkpt lat="45.16055235728945" lon="11.896429522781213"><ele>-1.0</ele><time>2026-05-01T09:02:07.999Z</time></trkpt><trkpt lat="45.16057064935856" lon="11.896275923690776"><ele>-1.0</ele><time>2026-05-01T09:02:08.999Z</time></trkpt><trkpt lat="45.16059165816162" lon="11.89611722721008"><ele>-1.0</ele><time>2026-05-01T09:02:09.999Z</time></trkpt><trkpt lat="45.16061057485546" lon="11.895961192949443"><ele>-1.0</ele><time>2026-05-01T09:02:10.999Z</time></trkpt><trkpt lat="45.16063157305728" lon="11.895803896345443"><ele>-1.0</ele><time>2026-05-01T09:02:11.999Z</time></trkpt><trkpt lat="45.160651393391454" lon="11.895655332735661"><ele>-1.0</ele><time>2026-05-01T09:02:12.999Z</time></trkpt><trkpt lat="45.16067950269405" lon="11.895509216165726"><ele>-0.8</ele><time>2026-05-01T09:02:13.999Z</time></trkpt><trkpt lat="45.16072100134412" lon="11.895367856618607"><ele>-0.6000000000000001</ele><time>2026-05-01T09:02:14.999Z</time></trkpt><trkpt lat="45.160775825551646" lon="11.895229184042195"><ele>-0.4</ele><time>2026-05-01T09:02:15.999Z</time></trkpt><trkpt lat="45.16083778181734" lon="11.895098787924118"><ele>-0.2</ele><time>2026-05-01T09:02:16.999Z</time></trkpt><trkpt lat="45.16091314339616" lon="11.894976861878117"><ele>0.0</ele><time>2026-05-01T09:02:17.999Z</time></trkpt><trkpt lat="45.160990817857844" lon="11.894861064522061"><ele>-0.2</ele><time>2026-05-01T09:02:18.999Z</time></trkpt><trkpt lat="45.16106259056001" lon="11.89475751996075"><ele>-0.4</ele><time>2026-05-01T09:02:19.999Z</time></trkpt><trkpt lat="45.16111503245944" lon="11.894645830973198"><ele>-0.6000000000000001</ele><time>2026-05-01T09:02:20.999Z</time></trkpt><trkpt lat="45.16115194717653" lon="11.894514947865519"><ele>-0.8</ele><time>2026-05-01T09:02:21.999Z</time></trkpt><trkpt lat="45.1611326456665" lon="11.89435979497418"><ele>-1.0</ele><time>2026-05-01T09:02:22.999Z</time></trkpt><trkpt lat="45.16110537529603" lon="11.894211108902805"><ele>-1.0</ele><time>2026-05-01T09:02:23.999Z</time></trkpt><trkpt lat="45.16107588339673" lon="11.894055025703278"><ele>-1.0</ele><time>2026-05-01T09:02:24.999Z</time></trkpt><trkpt lat="45.16104922749918" lon="11.893909212992195"><ele>-1.0</ele><time>2026-05-01T09:02:25.999Z</time></trkpt><trkpt lat="45.161043826520945" lon="11.89375646375607"><ele>-1.0</ele><time>2026-05-01T09:02:26.999Z</time></trkpt><trkpt lat="45.16101037324069" lon="11.893609258947755"><ele>-1.0</ele><time>2026-05-01T09:02:27.999Z</time></trkpt><trkpt lat="45.16100889393157" lon="11.893461634051022"><ele>-0.8</ele><time>2026-05-01T09:02:28.999Z</time></trkpt><trkpt lat="45.161031216081426" lon="11.893310802935062"><ele>-0.6000000000000001</ele><time>2026-05-01T09:02:29.999Z</time></trkpt><trkpt lat="45.161073525150094" lon="11.893163600899099"><ele>-0.4</ele><time>2026-05-01T09:02:30.999Z</time></trkpt><trkpt lat="45.1611258539191" lon="11.893030254417177"><ele>-0.2</ele><time>2026-05-01T09:02:31.999Z</time></trkpt><trkpt lat="45.16119565893802" lon="11.892906468721351"><ele>0.0</ele><time>2026-05-01T09:02:32.999Z</time></trkpt><trkpt lat="45.1612777767222" lon="11.892797116541532"><ele>0.0</ele><time>2026-05-01T09:02:33.999Z</time></trkpt><trkpt lat="45.16136161999282" lon="11.892688379000043"><ele>0.0</ele><time>2026-05-01T09:02:34.999Z</time></trkpt><trkpt lat="45.16144372991242" lon="11.892578170981258"><ele>0.0</ele><time>2026-05-01T09:02:35.999Z</time></trkpt><trkpt lat="45.161525232419194" lon="11.892470033773014"><ele>0.0</ele><time>2026-05-01T09:02:36.999Z</time></trkpt><trkpt lat="45.1616025472977" lon="11.892354645631036"><ele>0.2</ele><time>2026-05-01T09:02:37.999Z</time></trkpt><trkpt lat="45.16167628697853" lon="11.892240490461507"><ele>0.4</ele><time>2026-05-01T09:02:38.999Z</time></trkpt><trkpt lat="45.16174351833372" lon="11.892134596792522"><ele>0.6000000000000001</ele><time>2026-05-01T09:02:39.999Z</time></trkpt><trkpt lat="45.16181521741912" lon="11.892029938355423"><ele>0.8</ele><time>2026-05-01T09:02:40.999Z</time></trkpt><trkpt lat="45.161887189684144" lon="11.89194190286054"><ele>1.0</ele><time>2026-05-01T09:02:41.999Z</time></trkpt><trkpt lat="45.161957688465115" lon="11.891861171646827"><ele>1.0</ele><time>2026-05-01T09:02:42.999Z</time></trkpt><trkpt lat="45.16203754459918" lon="11.891806500038125"><ele>1.0</ele><time>2026-05-01T09:02:43.999Z</time></trkpt><trkpt lat="45.16212666020022" lon="11.891774414454838"><ele>1.0</ele><time>2026-05-01T09:02:44.999Z</time></trkpt><trkpt lat="45.16222544214419" lon="11.891803930505493"><ele>1.0</ele><time>2026-05-01T09:02:45.999Z</time></trkpt><trkpt lat="45.16233044152404" lon="11.891834004007086"><ele>1.0</ele><time>2026-05-01T09:02:46.999Z</time></trkpt><trkpt lat="45.162437277187514" lon="11.891853663998749"><ele>1.0</ele><time>2026-05-01T09:02:47.999Z</time></trkpt><trkpt lat="45.162541729169845" lon="11.891889563213509"><ele>1.0</ele><time>2026-05-01T09:02:48.999Z</time></trkpt><trkpt lat="45.16264562197824" lon="11.891933839234797"><ele>1.0</ele><time>2026-05-01T09:02:49.999Z</time></trkpt><trkpt lat="45.16274975571506" lon="11.891946772011927"><ele>1.0</ele><time>2026-05-01T09:02:50.999Z</time></trkpt><trkpt lat="45.1628586805043" lon="11.89196518256068"><ele>1.0</ele><time>2026-05-01T09:02:51.999Z</time></trkpt><trkpt lat="45.16296667508015" lon="11.891993280873166"><ele>1.0</ele><time>2026-05-01T09:02:52.999Z</time></trkpt><trkpt lat="45.16307326701114" lon="11.8919968303267"><ele>1.0</ele><time>2026-05-01T09:02:53.999Z</time></trkpt><trkpt lat="45.16318475333679" lon="11.89198856556285"><ele>1.0</ele><time>2026-05-01T09:02:54.999Z</time></trkpt><trkpt lat="45.16329526334001" lon="11.891968549432656"><ele>1.0</ele><time>2026-05-01T09:02:55.999Z</time></trkpt><trkpt lat="45.163403717029155" lon="11.891943210494059"><ele>1.0</ele><time>2026-05-01T09:02:56.999Z</time></trkpt><trkpt lat="45.16350616905746" lon="11.891910721349655"><ele>1.0</ele><time>2026-05-01T09:02:57.999Z</time></trkpt><trkpt lat="45.16361082504034" lon="11.891884147727861"><ele>1.0</ele><time>2026-05-01T09:02:58.999Z</time></trkpt><trkpt lat="45.163716596797855" lon="11.89186349434826"><ele>1.0</ele><time>2026-05-01T09:02:59.999Z</time></trkpt><trkpt lat="45.163820769000054" lon="11.891846099150124"><ele>1.0</ele><time>2026-05-01T09:03:00.999Z</time></trkpt><trkpt lat="45.16392663158892" lon="11.891828900138687"><ele>1.0</ele><time>2026-05-01T09:03:01.999Z</time></trkpt><trkpt lat="45.16403185223634" lon="11.891812866924122"><ele>1.0</ele><time>2026-05-01T09:03:02.999Z</time></trkpt><trkpt lat="45.164136328961945" lon="11.891796005084379"><ele>1.0</ele><time>2026-05-01T09:03:03.999Z</time></trkpt><trkpt lat="45.164240862390116" lon="11.891783842205928"><ele>1.0</ele><time>2026-05-01T09:03:04.999Z</time></trkpt><trkpt lat="45.16434603215313" lon="11.891766284229416"><ele>1.0</ele><time>2026-05-01T09:03:05.999Z</time></trkpt><trkpt lat="45.16444938960709" lon="11.89175138695981"><ele>1.0</ele><time>2026-05-01T09:03:06.999Z</time></trkpt><trkpt lat="45.164561599121654" lon="11.891761569237428"><ele>1.0</ele><time>2026-05-01T09:03:07.999Z</time></trkpt><trkpt lat="45.16467155983529" lon="11.891787188675838"><ele>1.0</ele><time>2026-05-01T09:03:09Z</time></trkpt><trkpt lat="45.1647677688493" lon="11.891827154762893"><ele>1.0</ele><time>2026-05-01T09:03:10Z</time></trkpt><trkpt lat="45.16486934265385" lon="11.891878752924002"><ele>1.0</ele><time>2026-05-01T09:03:11Z</time></trkpt><trkpt lat="45.164963834766624" lon="11.891946443266391"><ele>1.0</ele><time>2026-05-01T09:03:12Z</time></trkpt><trkpt lat="45.16505156849051" lon="11.89203277915568"><ele>1.0</ele><time>2026-05-01T09:03:13Z</time></trkpt><trkpt lat="45.165136269985254" lon="11.89212617823336"><ele>1.0</ele><time>2026-05-01T09:03:14Z</time></trkpt><trkpt lat="45.1652203529734" lon="11.892212694911988"><ele>1.0</ele><time>2026-05-01T09:03:15Z</time></trkpt><trkpt lat="45.16530350773522" lon="11.892304306607226"><ele>1.0</ele><time>2026-05-01T09:03:16Z</time></trkpt><trkpt lat="45.16539063125726" lon="11.892385222012258"><ele>1.0</ele><time>2026-05-01T09:03:17Z</time></trkpt><trkpt lat="45.16547916520503" lon="11.89246607254937"><ele>1.0</ele><time>2026-05-01T09:03:18Z</time></trkpt><trkpt lat="45.16556454298567" lon="11.892546162267601"><ele>1.0</ele><time>2026-05-01T09:03:19Z</time></trkpt><trkpt lat="45.16563292133607" lon="11.892638680568794"><ele>1.0</ele><time>2026-05-01T09:03:20Z</time></trkpt><trkpt lat="45.165714505515844" lon="11.892687935995452"><ele>1.0</ele><time>2026-05-01T09:03:21Z</time></trkpt><trkpt lat="45.16578467993271" lon="11.892756608365104"><ele>1.0</ele><time>2026-05-01T09:03:22Z</time></trkpt><trkpt lat="45.16585629696675" lon="11.892813495930715"><ele>0.8</ele><time>2026-05-01T09:03:23Z</time></trkpt><trkpt lat="45.16594358244873" lon="11.89283012883721"><ele>0.6000000000000001</ele><time>2026-05-01T09:03:24Z</time></trkpt><trkpt lat="45.16603714213432" lon="11.89282607900898"><ele>0.4</ele><time>2026-05-01T09:03:25Z</time></trkpt><trkpt lat="45.16614087164425" lon="11.892798278300658"><ele>0.2</ele><time>2026-05-01T09:03:26Z</time></trkpt><trkpt lat="45.16624756461603" lon="11.892777845482708"><ele>0.0</ele><time>2026-05-01T09:03:27Z</time></trkpt><trkpt lat="45.16635494813696" lon="11.89275802918121"><ele>0.0</ele><time>2026-05-01T09:03:28Z</time></trkpt><trkpt lat="45.166463079413866" lon="11.89273762037311"><ele>0.0</ele><time>2026-05-01T09:03:29Z</time></trkpt><trkpt lat="45.16656930910497" lon="11.892716935498303"><ele>0.0</ele><time>2026-05-01T09:03:30Z</time></trkpt><trkpt lat="45.16667976291998" lon="11.892699429871605"><ele>0.0</ele><time>2026-05-01T09:03:31Z</time></trkpt><trkpt lat="45.166783080657346" lon="11.892671668986695"><ele>0.0</ele><time>2026-05-01T09:03:32Z</time></trkpt><trkpt lat="45.16689382384589" lon="11.892647554758554"><ele>0.0</ele><time>2026-05-01T09:03:33Z</time></trkpt><trkpt lat="45.16700017482187" lon="11.892626029380382"><ele>0.0</ele><time>2026-05-01T09:03:34Z</time></trkpt><trkpt lat="45.167112690163655" lon="11.892607233320039"><ele>0.0</ele><time>2026-05-01T09:03:35Z</time></trkpt><trkpt lat="45.16722032529435" lon="11.89258206034906"><ele>0.0</ele><time>2026-05-01T09:03:36Z</time></trkpt><trkpt lat="45.16732437359668" lon="11.892554484232198"><ele>0.0</ele><time>2026-05-01T09:03:37Z</time></trkpt><trkpt lat="45.16743397281346" lon="11.892534237656253"><ele>0.2</ele><time>2026-05-01T09:03:38Z</time></trkpt><trkpt lat="45.167547382592524" lon="11.892511294260627"><ele>0.4</ele><time>2026-05-01T09:03:39Z</time></trkpt><trkpt lat="45.16765117985083" lon="11.892490188825231"><ele>0.6000000000000001</ele><time>2026-05-01T09:03:40Z</time></trkpt><trkpt lat="45.16775625138941" lon="11.892470337604838"><ele>0.8</ele><time>2026-05-01T09:03:41Z</time></trkpt><trkpt lat="45.1678635676369" lon="11.892446915073956"><ele>1.0</ele><time>2026-05-01T09:03:42Z</time></trkpt><trkpt lat="45.167968915413304" lon="11.892418429644646"><ele>1.0</ele><time>2026-05-01T09:03:43Z</time></trkpt><trkpt lat="45.168077004185456" lon="11.892398420547728"><ele>1.0</ele><time>2026-05-01T09:03:44Z</time></trkpt><trkpt lat="45.16818176005516" lon="11.892390021796766"><ele>1.0</ele><time>2026-05-01T09:03:45Z</time></trkpt><trkpt lat="45.16828781909734" lon="11.89237286629613"><ele>1.0</ele><time>2026-05-01T09:03:46Z</time></trkpt><trkpt lat="45.16839197709383" lon="11.89234808431851"><ele>1.0</ele><time>2026-05-01T09:03:47Z</time></trkpt><trkpt lat="45.16849680372584" lon="11.892319762884327"><ele>0.8</ele><time>2026-05-01T09:03:48Z</time></trkpt><trkpt lat="45.16860411411511" lon="11.89229910348146"><ele>0.6000000000000001</ele><time>2026-05-01T09:03:49Z</time></trkpt><trkpt lat="45.16870959540541" lon="11.89227590158524"><ele>0.4</ele><time>2026-05-01T09:03:50Z</time></trkpt><trkpt lat="45.1688167267508" lon="11.89225126425369"><ele>0.2</ele><time>2026-05-01T09:03:51Z</time></trkpt><trkpt lat="45.16892340595931" lon="11.89223163045792"><ele>0.0</ele><time>2026-05-01T09:03:52Z</time></trkpt><trkpt lat="45.16903111225488" lon="11.892213842202214"><ele>0.0</ele><time>2026-05-01T09:03:53Z</time></trkpt><trkpt lat="45.16913607117392" lon="11.892193838250591"><ele>0.0</ele><time>2026-05-01T09:03:54Z</time></trkpt><trkpt lat="45.16923896203105" lon="11.892166038714533"><ele>0.0</ele><time>2026-05-01T09:03:55Z</time></trkpt><trkpt lat="45.16934376321171" lon="11.892147261521671"><ele>0.0</ele><time>2026-05-01T09:03:56Z</time></trkpt><trkpt lat="45.16944806537016" lon="11.89211842307718"><ele>0.0</ele><time>2026-05-01T09:03:57Z</time></trkpt><trkpt lat="45.169550763823445" lon="11.892094820184509"><ele>0.0</ele><time>2026-05-01T09:03:58Z</time></trkpt><trkpt lat="45.16965953416073" lon="11.892075444133964"><ele>0.0</ele><time>2026-05-01T09:03:59Z</time></trkpt><trkpt lat="45.16976988897427" lon="11.892054548464841"><ele>0.0</ele><time>2026-05-01T09:04:00Z</time></trkpt><trkpt lat="45.16987536740106" lon="11.892037987605331"><ele>0.0</ele><time>2026-05-01T09:04:00.999Z</time></trkpt><trkpt lat="45.169977458320794" lon="11.892006486303432"><ele>0.0</ele><time>2026-05-01T09:04:01.999Z</time></trkpt><trkpt lat="45.17008167650435" lon="11.891987228029333"><ele>0.2</ele><time>2026-05-01T09:04:02.999Z</time></trkpt><trkpt lat="45.17018837775198" lon="11.891966272005819"><ele>0.4</ele><time>2026-05-01T09:04:03.999Z</time></trkpt><trkpt lat="45.17029605223535" lon="11.891949223524849"><ele>0.6000000000000001</ele><time>2026-05-01T09:04:04.999Z</time></trkpt><trkpt lat="45.17040316285586" lon="11.891924241204904"><ele>0.8</ele><time>2026-05-01T09:04:05.999Z</time></trkpt><trkpt lat="45.17050909089242" lon="11.891902946620927"><ele>1.0</ele><time>2026-05-01T09:04:06.999Z</time></trkpt><trkpt lat="45.170619502348295" lon="11.891881281678868"><ele>0.6000000000000001</ele><time>2026-05-01T09:04:07.999Z</time></trkpt><trkpt lat="45.17072828578712" lon="11.891855807764136"><ele>0.20000000000000007</ele><time>2026-05-01T09:04:08.999Z</time></trkpt><trkpt lat="45.17083102023232" lon="11.891836660383815"><ele>-0.20000000000000007</ele><time>2026-05-01T09:04:09.999Z</time></trkpt><trkpt lat="45.17094146079078" lon="11.891817423700791"><ele>-0.6000000000000001</ele><time>2026-05-01T09:04:10.999Z</time></trkpt><trkpt lat="45.17105286345289" lon="11.891787600701901"><ele>-1.0</ele><time>2026-05-01T09:04:11.999Z</time></trkpt><trkpt lat="45.17115643122553" lon="11.891769371826935"><ele>-1.0</ele><time>2026-05-01T09:04:12.999Z</time></trkpt><trkpt lat="45.17126812982517" lon="11.891753595132204"><ele>-1.0</ele><time>2026-05-01T09:04:13.999Z</time></trkpt><trkpt lat="45.171376993443076" lon="11.891728850446054"><ele>-1.0</ele><time>2026-05-01T09:04:14.999Z</time></trkpt><trkpt lat="45.17148106049432" lon="11.891703604866827"><ele>-1.0</ele><time>2026-05-01T09:04:15.999Z</time></trkpt><trkpt lat="45.1715889358218" lon="11.89168282793646"><ele>-1.0</ele><time>2026-05-01T09:04:16.999Z</time></trkpt><trkpt lat="45.17169492968855" lon="11.891665548462374"><ele>-1.0</ele><time>2026-05-01T09:04:17.999Z</time></trkpt><trkpt lat="45.171800729426764" lon="11.89164358010493"><ele>-1.0</ele><time>2026-05-01T09:04:18.999Z</time></trkpt><trkpt lat="45.17190522549077" lon="11.891618409212299"><ele>-1.0</ele><time>2026-05-01T09:04:19.999Z</time></trkpt><trkpt lat="45.17201163000949" lon="11.891596747382097"><ele>-1.0</ele><time>2026-05-01T09:04:20.999Z</time></trkpt><trkpt lat="45.17211876919926" lon="11.891577334156773"><ele>-1.0</ele><time>2026-05-01T09:04:21.999Z</time></trkpt><trkpt lat="45.172229915326305" lon="11.89155686518517"><ele>-1.0</ele><time>2026-05-01T09:04:22.999Z</time></trkpt><trkpt lat="45.172343383087984" lon="11.89153391687831"><ele>-1.0</ele><time>2026-05-01T09:04:23.999Z</time></trkpt><trkpt lat="45.17244872163972" lon="11.891515581753106"><ele>-1.0</ele><time>2026-05-01T09:04:24.999Z</time></trkpt><trkpt lat="45.17255182711311" lon="11.891490270850037"><ele>-1.0</ele><time>2026-05-01T09:04:25.999Z</time></trkpt><trkpt lat="45.172655645071515" lon="11.891466050805759"><ele>-1.0</ele><time>2026-05-01T09:04:26.999Z</time></trkpt><trkpt lat="45.1727638829409" lon="11.89144571179094"><ele>-0.8</ele><time>2026-05-01T09:04:27.999Z</time></trkpt><trkpt lat="45.17287763947849" lon="11.891423534767453"><ele>-0.6000000000000001</ele><time>2026-05-01T09:04:28.999Z</time></trkpt><trkpt lat="45.172993061339675" lon="11.89139614536068"><ele>-0.4</ele><time>2026-05-01T09:04:29.999Z</time></trkpt><trkpt lat="45.173099884569986" lon="11.891370881187942"><ele>-0.2</ele><time>2026-05-01T09:04:30.999Z</time></trkpt><trkpt lat="45.17320730941504" lon="11.89134653883711"><ele>0.0</ele><time>2026-05-01T09:04:31.999Z</time></trkpt><trkpt lat="45.173314055861724" lon="11.891332481514523"><ele>0.0</ele><time>2026-05-01T09:04:32.999Z</time></trkpt><trkpt lat="45.173422758218706" lon="11.891308812488987"><ele>0.0</ele><time>2026-05-01T09:04:33.999Z</time></trkpt><trkpt lat="45.173531929349025" lon="11.891289846597472"><ele>0.0</ele><time>2026-05-01T09:04:34.999Z</time></trkpt><trkpt lat="45.17364022613637" lon="11.891263625024148"><ele>0.0</ele><time>2026-05-01T09:04:35.999Z</time></trkpt><trkpt lat="45.173746334651746" lon="11.891240520428527"><ele>0.0</ele><time>2026-05-01T09:04:36.999Z</time></trkpt><trkpt lat="45.17385100509945" lon="11.891221256068778"><ele>0.0</ele><time>2026-05-01T09:04:37.999Z</time></trkpt><trkpt lat="45.173958203520655" lon="11.891194178296622"><ele>0.0</ele><time>2026-05-01T09:04:38.999Z</time></trkpt><trkpt lat="45.17406341198803" lon="11.891175517403571"><ele>0.0</ele><time>2026-05-01T09:04:39.999Z</time></trkpt><trkpt lat="45.17416689518222" lon="11.891151108738992"><ele>0.0</ele><time>2026-05-01T09:04:40.999Z</time></trkpt><trkpt lat="45.17427533290036" lon="11.891132615158472"><ele>0.0</ele><time>2026-05-01T09:04:41.999Z</time></trkpt><trkpt lat="45.17438359390279" lon="11.891114800017215"><ele>0.0</ele><time>2026-05-01T09:04:42.999Z</time></trkpt><trkpt lat="45.17449526935063" lon="11.89108791207308"><ele>0.0</ele><time>2026-05-01T09:04:43.999Z</time></trkpt><trkpt lat="45.174597646293684" lon="11.891066152912456"><ele>0.0</ele><time>2026-05-01T09:04:44.999Z</time></trkpt><trkpt lat="45.17470622907745" lon="11.89104388071214"><ele>0.0</ele><time>2026-05-01T09:04:45.999Z</time></trkpt><trkpt lat="45.17481372310684" lon="11.891022269686461"><ele>0.0</ele><time>2026-05-01T09:04:46.999Z</time></trkpt><trkpt lat="45.17492106307865" lon="11.890997075970615"><ele>0.0</ele><time>2026-05-01T09:04:47.999Z</time></trkpt><trkpt lat="45.17502383608329" lon="11.890975903416628"><ele>0.0</ele><time>2026-05-01T09:04:48.999Z</time></trkpt><trkpt lat="45.175111836566" lon="11.89095536107914"><ele>0.0</ele><time>2026-05-01T09:04:49.999Z</time></trkpt><trkpt lat="45.17520157516733" lon="11.890938953328417"><ele>0.0</ele><time>2026-05-01T09:04:50.999Z</time></trkpt><trkpt lat="45.175290404093296" lon="11.890920769757113"><ele>0.0</ele><time>2026-05-01T09:04:51.999Z</time></trkpt><trkpt lat="45.175369759112" lon="11.890903476683214"><ele>0.16666666666666666</ele><time>2026-05-01T09:04:52.999Z</time></trkpt><trkpt lat="45.17544567543109" lon="11.8908874392698"><ele>0.3333333333333333</ele><time>2026-05-01T09:04:53.999Z</time></trkpt><trkpt lat="45.175522837704406" lon="11.890869736987568"><ele>0.5</ele><time>2026-05-01T09:04:54.999Z</time></trkpt><trkpt lat="45.175605977225274" lon="11.890850881922589"><ele>0.6666666666666666</ele><time>2026-05-01T09:04:55.999Z</time></trkpt><trkpt lat="45.175692528878564" lon="11.890836637098896"><ele>0.8333333333333333</ele><time>2026-05-01T09:04:56.999Z</time></trkpt><trkpt lat="45.17578217605856" lon="11.89081971307737"><ele>1.0</ele><time>2026-05-01T09:04:57.999Z</time></trkpt><trkpt lat="45.175885828883565" lon="11.890788392849995"><ele>1.0</ele><time>2026-05-01T09:04:58.999Z</time></trkpt><trkpt lat="45.17597132917195" lon="11.890773713756873"><ele>1.0</ele><time>2026-05-01T09:04:59.999Z</time></trkpt><trkpt lat="45.17606703917913" lon="11.890755721232956"><ele>1.0</ele><time>2026-05-01T09:05:00.999Z</time></trkpt><trkpt lat="45.176171391236345" lon="11.890737257339909"><ele>1.0</ele><time>2026-05-01T09:05:01.999Z</time></trkpt><trkpt lat="45.17627949911567" lon="11.890714256173444"><ele>1.0</ele><time>2026-05-01T09:05:02.999Z</time></trkpt><trkpt lat="45.17638743358328" lon="11.890690512299475"><ele>1.0</ele><time>2026-05-01T09:05:03.999Z</time></trkpt><trkpt lat="45.17649795816772" lon="11.890664674128615"><ele>1.0</ele><time>2026-05-01T09:05:04.999Z</time></trkpt><trkpt lat="45.1766079266767" lon="11.890643303856761"><ele>1.0</ele><time>2026-05-01T09:05:05.999Z</time></trkpt><trkpt lat="45.17671806064175" lon="11.890627075006226"><ele>1.0</ele><time>2026-05-01T09:05:06.999Z</time></trkpt><trkpt lat="45.17682680425033" lon="11.890607354395055"><ele>1.0</ele><time>2026-05-01T09:05:07.999Z</time></trkpt><trkpt lat="45.176929408616495" lon="11.890581619203443"><ele>1.0</ele><time>2026-05-01T09:05:08.999Z</time></trkpt><trkpt lat="45.177038288294526" lon="11.890559100005099"><ele>1.0</ele><time>2026-05-01T09:05:09.999Z</time></trkpt><trkpt lat="45.17714764058118" lon="11.890535556719916"><ele>1.0</ele><time>2026-05-01T09:05:10.999Z</time></trkpt><trkpt lat="45.17725225404721" lon="11.890515480341417"><ele>1.0</ele><time>2026-05-01T09:05:11.999Z</time></trkpt><trkpt lat="45.17735493058865" lon="11.890493822167613"><ele>1.0</ele><time>2026-05-01T09:05:12.999Z</time></trkpt><trkpt lat="45.17746301034616" lon="11.890472683230895"><ele>0.8</ele><time>2026-05-01T09:05:13.999Z</time></trkpt><trkpt lat="45.177574676292544" lon="11.890450367808215"><ele>0.6000000000000001</ele><time>2026-05-01T09:05:15Z</time></trkpt><trkpt lat="45.17768843401549" lon="11.890426027186185"><ele>0.4</ele><time>2026-05-01T09:05:16Z</time></trkpt><trkpt lat="45.1777980453087" lon="11.890405027508313"><ele>0.2</ele><time>2026-05-01T09:05:17Z</time></trkpt><trkpt lat="45.17790607136786" lon="11.890377721686232"><ele>0.0</ele><time>2026-05-01T09:05:18Z</time></trkpt><trkpt lat="45.178013479355876" lon="11.890359146114701"><ele>0.0</ele><time>2026-05-01T09:05:19Z</time></trkpt><trkpt lat="45.17812443635589" lon="11.890339715862968"><ele>0.0</ele><time>2026-05-01T09:05:20Z</time></trkpt><trkpt lat="45.17823554336609" lon="11.890313826544748"><ele>0.0</ele><time>2026-05-01T09:05:21Z</time></trkpt><trkpt lat="45.1783419107844" lon="11.890290536640927"><ele>0.0</ele><time>2026-05-01T09:05:22Z</time></trkpt><trkpt lat="45.17844573138837" lon="11.89026657067421"><ele>0.0</ele><time>2026-05-01T09:05:23Z</time></trkpt><trkpt lat="45.17855432868224" lon="11.890248573778475"><ele>0.0</ele><time>2026-05-01T09:05:24Z</time></trkpt><trkpt lat="45.17866672799873" lon="11.890224011223216"><ele>0.0</ele><time>2026-05-01T09:05:25Z</time></trkpt><trkpt lat="45.17877970115336" lon="11.890200924614348"><ele>0.0</ele><time>2026-05-01T09:05:26Z</time></trkpt><trkpt lat="45.17888467516127" lon="11.890181154823939"><ele>0.0</ele><time>2026-05-01T09:05:27Z</time></trkpt><trkpt lat="45.17899298009327" lon="11.890165756142073"><ele>0.0</ele><time>2026-05-01T09:05:28Z</time></trkpt><trkpt lat="45.179106362834695" lon="11.890141695141775"><ele>0.0</ele><time>2026-05-01T09:05:29Z</time></trkpt><trkpt lat="45.17921609996641" lon="11.890115777113731"><ele>0.0</ele><time>2026-05-01T09:05:30Z</time></trkpt><trkpt lat="45.179326971599295" lon="11.890090587935676"><ele>0.0</ele><time>2026-05-01T09:05:31Z</time></trkpt><trkpt lat="45.1794354837579" lon="11.890069561163191"><ele>0.0</ele><time>2026-05-01T09:05:32Z</time></trkpt><trkpt lat="45.17954474266611" lon="11.890039413172387"><ele>0.0</ele><time>2026-05-01T09:05:33Z</time></trkpt><trkpt lat="45.17965785820958" lon="11.89002160169391"><ele>-0.2</ele><time>2026-05-01T09:05:34Z</time></trkpt><trkpt lat="45.179767985848" lon="11.889997507337895"><ele>-0.4</ele><time>2026-05-01T09:05:35Z</time></trkpt><trkpt lat="45.17987552683048" lon="11.889974737983248"><ele>-0.6000000000000001</ele><time>2026-05-01T09:05:36Z</time></trkpt><trkpt lat="45.17998828617738" lon="11.889952064183662"><ele>-0.8</ele><time>2026-05-01T09:05:37Z</time></trkpt><trkpt lat="45.18009977894181" lon="11.88992753556282"><ele>-1.0</ele><time>2026-05-01T09:05:38Z</time></trkpt><trkpt lat="45.180206307845054" lon="11.88990632670469"><ele>-0.8</ele><time>2026-05-01T09:05:39Z</time></trkpt><trkpt lat="45.180306722278914" lon="11.889885036449558"><ele>-0.6000000000000001</ele><time>2026-05-01T09:05:40Z</time></trkpt><trkpt lat="45.18041413573387" lon="11.88986133172705"><ele>-0.4</ele><time>2026-05-01T09:05:41Z</time></trkpt><trkpt lat="45.18052186222047" lon="11.889841433321559"><ele>-0.2</ele><time>2026-05-01T09:05:42Z</time></trkpt><trkpt lat="45.180631537704606" lon="11.889822451430668"><ele>0.0</ele><time>2026-05-01T09:05:43Z</time></trkpt><trkpt lat="45.18073974978111" lon="11.889798216468014"><ele>0.0</ele><time>2026-05-01T09:05:44Z</time></trkpt><trkpt lat="45.1808518810204" lon="11.889771943161458"><ele>0.0</ele><time>2026-05-01T09:05:45Z</time></trkpt><trkpt lat="45.18096123306041" lon="11.88974751260906"><ele>0.0</ele><time>2026-05-01T09:05:46Z</time></trkpt><trkpt lat="45.18106441312275" lon="11.889720926384168"><ele>0.0</ele><time>2026-05-01T09:05:47Z</time></trkpt><trkpt lat="45.18117134401349" lon="11.889708943514812"><ele>0.0</ele><time>2026-05-01T09:05:48Z</time></trkpt><trkpt lat="45.18128661161355" lon="11.889684922481655"><ele>0.0</ele><time>2026-05-01T09:05:49Z</time></trkpt><trkpt lat="45.18139326258018" lon="11.88966022742581"><ele>0.0</ele><time>2026-05-01T09:05:50Z</time></trkpt><trkpt lat="45.181499974820404" lon="11.88964065946261"><ele>0.0</ele><time>2026-05-01T09:05:51Z</time></trkpt><trkpt lat="45.18161619115721" lon="11.889613599717416"><ele>0.0</ele><time>2026-05-01T09:05:52Z</time></trkpt><trkpt lat="45.181722301788795" lon="11.889581588550183"><ele>0.0</ele><time>2026-05-01T09:05:53Z</time></trkpt><trkpt lat="45.18182579923023" lon="11.889562518690033"><ele>0.0</ele><time>2026-05-01T09:05:54Z</time></trkpt><trkpt lat="45.18193320644671" lon="11.88954516657906"><ele>0.0</ele><time>2026-05-01T09:05:55Z</time></trkpt><trkpt lat="45.18204980648279" lon="11.889514884181814"><ele>0.0</ele><time>2026-05-01T09:05:56Z</time></trkpt><trkpt lat="45.18215693410908" lon="11.889488993258075"><ele>0.0</ele><time>2026-05-01T09:05:57Z</time></trkpt><trkpt lat="45.18226367866656" lon="11.889472166412812"><ele>0.0</ele><time>2026-05-01T09:05:58Z</time></trkpt><trkpt lat="45.182376392926635" lon="11.8894474418303"><ele>0.0</ele><time>2026-05-01T09:05:59Z</time></trkpt><trkpt lat="45.18248215106862" lon="11.8894273241768"><ele>0.0</ele><time>2026-05-01T09:06:00Z</time></trkpt><trkpt lat="45.18259467243917" lon="11.889400462497752"><ele>0.0</ele><time>2026-05-01T09:06:01Z</time></trkpt><trkpt lat="45.18270203346061" lon="11.889379823319134"><ele>0.0</ele><time>2026-05-01T09:06:02Z</time></trkpt><trkpt lat="45.18281083873562" lon="11.889359889130986"><ele>0.0</ele><time>2026-05-01T09:06:03Z</time></trkpt><trkpt lat="45.18291905311056" lon="11.88933113129312"><ele>0.0</ele><time>2026-05-01T09:06:04Z</time></trkpt><trkpt lat="45.18302881934919" lon="11.88930833295658"><ele>0.0</ele><time>2026-05-01T09:06:05Z</time></trkpt><trkpt lat="45.18314137049694" lon="11.889275168498182"><ele>0.0</ele><time>2026-05-01T09:06:06Z</time></trkpt><trkpt lat="45.18324445360051" lon="11.889253279478234"><ele>0.0</ele><time>2026-05-01T09:06:07Z</time></trkpt><trkpt lat="45.18335251745437" lon="11.889234121729181"><ele>0.0</ele><time>2026-05-01T09:06:08Z</time></trkpt><trkpt lat="45.18346163893464" lon="11.889215531093571"><ele>0.2</ele><time>2026-05-01T09:06:08.999Z</time></trkpt><trkpt lat="45.183563911499114" lon="11.889201761976825"><ele>0.4</ele><time>2026-05-01T09:06:09.999Z</time></trkpt><trkpt lat="45.18366193932758" lon="11.88917384116235"><ele>0.6000000000000001</ele><time>2026-05-01T09:06:10.999Z</time></trkpt><trkpt lat="45.18375218988232" lon="11.889154055745578"><ele>0.8</ele><time>2026-05-01T09:06:11.999Z</time></trkpt><trkpt lat="45.183838492838376" lon="11.889139581817954"><ele>1.0</ele><time>2026-05-01T09:06:12.999Z</time></trkpt><trkpt lat="45.18393052376628" lon="11.88911926346312"><ele>1.6</ele><time>2026-05-01T09:06:13.999Z</time></trkpt><trkpt lat="45.18402400898875" lon="11.889100252956409"><ele>2.2</ele><time>2026-05-01T09:06:14.999Z</time></trkpt><trkpt lat="45.18411361427834" lon="11.88908413385157"><ele>2.8000000000000003</ele><time>2026-05-01T09:06:15.999Z</time></trkpt><trkpt lat="45.18421898495249" lon="11.889074958578206"><ele>3.4000000000000004</ele><time>2026-05-01T09:06:16.999Z</time></trkpt><trkpt lat="45.18433834761777" lon="11.889024344942234"><ele>4.0</ele><time>2026-05-01T09:06:18.999Z</time></trkpt><trkpt lat="45.184403105551205" lon="11.889010582971354"><ele>3.9999999999999996</ele><time>2026-05-01T09:06:19.999Z</time></trkpt><trkpt lat="45.18451963589967" lon="11.888985579000009"><ele>4.0</ele><time>2026-05-01T09:06:21.999Z</time></trkpt><trkpt lat="45.18461713770353" lon="11.888972359818316"><ele>4.0</ele><time>2026-05-01T09:06:23.999Z</time></trkpt><trkpt lat="45.18468381312761" lon="11.88895190713976"><ele>4.0</ele><time>2026-05-01T09:06:25.999Z</time></trkpt><trkpt lat="45.18475482093139" lon="11.888934656537783"><ele>3.9999999999999996</ele><time>2026-05-01T09:06:29.999Z</time></trkpt><trkpt lat="45.18482094335779" lon="11.888944284299773"><ele>4.0</ele><time>2026-05-01T09:07:09.999Z</time></trkpt><trkpt lat="45.1848183553615" lon="11.889121954405844"><ele>3.9999999999999996</ele><time>2026-05-01T09:07:12.999Z</time></trkpt><trkpt lat="45.18481234472329" lon="11.889232093375695"><ele>4.0</ele><time>2026-05-01T09:07:13.999Z</time></trkpt><trkpt lat="45.184810400596085" lon="11.889351943720468"><ele>4.0</ele><time>2026-05-01T09:07:14.999Z</time></trkpt><trkpt lat="45.18481157270647" lon="11.889477825038462"><ele>4.0</ele><time>2026-05-01T09:07:15.999Z</time></trkpt><trkpt lat="45.184805526132685" lon="11.889609755168138"><ele>3.9999999999999996</ele><time>2026-05-01T09:07:16.999Z</time></trkpt><trkpt lat="45.18480452549989" lon="11.889743536880472"><ele>4.0</ele><time>2026-05-01T09:07:17.999Z</time></trkpt><trkpt lat="45.18479947882997" lon="11.88988130689508"><ele>4.0</ele><time>2026-05-01T09:07:18.999Z</time></trkpt><trkpt lat="45.184791265001756" lon="11.89002160555302"><ele>4.0</ele><time>2026-05-01T09:07:19.999Z</time></trkpt><trkpt lat="45.18477961194418" lon="11.890163830937183"><ele>4.0</ele><time>2026-05-01T09:07:21Z</time></trkpt><trkpt lat="45.18477383394993" lon="11.89030517472086"><ele>4.0</ele><time>2026-05-01T09:07:22Z</time></trkpt><trkpt lat="45.184764084657516" lon="11.890446038968923"><ele>4.0</ele><time>2026-05-01T09:07:23Z</time></trkpt><trkpt lat="45.18475453554083" lon="11.890590474931884"><ele>4.0</ele><time>2026-05-01T09:07:24Z</time></trkpt><trkpt lat="45.18475119851918" lon="11.890733792751506"><ele>4.0</ele><time>2026-05-01T09:07:25Z</time></trkpt><trkpt lat="45.18474683115811" lon="11.890877376990815"><ele>4.0</ele><time>2026-05-01T09:07:26Z</time></trkpt><trkpt lat="45.184738889684276" lon="11.891023607598603"><ele>4.0</ele><time>2026-05-01T09:07:27Z</time></trkpt><trkpt lat="45.18473106856505" lon="11.891170742295037"><ele>4.0</ele><time>2026-05-01T09:07:28Z</time></trkpt><trkpt lat="45.18472204262391" lon="11.89131627433193"><ele>4.0</ele><time>2026-05-01T09:07:29Z</time></trkpt><trkpt lat="45.18471605155063" lon="11.891462769943589"><ele>4.0</ele><time>2026-05-01T09:07:30Z</time></trkpt><trkpt lat="45.18471534877007" lon="11.891608340418657"><ele>4.0</ele><time>2026-05-01T09:07:31Z</time></trkpt><trkpt lat="45.184705114655515" lon="11.891755681810816"><ele>4.0</ele><time>2026-05-01T09:07:32Z</time></trkpt><trkpt lat="45.184697460676" lon="11.891904335382465"><ele>4.0</ele><time>2026-05-01T09:07:33Z</time></trkpt><trkpt lat="45.18469153473781" lon="11.892053286505696"><ele>4.0</ele><time>2026-05-01T09:07:34Z</time></trkpt><trkpt lat="45.184682571732424" lon="11.892201311703673"><ele>4.0</ele><time>2026-05-01T09:07:35Z</time></trkpt><trkpt lat="45.18467467688599" lon="11.892348318984496"><ele>4.0</ele><time>2026-05-01T09:07:36Z</time></trkpt><trkpt lat="45.184666793232864" lon="11.892495605308598"><ele>4.0</ele><time>2026-05-01T09:07:37Z</time></trkpt><trkpt lat="45.18465975977629" lon="11.892645850356832"><ele>4.0</ele><time>2026-05-01T09:07:38Z</time></trkpt><trkpt lat="45.18465344367005" lon="11.892796026446694"><ele>4.2</ele><time>2026-05-01T09:07:39Z</time></trkpt><trkpt lat="45.18464727368128" lon="11.892946826838566"><ele>4.4</ele><time>2026-05-01T09:07:40Z</time></trkpt><trkpt lat="45.18463871732685" lon="11.893096648531333"><ele>4.6</ele><time>2026-05-01T09:07:41Z</time></trkpt><trkpt lat="45.184629492634144" lon="11.893246147618298"><ele>4.8</ele><time>2026-05-01T09:07:42Z</time></trkpt><trkpt lat="45.18462404720089" lon="11.893396152392087"><ele>5.0</ele><time>2026-05-01T09:07:43Z</time></trkpt><trkpt lat="45.18461946733158" lon="11.893545211611032"><ele>5.0</ele><time>2026-05-01T09:07:44Z</time></trkpt><trkpt lat="45.18461451995043" lon="11.893694801331968"><ele>5.0</ele><time>2026-05-01T09:07:45Z</time></trkpt><trkpt lat="45.18460216332903" lon="11.893839395609945"><ele>5.0</ele><time>2026-05-01T09:07:46Z</time></trkpt><trkpt lat="45.184593497940874" lon="11.893986202409248"><ele>5.0</ele><time>2026-05-01T09:07:47Z</time></trkpt><trkpt lat="45.1845888542149" lon="11.894133530087123"><ele>5.0</ele><time>2026-05-01T09:07:48Z</time></trkpt><trkpt lat="45.18458299031997" lon="11.894280186063819"><ele>5.0</ele><time>2026-05-01T09:07:49Z</time></trkpt><trkpt lat="45.18457605494294" lon="11.894427725734166"><ele>5.0</ele><time>2026-05-01T09:07:50Z</time></trkpt><trkpt lat="45.18456964912791" lon="11.894579110019237"><ele>5.0</ele><time>2026-05-01T09:07:51Z</time></trkpt><trkpt lat="45.18456287051569" lon="11.894725748888858"><ele>5.0</ele><time>2026-05-01T09:07:52Z</time></trkpt><trkpt lat="45.18455707238576" lon="11.89487653818893"><ele>5.0</ele><time>2026-05-01T09:07:53Z</time></trkpt><trkpt lat="45.18455249876277" lon="11.895025659593273"><ele>4.6</ele><time>2026-05-01T09:07:54Z</time></trkpt><trkpt lat="45.18454373076602" lon="11.89517303737445"><ele>4.2</ele><time>2026-05-01T09:07:55Z</time></trkpt><trkpt lat="45.184535303013504" lon="11.895320756312778"><ele>3.8</ele><time>2026-05-01T09:07:56Z</time></trkpt><trkpt lat="45.184527438727905" lon="11.895468307947398"><ele>3.4</ele><time>2026-05-01T09:07:57Z</time></trkpt><trkpt lat="45.18452134934141" lon="11.895613573831596"><ele>3.0</ele><time>2026-05-01T09:07:58Z</time></trkpt><trkpt lat="45.18451276752255" lon="11.895762419749822"><ele>3.0</ele><time>2026-05-01T09:07:59Z</time></trkpt><trkpt lat="45.184505239311505" lon="11.89591003868184"><ele>3.0</ele><time>2026-05-01T09:08:00Z</time></trkpt><trkpt lat="45.18449992200529" lon="11.896055473559747"><ele>3.0</ele><time>2026-05-01T09:08:01Z</time></trkpt><trkpt lat="45.18449528144861" lon="11.896204172338575"><ele>3.0</ele><time>2026-05-01T09:08:02Z</time></trkpt><trkpt lat="45.184489638392925" lon="11.896359465773378"><ele>3.0</ele><time>2026-05-01T09:08:03Z</time></trkpt><trkpt lat="45.184482360363894" lon="11.896514559195943"><ele>3.2</ele><time>2026-05-01T09:08:04Z</time></trkpt><trkpt lat="45.18447424438513" lon="11.896667566324082"><ele>3.4</ele><time>2026-05-01T09:08:05Z</time></trkpt><trkpt lat="45.184467240555136" lon="11.896821578481608"><ele>3.6000000000000005</ele><time>2026-05-01T09:08:06Z</time></trkpt><trkpt lat="45.184460491394994" lon="11.896970658667774"><ele>3.8000000000000003</ele><time>2026-05-01T09:08:06.999Z</time></trkpt><trkpt lat="45.184449752669806" lon="11.897131289623378"><ele>4.0</ele><time>2026-05-01T09:08:07.999Z</time></trkpt><trkpt lat="45.18444677137048" lon="11.897281635322226"><ele>4.0</ele><time>2026-05-01T09:08:08.999Z</time></trkpt><trkpt lat="45.18444150748586" lon="11.897429471063862"><ele>4.0</ele><time>2026-05-01T09:08:09.999Z</time></trkpt><trkpt lat="45.18443504424631" lon="11.89759104507167"><ele>4.0</ele><time>2026-05-01T09:08:10.999Z</time></trkpt><trkpt lat="45.18443179948649" lon="11.897742662416071"><ele>4.0</ele><time>2026-05-01T09:08:11.999Z</time></trkpt><trkpt lat="45.184422716646075" lon="11.897897124593047"><ele>4.0</ele><time>2026-05-01T09:08:12.999Z</time></trkpt><trkpt lat="45.18441779750155" lon="11.898051330948995"><ele>3.8000000000000003</ele><time>2026-05-01T09:08:13.999Z</time></trkpt><trkpt lat="45.18439441380685" lon="11.898203590286132"><ele>3.6000000000000005</ele><time>2026-05-01T09:08:14.999Z</time></trkpt><trkpt lat="45.184386864710795" lon="11.89835787735915"><ele>3.4</ele><time>2026-05-01T09:08:15.999Z</time></trkpt><trkpt lat="45.18439081824242" lon="11.89850252645298"><ele>3.2</ele><time>2026-05-01T09:08:16.999Z</time></trkpt><trkpt lat="45.18438447349807" lon="11.898644207048807"><ele>3.0</ele><time>2026-05-01T09:08:17.999Z</time></trkpt><trkpt lat="45.18437657855749" lon="11.898786375589614"><ele>2.8333333333333335</ele><time>2026-05-01T09:08:18.999Z</time></trkpt><trkpt lat="45.18437162293383" lon="11.898917356357106"><ele>2.6666666666666665</ele><time>2026-05-01T09:08:19.999Z</time></trkpt><trkpt lat="45.18436552722943" lon="11.899034281783779"><ele>2.5</ele><time>2026-05-01T09:08:20.999Z</time></trkpt><trkpt lat="45.18436136725245" lon="11.899139429242027"><ele>2.333333333333333</ele><time>2026-05-01T09:08:21.999Z</time></trkpt><trkpt lat="45.18436083163553" lon="11.899236136513492"><ele>2.1666666666666665</ele><time>2026-05-01T09:08:22.999Z</time></trkpt><trkpt lat="45.184347371694344" lon="11.899383886009034"><ele>2.0</ele><time>2026-05-01T09:08:24.999Z</time></trkpt><trkpt lat="45.18433158010575" lon="11.899518955680238"><ele>2.0</ele><time>2026-05-01T09:08:30.999Z</time></trkpt><trkpt lat="45.184454535371614" lon="11.89955398707662"><ele>2.0</ele><time>2026-05-01T09:08:32.999Z</time></trkpt><trkpt lat="45.18454066085976" lon="11.899542285396286"><ele>2.0</ele><time>2026-05-01T09:08:33.999Z</time></trkpt><trkpt lat="45.18462249085795" lon="11.899559444967762"><ele>2.0</ele><time>2026-05-01T09:08:34.999Z</time></trkpt><trkpt lat="45.18471180284708" lon="11.899575943750422"><ele>2.0</ele><time>2026-05-01T09:08:35.999Z</time></trkpt><trkpt lat="45.18480640816136" lon="11.899598681528419"><ele>1.8</ele><time>2026-05-01T09:08:36.999Z</time></trkpt><trkpt lat="45.1849051107991" lon="11.899619127061834"><ele>1.6</ele><time>2026-05-01T09:08:37.999Z</time></trkpt><trkpt lat="45.185007032889544" lon="11.899636788569712"><ele>1.4000000000000001</ele><time>2026-05-01T09:08:38.999Z</time></trkpt><trkpt lat="45.185111788586404" lon="11.89965957465596"><ele>1.2000000000000002</ele><time>2026-05-01T09:08:39.999Z</time></trkpt><trkpt lat="45.18522043456852" lon="11.899682583457869"><ele>1.0</ele><time>2026-05-01T09:08:40.999Z</time></trkpt><trkpt lat="45.18532895972161" lon="11.899697567711659"><ele>1.0</ele><time>2026-05-01T09:08:41.999Z</time></trkpt><trkpt lat="45.185439729932284" lon="11.899719318220503"><ele>1.0</ele><time>2026-05-01T09:08:42.999Z</time></trkpt><trkpt lat="45.18554708983432" lon="11.89974220955073"><ele>1.0</ele><time>2026-05-01T09:08:43.999Z</time></trkpt><trkpt lat="45.18565600606515" lon="11.8997656688938"><ele>1.0</ele><time>2026-05-01T09:08:44.999Z</time></trkpt><trkpt lat="45.18576649488372" lon="11.89978023963131"><ele>1.0</ele><time>2026-05-01T09:08:45.999Z</time></trkpt><trkpt lat="45.18587519686766" lon="11.899807496143175"><ele>1.2000000000000002</ele><time>2026-05-01T09:08:46.999Z</time></trkpt><trkpt lat="45.185986985424044" lon="11.89982947710418"><ele>1.4000000000000001</ele><time>2026-05-01T09:08:47.999Z</time></trkpt><trkpt lat="45.18610092314399" lon="11.899852450874812"><ele>1.6</ele><time>2026-05-01T09:08:48.999Z</time></trkpt><trkpt lat="45.186210638791444" lon="11.89987213775848"><ele>1.8</ele><time>2026-05-01T09:08:49.999Z</time></trkpt><trkpt lat="45.18631779159027" lon="11.899895545507935"><ele>2.0</ele><time>2026-05-01T09:08:50.999Z</time></trkpt><trkpt lat="45.186427568161264" lon="11.899919120349256"><ele>2.2</ele><time>2026-05-01T09:08:51.999Z</time></trkpt><trkpt lat="45.18653540116111" lon="11.899942665749272"><ele>2.4000000000000004</ele><time>2026-05-01T09:08:52.999Z</time></trkpt><trkpt lat="45.18664400678542" lon="11.89996337369674"><ele>2.5999999999999996</ele><time>2026-05-01T09:08:53.999Z</time></trkpt><trkpt lat="45.18675256735615" lon="11.89997836636752"><ele>2.8</ele><time>2026-05-01T09:08:54.999Z</time></trkpt><trkpt lat="45.18686146627163" lon="11.9000009664887"><ele>3.0</ele><time>2026-05-01T09:08:55.999Z</time></trkpt><trkpt lat="45.186968211299394" lon="11.90001746773058"><ele>3.0</ele><time>2026-05-01T09:08:56.999Z</time></trkpt><trkpt lat="45.18708214584081" lon="11.900054064255594"><ele>3.0</ele><time>2026-05-01T09:08:57.999Z</time></trkpt><trkpt lat="45.187192208281445" lon="11.90006755622871"><ele>3.0</ele><time>2026-05-01T09:08:58.999Z</time></trkpt><trkpt lat="45.18730358537004" lon="11.900086995497752"><ele>3.0</ele><time>2026-05-01T09:08:59.999Z</time></trkpt><trkpt lat="45.18741287584637" lon="11.900107566822802"><ele>2.8</ele><time>2026-05-01T09:09:00.999Z</time></trkpt><trkpt lat="45.187526479622996" lon="11.900133031170718"><ele>2.5999999999999996</ele><time>2026-05-01T09:09:01.999Z</time></trkpt><trkpt lat="45.18763843181027" lon="11.900159281781265"><ele>2.4000000000000004</ele><time>2026-05-01T09:09:02.999Z</time></trkpt><trkpt lat="45.187749204230435" lon="11.900181673253774"><ele>2.2</ele><time>2026-05-01T09:09:03.999Z</time></trkpt><trkpt lat="45.18785538423216" lon="11.900200495223553"><ele>2.0</ele><time>2026-05-01T09:09:04.999Z</time></trkpt><trkpt lat="45.18796086566438" lon="11.900221070619065"><ele>2.0</ele><time>2026-05-01T09:09:05.999Z</time></trkpt><trkpt lat="45.18806836472383" lon="11.900244852510655"><ele>2.0</ele><time>2026-05-01T09:09:06.999Z</time></trkpt><trkpt lat="45.18817641462659" lon="11.900269967408244"><ele>2.0</ele><time>2026-05-01T09:09:07.999Z</time></trkpt><trkpt lat="45.188285908713425" lon="11.90028638192371"><ele>2.0</ele><time>2026-05-01T09:09:08.999Z</time></trkpt><trkpt lat="45.18839728497734" lon="11.900307998415352"><ele>2.0</ele><time>2026-05-01T09:09:09.999Z</time></trkpt><trkpt lat="45.18850544802069" lon="11.900330475715787"><ele>2.2</ele><time>2026-05-01T09:09:10.999Z</time></trkpt><trkpt lat="45.188614343770396" lon="11.900362682600864"><ele>2.4000000000000004</ele><time>2026-05-01T09:09:11.999Z</time></trkpt><trkpt lat="45.188724469668976" lon="11.900382088498466"><ele>2.5999999999999996</ele><time>2026-05-01T09:09:12.999Z</time></trkpt><trkpt lat="45.18883139432701" lon="11.900408914932623"><ele>2.8</ele><time>2026-05-01T09:09:13.999Z</time></trkpt><trkpt lat="45.18894639350661" lon="11.900423633849442"><ele>3.0</ele><time>2026-05-01T09:09:14.999Z</time></trkpt><trkpt lat="45.189057052410796" lon="11.900447483821718"><ele>3.2</ele><time>2026-05-01T09:09:15.999Z</time></trkpt><trkpt lat="45.18916958921129" lon="11.900471831968296"><ele>3.4</ele><time>2026-05-01T09:09:16.999Z</time></trkpt><trkpt lat="45.189281485510406" lon="11.900494018811315"><ele>3.6000000000000005</ele><time>2026-05-01T09:09:17.999Z</time></trkpt><trkpt lat="45.18938387054343" lon="11.90052263429894"><ele>3.8000000000000003</ele><time>2026-05-01T09:09:18.999Z</time></trkpt><trkpt lat="45.189489342135985" lon="11.900541373939399"><ele>4.0</ele><time>2026-05-01T09:09:19.999Z</time></trkpt><trkpt lat="45.189599761583054" lon="11.900560356813795"><ele>4.0</ele><time>2026-05-01T09:09:20.999Z</time></trkpt><trkpt lat="45.18970968815612" lon="11.900586570789866"><ele>4.0</ele><time>2026-05-01T09:09:21.999Z</time></trkpt><trkpt lat="45.18981735652285" lon="11.90060807321066"><ele>4.0</ele><time>2026-05-01T09:09:22.999Z</time></trkpt><trkpt lat="45.18992326290879" lon="11.90063977125372"><ele>4.0</ele><time>2026-05-01T09:09:23.999Z</time></trkpt><trkpt lat="45.19003200511321" lon="11.90066418278438"><ele>4.0</ele><time>2026-05-01T09:09:24.999Z</time></trkpt><trkpt lat="45.1901430712021" lon="11.900691208327766"><ele>3.8000000000000003</ele><time>2026-05-01T09:09:25.999Z</time></trkpt><trkpt lat="45.190252026068464" lon="11.900709774643364"><ele>3.6000000000000005</ele><time>2026-05-01T09:09:27Z</time></trkpt><trkpt lat="45.19035810560303" lon="11.900730875038292"><ele>3.4</ele><time>2026-05-01T09:09:28Z</time></trkpt><trkpt lat="45.19046671713694" lon="11.900753793525002"><ele>3.2</ele><time>2026-05-01T09:09:29Z</time></trkpt><trkpt lat="45.19057468543968" lon="11.90077687833608"><ele>3.0</ele><time>2026-05-01T09:09:30Z</time></trkpt><trkpt lat="45.19068497247605" lon="11.900801028979668"><ele>2.8</ele><time>2026-05-01T09:09:31Z</time></trkpt><trkpt lat="45.19079514496794" lon="11.900830175785792"><ele>2.5999999999999996</ele><time>2026-05-01T09:09:32Z</time></trkpt><trkpt lat="45.19090441271638" lon="11.900867693614513"><ele>2.4000000000000004</ele><time>2026-05-01T09:09:33Z</time></trkpt><trkpt lat="45.19100610958871" lon="11.900883326252297"><ele>2.2</ele><time>2026-05-01T09:09:34Z</time></trkpt><trkpt lat="45.191118997733824" lon="11.9008907458978"><ele>2.0</ele><time>2026-05-01T09:09:35Z</time></trkpt><trkpt lat="45.19122370533515" lon="11.900911923000326"><ele>2.2</ele><time>2026-05-01T09:09:36Z</time></trkpt><trkpt lat="45.19133509328222" lon="11.90094023723996"><ele>2.4000000000000004</ele><time>2026-05-01T09:09:37Z</time></trkpt><trkpt lat="45.19144682298072" lon="11.90097634181554"><ele>2.5999999999999996</ele><time>2026-05-01T09:09:38Z</time></trkpt><trkpt lat="45.19155183047685" lon="11.900986515419437"><ele>2.8</ele><time>2026-05-01T09:09:39Z</time></trkpt><trkpt lat="45.19165525760191" lon="11.900999697284782"><ele>3.0</ele><time>2026-05-01T09:09:40Z</time></trkpt><trkpt lat="45.19173403516193" lon="11.901007788714407"><ele>3.0</ele><time>2026-05-01T09:09:41Z</time></trkpt><trkpt lat="45.191863133489655" lon="11.90103739424168"><ele>3.0</ele><time>2026-05-01T09:09:42Z</time></trkpt><trkpt lat="45.1919742638449" lon="11.901070662182383"><ele>3.0</ele><time>2026-05-01T09:09:43Z</time></trkpt><trkpt lat="45.192082233432416" lon="11.901089390380037"><ele>3.0</ele><time>2026-05-01T09:09:44Z</time></trkpt><trkpt lat="45.19218560829079" lon="11.901111947896572"><ele>3.0</ele><time>2026-05-01T09:09:45Z</time></trkpt><trkpt lat="45.19229157505001" lon="11.901136263165894"><ele>3.0</ele><time>2026-05-01T09:09:46Z</time></trkpt><trkpt lat="45.192398565150015" lon="11.901142424422662"><ele>3.0</ele><time>2026-05-01T09:09:47Z</time></trkpt><trkpt lat="45.19250942268867" lon="11.901178326963297"><ele>3.0</ele><time>2026-05-01T09:09:48Z</time></trkpt><trkpt lat="45.19262067421603" lon="11.90120434497877"><ele>3.0</ele><time>2026-05-01T09:09:49Z</time></trkpt><trkpt lat="45.1927271860087" lon="11.901228453788281"><ele>3.2</ele><time>2026-05-01T09:09:50Z</time></trkpt><trkpt lat="45.19283334723958" lon="11.901251263321203"><ele>3.4</ele><time>2026-05-01T09:09:51Z</time></trkpt><trkpt lat="45.192940919927665" lon="11.901270263853927"><ele>3.6000000000000005</ele><time>2026-05-01T09:09:52Z</time></trkpt><trkpt lat="45.19304988932353" lon="11.901290070492669"><ele>3.8000000000000003</ele><time>2026-05-01T09:09:53Z</time></trkpt><trkpt lat="45.19315749047939" lon="11.90131262732387"><ele>4.0</ele><time>2026-05-01T09:09:54Z</time></trkpt><trkpt lat="45.19326511499618" lon="11.90133412598664"><ele>4.0</ele><time>2026-05-01T09:09:55Z</time></trkpt><trkpt lat="45.19337276930769" lon="11.901353472942201"><ele>4.0</ele><time>2026-05-01T09:09:56Z</time></trkpt><trkpt lat="45.19347695680097" lon="11.901376192926087"><ele>4.0</ele><time>2026-05-01T09:09:57Z</time></trkpt><trkpt lat="45.19358833412681" lon="11.901399921806073"><ele>4.0</ele><time>2026-05-01T09:09:58Z</time></trkpt><trkpt lat="45.19369602721113" lon="11.901424399286654"><ele>4.0</ele><time>2026-05-01T09:09:59Z</time></trkpt><trkpt lat="45.19380088517693" lon="11.901453319045077"><ele>4.0</ele><time>2026-05-01T09:10:00Z</time></trkpt><trkpt lat="45.19389719063651" lon="11.901475814254272"><ele>4.0</ele><time>2026-05-01T09:10:01Z</time></trkpt><trkpt lat="45.19401778422722" lon="11.901496119128945"><ele>4.0</ele><time>2026-05-01T09:10:02Z</time></trkpt><trkpt lat="45.19412809813929" lon="11.90151323210148"><ele>4.0</ele><time>2026-05-01T09:10:03Z</time></trkpt><trkpt lat="45.194235020464276" lon="11.901535031791019"><ele>4.0</ele><time>2026-05-01T09:10:04Z</time></trkpt><trkpt lat="45.19434554837636" lon="11.901557778349321"><ele>3.6</ele><time>2026-05-01T09:10:05Z</time></trkpt><trkpt lat="45.19446019314506" lon="11.901577802355543"><ele>3.2</ele><time>2026-05-01T09:10:06Z</time></trkpt><trkpt lat="45.194571545188516" lon="11.901597857061564"><ele>2.8000000000000003</ele><time>2026-05-01T09:10:07Z</time></trkpt><trkpt lat="45.19467998601573" lon="11.901622500195565"><ele>2.4000000000000004</ele><time>2026-05-01T09:10:08Z</time></trkpt><trkpt lat="45.19478665062488" lon="11.901643734696643"><ele>2.0</ele><time>2026-05-01T09:10:09Z</time></trkpt><trkpt lat="45.194897833429614" lon="11.901663645216214"><ele>2.0</ele><time>2026-05-01T09:10:10Z</time></trkpt><trkpt lat="45.1950054587997" lon="11.901693499133206"><ele>2.0</ele><time>2026-05-01T09:10:11Z</time></trkpt><trkpt lat="45.19511301719796" lon="11.901716037321721"><ele>2.0</ele><time>2026-05-01T09:10:12Z</time></trkpt><trkpt lat="45.19522015246674" lon="11.901739712325973"><ele>2.0</ele><time>2026-05-01T09:10:13Z</time></trkpt><trkpt lat="45.19532406192425" lon="11.901760853085497"><ele>2.0</ele><time>2026-05-01T09:10:14Z</time></trkpt><trkpt lat="45.195420027394356" lon="11.901779907021458"><ele>2.1666666666666665</ele><time>2026-05-01T09:10:15Z</time></trkpt><trkpt lat="45.19550828913208" lon="11.90180207327261"><ele>2.333333333333333</ele><time>2026-05-01T09:10:16Z</time></trkpt><trkpt lat="45.19558995803186" lon="11.901820166535675"><ele>2.5</ele><time>2026-05-01T09:10:17Z</time></trkpt><trkpt lat="45.19567624818374" lon="11.901824134048402"><ele>2.6666666666666665</ele><time>2026-05-01T09:10:18Z</time></trkpt><trkpt lat="45.19576137461351" lon="11.901836213215686"><ele>2.8333333333333335</ele><time>2026-05-01T09:10:18.999Z</time></trkpt><trkpt lat="45.19584567484201" lon="11.901839207430829"><ele>3.0</ele><time>2026-05-01T09:10:19.999Z</time></trkpt><trkpt lat="45.19592599908651" lon="11.901843666931697"><ele>2.6</ele><time>2026-05-01T09:10:20.999Z</time></trkpt><trkpt lat="45.19600607879736" lon="11.901850035668387"><ele>2.1999999999999997</ele><time>2026-05-01T09:10:21.999Z</time></trkpt><trkpt lat="45.196099159040386" lon="11.901852091471278"><ele>1.8</ele><time>2026-05-01T09:10:22.999Z</time></trkpt><trkpt lat="45.19619670240627" lon="11.901859413944868"><ele>1.4</ele><time>2026-05-01T09:10:23.999Z</time></trkpt><trkpt lat="45.196298009201655" lon="11.90186536236664"><ele>1.0</ele><time>2026-05-01T09:10:24.999Z</time></trkpt><trkpt lat="45.19640481768519" lon="11.901871999050844"><ele>1.2000000000000002</ele><time>2026-05-01T09:10:25.999Z</time></trkpt><trkpt lat="45.19651323689248" lon="11.901876690204968"><ele>1.4000000000000001</ele><time>2026-05-01T09:10:26.999Z</time></trkpt><trkpt lat="45.19662517830438" lon="11.901880571336404"><ele>1.6</ele><time>2026-05-01T09:10:27.999Z</time></trkpt><trkpt lat="45.19673914310373" lon="11.901881333471431"><ele>1.8</ele><time>2026-05-01T09:10:28.999Z</time></trkpt><trkpt lat="45.19685094449041" lon="11.90189149593938"><ele>2.0</ele><time>2026-05-01T09:10:29.999Z</time></trkpt><trkpt lat="45.19695455366593" lon="11.901890875685668"><ele>2.0</ele><time>2026-05-01T09:10:30.999Z</time></trkpt><trkpt lat="45.197052883494194" lon="11.901863965296192"><ele>2.0</ele><time>2026-05-01T09:10:31.999Z</time></trkpt><trkpt lat="45.19713413276053" lon="11.90190184895781"><ele>2.0</ele><time>2026-05-01T09:10:32.999Z</time></trkpt><trkpt lat="45.19720239134454" lon="11.901913374078672"><ele>2.0</ele><time>2026-05-01T09:10:33.999Z</time></trkpt><trkpt lat="45.19731433227844" lon="11.901995182922668"><ele>2.0</ele><time>2026-05-01T09:10:35.999Z</time></trkpt><trkpt lat="45.197377223152834" lon="11.902071930424569"><ele>2.0</ele><time>2026-05-01T09:10:36.999Z</time></trkpt><trkpt lat="45.19745477946464" lon="11.90212509864056"><ele>2.0</ele><time>2026-05-01T09:10:37.999Z</time></trkpt><trkpt lat="45.197539723654955" lon="11.902133567163487"><ele>2.0</ele><time>2026-05-01T09:10:38.999Z</time></trkpt><trkpt lat="45.19763394905665" lon="11.902114852107639"><ele>2.0</ele><time>2026-05-01T09:10:39.999Z</time></trkpt><trkpt lat="45.19773678817177" lon="11.902079718811821"><ele>2.0</ele><time>2026-05-01T09:10:40.999Z</time></trkpt><trkpt lat="45.197836009935976" lon="11.902010910097166"><ele>2.0</ele><time>2026-05-01T09:10:41.999Z</time></trkpt><trkpt lat="45.19792774102728" lon="11.901949186744526"><ele>2.0</ele><time>2026-05-01T09:10:42.999Z</time></trkpt><trkpt lat="45.19805446480998" lon="11.902007532827954"><ele>2.0</ele><time>2026-05-01T09:10:43.999Z</time></trkpt><trkpt lat="45.19816412383081" lon="11.902029856714659"><ele>2.0</ele><time>2026-05-01T09:10:44.999Z</time></trkpt><trkpt lat="45.19827778365192" lon="11.902068067480583"><ele>1.8</ele><time>2026-05-01T09:10:45.999Z</time></trkpt><trkpt lat="45.19838853885433" lon="11.902096556674303"><ele>1.6</ele><time>2026-05-01T09:10:46.999Z</time></trkpt><trkpt lat="45.19849838147164" lon="11.902121826859224"><ele>1.4000000000000001</ele><time>2026-05-01T09:10:47.999Z</time></trkpt><trkpt lat="45.19860428831872" lon="11.90215444416262"><ele>1.2000000000000002</ele><time>2026-05-01T09:10:48.999Z</time></trkpt><trkpt lat="45.198714352513484" lon="11.902179656986954"><ele>1.0</ele><time>2026-05-01T09:10:49.999Z</time></trkpt><trkpt lat="45.198824524037825" lon="11.902204857416157"><ele>1.0</ele><time>2026-05-01T09:10:50.999Z</time></trkpt><trkpt lat="45.19893085227833" lon="11.90223119943993"><ele>1.0</ele><time>2026-05-01T09:10:51.999Z</time></trkpt><trkpt lat="45.199038485409375" lon="11.902255224416152"><ele>1.0</ele><time>2026-05-01T09:10:52.999Z</time></trkpt><trkpt lat="45.19915027231698" lon="11.902274463795633"><ele>1.0</ele><time>2026-05-01T09:10:53.999Z</time></trkpt><trkpt lat="45.19926157923586" lon="11.902293726698085"><ele>1.0</ele><time>2026-05-01T09:10:54.999Z</time></trkpt><trkpt lat="45.19937326203529" lon="11.902318421038864"><ele>0.8</ele><time>2026-05-01T09:10:55.999Z</time></trkpt><trkpt lat="45.19948354922314" lon="11.902346385575646"><ele>0.6000000000000001</ele><time>2026-05-01T09:10:56.999Z</time></trkpt><trkpt lat="45.199596591452845" lon="11.902378385301098"><ele>0.4</ele><time>2026-05-01T09:10:57.999Z</time></trkpt><trkpt lat="45.19970705423948" lon="11.902411466398542"><ele>0.2</ele><time>2026-05-01T09:10:58.999Z</time></trkpt><trkpt lat="45.199810669317145" lon="11.902448989099712"><ele>0.0</ele><time>2026-05-01T09:10:59.999Z</time></trkpt><trkpt lat="45.199915340718874" lon="11.902482215718013"><ele>0.0</ele><time>2026-05-01T09:11:00.999Z</time></trkpt><trkpt lat="45.200019259919436" lon="11.902513448650364"><ele>0.0</ele><time>2026-05-01T09:11:01.999Z</time></trkpt><trkpt lat="45.20012062153808" lon="11.902547894852907"><ele>0.0</ele><time>2026-05-01T09:11:02.999Z</time></trkpt><trkpt lat="45.200211502645885" lon="11.90258529350486"><ele>0.0</ele><time>2026-05-01T09:11:03.999Z</time></trkpt><trkpt lat="45.20029433691518" lon="11.902623060098259"><ele>0.0</ele><time>2026-05-01T09:11:04.999Z</time></trkpt><trkpt lat="45.20036878993516" lon="11.902683288884806"><ele>0.2</ele><time>2026-05-01T09:11:05.999Z</time></trkpt><trkpt lat="45.200452915019866" lon="11.902697659424266"><ele>0.4</ele><time>2026-05-01T09:11:06.999Z</time></trkpt><trkpt lat="45.20049421346321" lon="11.902846671371607"><ele>0.6000000000000001</ele><time>2026-05-01T09:11:07.999Z</time></trkpt><trkpt lat="45.2005440968318" lon="11.90292591159594"><ele>0.8</ele><time>2026-05-01T09:11:08.999Z</time></trkpt><trkpt lat="45.20063242450034" lon="11.902930155305144"><ele>1.0</ele><time>2026-05-01T09:11:09.999Z</time></trkpt><trkpt lat="45.200722947725716" lon="11.90292927553115"><ele>1.0</ele><time>2026-05-01T09:11:10.999Z</time></trkpt><trkpt lat="45.20081401454174" lon="11.902867192888731"><ele>1.0</ele><time>2026-05-01T09:11:11.999Z</time></trkpt><trkpt lat="45.2009192571317" lon="11.902870966430617"><ele>1.0</ele><time>2026-05-01T09:11:12.999Z</time></trkpt><trkpt lat="45.20101855576801" lon="11.90288396804622"><ele>1.0</ele><time>2026-05-01T09:11:13.999Z</time></trkpt><trkpt lat="45.20112393535221" lon="11.902932250698575"><ele>1.0</ele><time>2026-05-01T09:11:14.999Z</time></trkpt><trkpt lat="45.201228944361496" lon="11.902973288480835"><ele>1.0</ele><time>2026-05-01T09:11:15.999Z</time></trkpt><trkpt lat="45.20134169126555" lon="11.903019731490728"><ele>1.0</ele><time>2026-05-01T09:11:16.999Z</time></trkpt><trkpt lat="45.201455071850376" lon="11.903042126370682"><ele>1.0</ele><time>2026-05-01T09:11:17.999Z</time></trkpt><trkpt lat="45.20157461392768" lon="11.903061896771808"><ele>1.0</ele><time>2026-05-01T09:11:18.999Z</time></trkpt><trkpt lat="45.20169464304424" lon="11.903072636884612"><ele>0.75</ele><time>2026-05-01T09:11:19.999Z</time></trkpt><trkpt lat="45.20181791124328" lon="11.90305721373758"><ele>0.5</ele><time>2026-05-01T09:11:20.999Z</time></trkpt><trkpt lat="45.20193467114807" lon="11.903055558819066"><ele>0.25</ele><time>2026-05-01T09:11:21.999Z</time></trkpt><trkpt lat="45.20204795371302" lon="11.903038214403336"><ele>0.0</ele><time>2026-05-01T09:11:22.999Z</time></trkpt><trkpt lat="45.20215164412145" lon="11.903029628774753"><ele>0.0</ele><time>2026-05-01T09:11:23.999Z</time></trkpt><trkpt lat="45.202270271396195" lon="11.903004006086348"><ele>0.0</ele><time>2026-05-01T09:11:24.999Z</time></trkpt><trkpt lat="45.202381344145856" lon="11.90298974064132"><ele>0.0</ele><time>2026-05-01T09:11:25.999Z</time></trkpt><trkpt lat="45.202493645334805" lon="11.902974638209647"><ele>0.0</ele><time>2026-05-01T09:11:26.999Z</time></trkpt><trkpt lat="45.20260412558595" lon="11.902956426612366"><ele>-0.25</ele><time>2026-05-01T09:11:27.999Z</time></trkpt><trkpt lat="45.20271654663979" lon="11.902941600024551"><ele>-0.5</ele><time>2026-05-01T09:11:28.999Z</time></trkpt><trkpt lat="45.20283046661993" lon="11.90293057277018"><ele>-0.75</ele><time>2026-05-01T09:11:29.999Z</time></trkpt><trkpt lat="45.202943914389806" lon="11.902910868597866"><ele>-1.0</ele><time>2026-05-01T09:11:30.999Z</time></trkpt><trkpt lat="45.20305827124511" lon="11.902888051820925"><ele>-1.25</ele><time>2026-05-01T09:11:31.999Z</time></trkpt><trkpt lat="45.203173720247726" lon="11.90287792777404"><ele>-1.5</ele><time>2026-05-01T09:11:33Z</time></trkpt><trkpt lat="45.20328793584291" lon="11.902861350387326"><ele>-1.75</ele><time>2026-05-01T09:11:34Z</time></trkpt><trkpt lat="45.20339873665224" lon="11.902822075138253"><ele>-2.0</ele><time>2026-05-01T09:11:35Z</time></trkpt><trkpt lat="45.20351450282508" lon="11.902826455448443"><ele>-2.0</ele><time>2026-05-01T09:11:36Z</time></trkpt><trkpt lat="45.20362111670343" lon="11.90280822837929"><ele>-2.0</ele><time>2026-05-01T09:11:37Z</time></trkpt><trkpt lat="45.203739693346726" lon="11.902787370815645"><ele>-2.0</ele><time>2026-05-01T09:11:38Z</time></trkpt><trkpt lat="45.203851021018004" lon="11.902772283123296"><ele>-2.0</ele><time>2026-05-01T09:11:39Z</time></trkpt><trkpt lat="45.20396498217267" lon="11.90275358739319"><ele>-1.75</ele><time>2026-05-01T09:11:40Z</time></trkpt><trkpt lat="45.204079123459486" lon="11.902734089240123"><ele>-1.5</ele><time>2026-05-01T09:11:41Z</time></trkpt><trkpt lat="45.204192953519964" lon="11.902714640182808"><ele>-1.25</ele><time>2026-05-01T09:11:42Z</time></trkpt><trkpt lat="45.204303726502204" lon="11.90269827312257"><ele>-1.0</ele><time>2026-05-01T09:11:43Z</time></trkpt><trkpt lat="45.204416215002645" lon="11.90268423863881"><ele>-1.0</ele><time>2026-05-01T09:11:44Z</time></trkpt><trkpt lat="45.204528682280205" lon="11.902666651532885"><ele>-1.0</ele><time>2026-05-01T09:11:45Z</time></trkpt><trkpt lat="45.2046374664231" lon="11.902650786364385"><ele>-1.0</ele><time>2026-05-01T09:11:46Z</time></trkpt><trkpt lat="45.20474302241876" lon="11.902634780941098"><ele>-1.0</ele><time>2026-05-01T09:11:47Z</time></trkpt><trkpt lat="45.20485029818124" lon="11.902621212177358"><ele>-1.0</ele><time>2026-05-01T09:11:48Z</time></trkpt><trkpt lat="45.20496209416949" lon="11.902600329700482"><ele>-0.5</ele><time>2026-05-01T09:11:49Z</time></trkpt><trkpt lat="45.20507673756937" lon="11.902582263293032"><ele>0.0</ele><time>2026-05-01T09:11:50Z</time></trkpt><trkpt lat="45.205190201952774" lon="11.902569350115344"><ele>0.5</ele><time>2026-05-01T09:11:51Z</time></trkpt><trkpt lat="45.20530337580022" lon="11.902556332783512"><ele>1.0</ele><time>2026-05-01T09:11:52Z</time></trkpt><trkpt lat="45.205414863573736" lon="11.902533444315061"><ele>1.0</ele><time>2026-05-01T09:11:53Z</time></trkpt><trkpt lat="45.2055293116307" lon="11.902521283658015"><ele>1.0</ele><time>2026-05-01T09:11:54Z</time></trkpt><trkpt lat="45.20564311624939" lon="11.902502515006699"><ele>1.0</ele><time>2026-05-01T09:11:55Z</time></trkpt><trkpt lat="45.20575885718088" lon="11.902486254394839"><ele>1.0</ele><time>2026-05-01T09:11:56Z</time></trkpt><trkpt lat="45.20587076814301" lon="11.902469193038447"><ele>0.75</ele><time>2026-05-01T09:11:57Z</time></trkpt><trkpt lat="45.205985733043924" lon="11.902451267249603"><ele>0.5</ele><time>2026-05-01T09:11:58Z</time></trkpt><trkpt lat="45.20609836937035" lon="11.902430617138949"><ele>0.25</ele><time>2026-05-01T09:11:59Z</time></trkpt><trkpt lat="45.20621125427095" lon="11.902414638631814"><ele>0.0</ele><time>2026-05-01T09:12:00Z</time></trkpt><trkpt lat="45.20632554469479" lon="11.902397833947353"><ele>0.0</ele><time>2026-05-01T09:12:01Z</time></trkpt><trkpt lat="45.20643950534823" lon="11.902388692934153"><ele>0.0</ele><time>2026-05-01T09:12:02Z</time></trkpt><trkpt lat="45.20655363641543" lon="11.902377038221566"><ele>0.0</ele><time>2026-05-01T09:12:03Z</time></trkpt><trkpt lat="45.20666736912086" lon="11.902389896127035"><ele>0.0</ele><time>2026-05-01T09:12:04Z</time></trkpt><trkpt lat="45.20678409455298" lon="11.902405179657944"><ele>-0.25</ele><time>2026-05-01T09:12:05Z</time></trkpt><trkpt lat="45.20690049873521" lon="11.90241964144122"><ele>-0.5</ele><time>2026-05-01T09:12:06Z</time></trkpt><trkpt lat="45.20701477902839" lon="11.902430348280104"><ele>-0.75</ele><time>2026-05-01T09:12:07Z</time></trkpt><trkpt lat="45.20713079736215" lon="11.90244040973377"><ele>-1.0</ele><time>2026-05-01T09:12:08Z</time></trkpt><trkpt lat="45.207245586040436" lon="11.90245103588263"><ele>-1.25</ele><time>2026-05-01T09:12:09Z</time></trkpt><trkpt lat="45.207361310435545" lon="11.902465309628107"><ele>-1.5</ele><time>2026-05-01T09:12:10Z</time></trkpt><trkpt lat="45.20747542911797" lon="11.902478722685764"><ele>-1.75</ele><time>2026-05-01T09:12:11Z</time></trkpt><trkpt lat="45.20758855697235" lon="11.902491917341864"><ele>-2.0</ele><time>2026-05-01T09:12:12Z</time></trkpt><trkpt lat="45.20770310296652" lon="11.902504087412574"><ele>-2.0</ele><time>2026-05-01T09:12:13Z</time></trkpt><trkpt lat="45.20781764425502" lon="11.902515100749742"><ele>-2.0</ele><time>2026-05-01T09:12:14Z</time></trkpt><trkpt lat="45.207931734630286" lon="11.902526019483313"><ele>-2.0</ele><time>2026-05-01T09:12:15Z</time></trkpt><trkpt lat="45.208046142673105" lon="11.9025408456102"><ele>-2.0</ele><time>2026-05-01T09:12:16Z</time></trkpt><trkpt lat="45.20816182356995" lon="11.902557441872803"><ele>-2.0</ele><time>2026-05-01T09:12:17Z</time></trkpt><trkpt lat="45.20827870298518" lon="11.902570834946008"><ele>-2.0</ele><time>2026-05-01T09:12:18Z</time></trkpt><trkpt lat="45.2083941016206" lon="11.902582795420017"><ele>-2.0</ele><time>2026-05-01T09:12:19Z</time></trkpt><trkpt lat="45.208509202057826" lon="11.902593990752395"><ele>-2.0</ele><time>2026-05-01T09:12:20Z</time></trkpt><trkpt lat="45.20862390321492" lon="11.902605956809612"><ele>-2.0</ele><time>2026-05-01T09:12:21Z</time></trkpt><trkpt lat="45.20873658682499" lon="11.902621861958792"><ele>-2.0</ele><time>2026-05-01T09:12:22Z</time></trkpt><trkpt lat="45.208849971191135" lon="11.9026371221828"><ele>-2.0</ele><time>2026-05-01T09:12:23Z</time></trkpt><trkpt lat="45.20896231680306" lon="11.902657721502347"><ele>-2.0</ele><time>2026-05-01T09:12:24Z</time></trkpt><trkpt lat="45.20907511346107" lon="11.902672496490212"><ele>-2.0</ele><time>2026-05-01T09:12:25Z</time></trkpt><trkpt lat="45.209186254331826" lon="11.902688184473261"><ele>-2.0</ele><time>2026-05-01T09:12:25.999Z</time></trkpt><trkpt lat="45.20929828055502" lon="11.90270523911488"><ele>-2.0</ele><time>2026-05-01T09:12:26.999Z</time></trkpt><trkpt lat="45.20941108127462" lon="11.902723346543755"><ele>-2.0</ele><time>2026-05-01T09:12:27.999Z</time></trkpt><trkpt lat="45.20952110306725" lon="11.902734229184126"><ele>-2.0</ele><time>2026-05-01T09:12:28.999Z</time></trkpt><trkpt lat="45.20962572501629" lon="11.902746976099976"><ele>-1.9999999999999998</ele><time>2026-05-01T09:12:29.999Z</time></trkpt><trkpt lat="45.20972356006192" lon="11.902759368924563"><ele>-2.0</ele><time>2026-05-01T09:12:30.999Z</time></trkpt><trkpt lat="45.20981298345587" lon="11.902779303768785"><ele>-2.0</ele><time>2026-05-01T09:12:31.999Z</time></trkpt><trkpt lat="45.20989695299939" lon="11.90281429739692"><ele>-2.0</ele><time>2026-05-01T09:12:32.999Z</time></trkpt><trkpt lat="45.20997247142337" lon="11.90286630288929"><ele>-1.9999999999999998</ele><time>2026-05-01T09:12:33.999Z</time></trkpt><trkpt lat="45.21004384582607" lon="11.902936825500134"><ele>-2.0</ele><time>2026-05-01T09:12:34.999Z</time></trkpt><trkpt lat="45.21011180493567" lon="11.90302448871887"><ele>-2.2</ele><time>2026-05-01T09:12:35.999Z</time></trkpt><trkpt lat="45.210180601654635" lon="11.903131232428395"><ele>-2.4000000000000004</ele><time>2026-05-01T09:12:36.999Z</time></trkpt><trkpt lat="45.210247953442696" lon="11.903213411685327"><ele>-2.5999999999999996</ele><time>2026-05-01T09:12:37.999Z</time></trkpt><trkpt lat="45.210326156891924" lon="11.903267687626704"><ele>-2.8</ele><time>2026-05-01T09:12:38.999Z</time></trkpt><trkpt lat="45.21041143764555" lon="11.903295008300708"><ele>-3.0</ele><time>2026-05-01T09:12:39.999Z</time></trkpt><trkpt lat="45.210503084427444" lon="11.903294212718931"><ele>-3.0</ele><time>2026-05-01T09:12:40.999Z</time></trkpt><trkpt lat="45.21059691039792" lon="11.90326428803871"><ele>-3.0</ele><time>2026-05-01T09:12:41.999Z</time></trkpt><trkpt lat="45.21068881298889" lon="11.903198174179686"><ele>-3.0</ele><time>2026-05-01T09:12:42.999Z</time></trkpt><trkpt lat="45.2107510284261" lon="11.903076263942616"><ele>-3.0</ele><time>2026-05-01T09:12:43.999Z</time></trkpt><trkpt lat="45.21085710967463" lon="11.90298914017841"><ele>-3.0</ele><time>2026-05-01T09:12:44.999Z</time></trkpt><trkpt lat="45.2109565103701" lon="11.902930766485682"><ele>-1.75</ele><time>2026-05-01T09:12:45.999Z</time></trkpt><trkpt lat="45.21105695846797" lon="11.902882234527413"><ele>-0.5</ele><time>2026-05-01T09:12:46.999Z</time></trkpt><trkpt lat="45.21117200592327" lon="11.902870865308689"><ele>0.75</ele><time>2026-05-01T09:12:47.999Z</time></trkpt><trkpt lat="45.21128449710257" lon="11.90285939042555"><ele>2.0</ele><time>2026-05-01T09:12:48.999Z</time></trkpt><trkpt lat="45.211410308158975" lon="11.902840085480495"><ele>2.0</ele><time>2026-05-01T09:12:49.999Z</time></trkpt><trkpt lat="45.21148874408823" lon="11.903010711799942"><ele>2.0</ele><time>2026-05-01T09:12:50.999Z</time></trkpt><trkpt lat="45.2115801646611" lon="11.90310750082539"><ele>2.0</ele><time>2026-05-01T09:12:51.999Z</time></trkpt><trkpt lat="45.21166243447255" lon="11.903225490789202"><ele>2.0</ele><time>2026-05-01T09:12:52.999Z</time></trkpt><trkpt lat="45.21174094265711" lon="11.903354652447529"><ele>1.5</ele><time>2026-05-01T09:12:53.999Z</time></trkpt><trkpt lat="45.21181743390248" lon="11.903488889565082"><ele>1.0</ele><time>2026-05-01T09:12:54.999Z</time></trkpt><trkpt lat="45.2118885964451" lon="11.903629777742063"><ele>0.5</ele><time>2026-05-01T09:12:55.999Z</time></trkpt><trkpt lat="45.211959895996884" lon="11.903774181521978"><ele>0.0</ele><time>2026-05-01T09:12:56.999Z</time></trkpt><trkpt lat="45.21202765630395" lon="11.903919075843616"><ele>0.0</ele><time>2026-05-01T09:12:57.999Z</time></trkpt><trkpt lat="45.212087400904196" lon="11.904073998093091"><ele>0.0</ele><time>2026-05-01T09:12:58.999Z</time></trkpt><trkpt lat="45.21212431776337" lon="11.90424096436185"><ele>0.0</ele><time>2026-05-01T09:12:59.999Z</time></trkpt><trkpt lat="45.21214139114475" lon="11.904404056109438"><ele>0.0</ele><time>2026-05-01T09:13:00.999Z</time></trkpt><trkpt lat="45.21213495508122" lon="11.90456218174017"><ele>0.25</ele><time>2026-05-01T09:13:01.999Z</time></trkpt><trkpt lat="45.21214369391772" lon="11.904722657866879"><ele>0.5</ele><time>2026-05-01T09:13:02.999Z</time></trkpt><trkpt lat="45.21216184652481" lon="11.904877331374223"><ele>0.75</ele><time>2026-05-01T09:13:03.999Z</time></trkpt><trkpt lat="45.21216850038201" lon="11.905037726843382"><ele>1.0</ele><time>2026-05-01T09:13:04.999Z</time></trkpt><trkpt lat="45.212148810965076" lon="11.90519630692827"><ele>1.4</ele><time>2026-05-01T09:13:05.999Z</time></trkpt><trkpt lat="45.212142999910405" lon="11.905359067420394"><ele>1.8</ele><time>2026-05-01T09:13:06.999Z</time></trkpt><trkpt lat="45.21213728010648" lon="11.905519780160061"><ele>2.1999999999999997</ele><time>2026-05-01T09:13:07.999Z</time></trkpt><trkpt lat="45.212131983915526" lon="11.905668473753334"><ele>2.6</ele><time>2026-05-01T09:13:08.999Z</time></trkpt><trkpt lat="45.21212716348972" lon="11.905803810126063"><ele>3.0</ele><time>2026-05-01T09:13:09.999Z</time></trkpt><trkpt lat="45.212122569461876" lon="11.905932789887109"><ele>3.0</ele><time>2026-05-01T09:13:10.999Z</time></trkpt><trkpt lat="45.21211820234365" lon="11.906055399170082"><ele>3.0</ele><time>2026-05-01T09:13:11.999Z</time></trkpt><trkpt lat="45.21211424733436" lon="11.906166438157841"><ele>3.0</ele><time>2026-05-01T09:13:12.999Z</time></trkpt><trkpt lat="45.21211069080608" lon="11.90626628987146"><ele>3.0</ele><time>2026-05-01T09:13:13.999Z</time></trkpt><trkpt lat="45.21210535118153" lon="11.906416202892881"><ele>3.0</ele><time>2026-05-01T09:13:15.999Z</time></trkpt><trkpt lat="45.21231096262666" lon="11.90644066994021"><ele>2.1999999999999997</ele><time>2026-05-01T09:13:18.999Z</time></trkpt><trkpt lat="45.212388518519354" lon="11.906381794200808"><ele>1.4</ele><time>2026-05-01T09:13:19.999Z</time></trkpt><trkpt lat="45.21246949795955" lon="11.906314926004388"><ele>0.5999999999999999</ele><time>2026-05-01T09:13:20.999Z</time></trkpt><trkpt lat="45.212567271908014" lon="11.906286977888534"><ele>-0.20000000000000007</ele><time>2026-05-01T09:13:21.999Z</time></trkpt><trkpt lat="45.21267132941564" lon="11.906278932398052"><ele>-1.0</ele><time>2026-05-01T09:13:22.999Z</time></trkpt><trkpt lat="45.21278060231754" lon="11.906277499106077"><ele>-1.0</ele><time>2026-05-01T09:13:23.999Z</time></trkpt><trkpt lat="45.2128930025" lon="11.906257485898326"><ele>-1.0</ele><time>2026-05-01T09:13:24.999Z</time></trkpt><trkpt lat="45.2130033806428" lon="11.906294234554654"><ele>-1.0</ele><time>2026-05-01T09:13:25.999Z</time></trkpt><trkpt lat="45.213108607806824" lon="11.90633545838227"><ele>-1.0</ele><time>2026-05-01T09:13:26.999Z</time></trkpt><trkpt lat="45.21320382037688" lon="11.906408769398174"><ele>-1.0</ele><time>2026-05-01T09:13:27.999Z</time></trkpt><trkpt lat="45.2132890496728" lon="11.906513490121936"><ele>-1.0</ele><time>2026-05-01T09:13:28.999Z</time></trkpt><trkpt lat="45.21337763305668" lon="11.906622638603578"><ele>-1.0</ele><time>2026-05-01T09:13:29.999Z</time></trkpt><trkpt lat="45.21346716777966" lon="11.906708765905677"><ele>-1.0</ele><time>2026-05-01T09:13:30.999Z</time></trkpt><trkpt lat="45.21354719788329" lon="11.906806578806288"><ele>-1.0</ele><time>2026-05-01T09:13:31.999Z</time></trkpt><trkpt lat="45.21362981910961" lon="11.90690604630882"><ele>-1.0</ele><time>2026-05-01T09:13:32.999Z</time></trkpt><trkpt lat="45.21371501354241" lon="11.907006190479725"><ele>-1.0</ele><time>2026-05-01T09:13:33.999Z</time></trkpt><trkpt lat="45.21380993847445" lon="11.907088764073306"><ele>-1.0</ele><time>2026-05-01T09:13:34.999Z</time></trkpt><trkpt lat="45.213913904335904" lon="11.90714056358419"><ele>-1.0</ele><time>2026-05-01T09:13:35.999Z</time></trkpt><trkpt lat="45.21402502661318" lon="11.907168835482327"><ele>-1.0</ele><time>2026-05-01T09:13:36.999Z</time></trkpt><trkpt lat="45.21413789814651" lon="11.907189793279475"><ele>-1.0</ele><time>2026-05-01T09:13:38Z</time></trkpt><trkpt lat="45.21425008681294" lon="11.90719472444049"><ele>-1.2000000000000002</ele><time>2026-05-01T09:13:39Z</time></trkpt><trkpt lat="45.214362563873415" lon="11.907178265907831"><ele>-1.4000000000000001</ele><time>2026-05-01T09:13:40Z</time></trkpt><trkpt lat="45.21447250050294" lon="11.907149956093866"><ele>-1.6</ele><time>2026-05-01T09:13:41Z</time></trkpt><trkpt lat="45.21458174739111" lon="11.907108211555066"><ele>-1.8</ele><time>2026-05-01T09:13:42Z</time></trkpt><trkpt lat="45.21468715542339" lon="11.907057196428733"><ele>-2.0</ele><time>2026-05-01T09:13:43Z</time></trkpt><trkpt lat="45.21479587665482" lon="11.90700967456692"><ele>-1.5</ele><time>2026-05-01T09:13:44Z</time></trkpt><trkpt lat="45.21490318618805" lon="11.906968458728356"><ele>-1.0</ele><time>2026-05-01T09:13:45Z</time></trkpt><trkpt lat="45.21501326755709" lon="11.906926141987594"><ele>-0.5</ele><time>2026-05-01T09:13:46Z</time></trkpt><trkpt lat="45.215123436668726" lon="11.906884960981957"><ele>0.0</ele><time>2026-05-01T09:13:47Z</time></trkpt><trkpt lat="45.215234162465215" lon="11.906840793439281"><ele>0.0</ele><time>2026-05-01T09:13:48Z</time></trkpt><trkpt lat="45.215344788206146" lon="11.906797682730724"><ele>0.0</ele><time>2026-05-01T09:13:49Z</time></trkpt><trkpt lat="45.21545722532946" lon="11.90675499033568"><ele>0.0</ele><time>2026-05-01T09:13:50Z</time></trkpt><trkpt lat="45.21556693822771" lon="11.906721516922657"><ele>0.0</ele><time>2026-05-01T09:13:51Z</time></trkpt><trkpt lat="45.2156766653107" lon="11.906685203263182"><ele>0.5</ele><time>2026-05-01T09:13:52Z</time></trkpt><trkpt lat="45.21578879339398" lon="11.90665001136544"><ele>1.0</ele><time>2026-05-01T09:13:53Z</time></trkpt><trkpt lat="45.215898517167204" lon="11.906622014867407"><ele>1.5</ele><time>2026-05-01T09:13:54Z</time></trkpt><trkpt lat="45.21600891756838" lon="11.906589058298753"><ele>2.0</ele><time>2026-05-01T09:13:55Z</time></trkpt><trkpt lat="45.216121798601876" lon="11.906562489560118"><ele>2.0</ele><time>2026-05-01T09:13:56Z</time></trkpt><trkpt lat="45.21622963901359" lon="11.906523203542559"><ele>2.0</ele><time>2026-05-01T09:13:57Z</time></trkpt><trkpt lat="45.216341246120166" lon="11.906496220306588"><ele>2.0</ele><time>2026-05-01T09:13:58Z</time></trkpt><trkpt lat="45.21643928306144" lon="11.906446970385026"><ele>2.0</ele><time>2026-05-01T09:13:59Z</time></trkpt><trkpt lat="45.21652812890707" lon="11.90634530462043"><ele>2.0</ele><time>2026-05-01T09:14:00Z</time></trkpt><trkpt lat="45.216602941876786" lon="11.906213453937308"><ele>2.0</ele><time>2026-05-01T09:14:01Z</time></trkpt><trkpt lat="45.21665738340459" lon="11.906058173151468"><ele>2.0</ele><time>2026-05-01T09:14:02Z</time></trkpt><trkpt lat="45.21669889792181" lon="11.905902271365715"><ele>2.0</ele><time>2026-05-01T09:14:03Z</time></trkpt><trkpt lat="45.21674083699912" lon="11.905749134216242"><ele>2.0</ele><time>2026-05-01T09:14:04Z</time></trkpt><trkpt lat="45.216785403225636" lon="11.905597579803217"><ele>2.25</ele><time>2026-05-01T09:14:05Z</time></trkpt><trkpt lat="45.216829224822256" lon="11.905447623611188"><ele>2.5</ele><time>2026-05-01T09:14:06Z</time></trkpt><trkpt lat="45.21687500927733" lon="11.905296522371353"><ele>2.75</ele><time>2026-05-01T09:14:07Z</time></trkpt><trkpt lat="45.216924641276314" lon="11.905149704389435"><ele>3.0</ele><time>2026-05-01T09:14:08Z</time></trkpt><trkpt lat="45.216969471300494" lon="11.90500055863899"><ele>2.5</ele><time>2026-05-01T09:14:09Z</time></trkpt><trkpt lat="45.217007177094416" lon="11.90484864212538"><ele>2.0</ele><time>2026-05-01T09:14:10Z</time></trkpt><trkpt lat="45.217037941011924" lon="11.904694495542385"><ele>1.5</ele><time>2026-05-01T09:14:11Z</time></trkpt><trkpt lat="45.217066248455765" lon="11.904541271166883"><ele>1.0</ele><time>2026-05-01T09:14:12Z</time></trkpt><trkpt lat="45.21709405595387" lon="11.904384519345307"><ele>1.5</ele><time>2026-05-01T09:14:13Z</time></trkpt><trkpt lat="45.21711960132605" lon="11.904226186740503"><ele>2.0</ele><time>2026-05-01T09:14:14Z</time></trkpt><trkpt lat="45.21715022973305" lon="11.904069894801584"><ele>2.5</ele><time>2026-05-01T09:14:15Z</time></trkpt><trkpt lat="45.217181814774726" lon="11.903912012147918"><ele>3.0</ele><time>2026-05-01T09:14:16Z</time></trkpt><trkpt lat="45.21720808333805" lon="11.90375577447837"><ele>3.0</ele><time>2026-05-01T09:14:17Z</time></trkpt><trkpt lat="45.21723665494734" lon="11.903596671819864"><ele>3.0</ele><time>2026-05-01T09:14:18Z</time></trkpt><trkpt lat="45.217259339903045" lon="11.903434176935615"><ele>3.0</ele><time>2026-05-01T09:14:19Z</time></trkpt><trkpt lat="45.21728209965397" lon="11.90327563603115"><ele>3.0</ele><time>2026-05-01T09:14:20Z</time></trkpt><trkpt lat="45.217306046530254" lon="11.903114456172966"><ele>2.75</ele><time>2026-05-01T09:14:21Z</time></trkpt><trkpt lat="45.2173191939949" lon="11.902957021957464"><ele>2.5</ele><time>2026-05-01T09:14:22Z</time></trkpt><trkpt lat="45.217339613223686" lon="11.902792986066505"><ele>2.25</ele><time>2026-05-01T09:14:23Z</time></trkpt><trkpt lat="45.217359427623315" lon="11.902629124168442"><ele>2.0</ele><time>2026-05-01T09:14:24Z</time></trkpt><trkpt lat="45.2173738860233" lon="11.90246963160098"><ele>2.0</ele><time>2026-05-01T09:14:25Z</time></trkpt><trkpt lat="45.21738990699028" lon="11.902307731488056"><ele>2.0</ele><time>2026-05-01T09:14:26Z</time></trkpt><trkpt lat="45.217411981981826" lon="11.902146226882486"><ele>2.0</ele><time>2026-05-01T09:14:27Z</time></trkpt><trkpt lat="45.21744754452337" lon="11.901992580514156"><ele>2.0</ele><time>2026-05-01T09:14:28Z</time></trkpt><trkpt lat="45.2175030196919" lon="11.901843888674426"><ele>2.25</ele><time>2026-05-01T09:14:28.999Z</time></trkpt><trkpt lat="45.21756464788566" lon="11.90170526344138"><ele>2.5</ele><time>2026-05-01T09:14:29.999Z</time></trkpt><trkpt lat="45.217630387758135" lon="11.901570047010225"><ele>2.75</ele><time>2026-05-01T09:14:30.999Z</time></trkpt><trkpt lat="45.21769786085109" lon="11.90143856667409"><ele>3.0</ele><time>2026-05-01T09:14:31.999Z</time></trkpt><trkpt lat="45.2177672385757" lon="11.901313959085073"><ele>3.0</ele><time>2026-05-01T09:14:32.999Z</time></trkpt><trkpt lat="45.21783857120999" lon="11.901180794727471"><ele>3.0</ele><time>2026-05-01T09:14:33.999Z</time></trkpt><trkpt lat="45.21790693070484" lon="11.901043508495802"><ele>3.0</ele><time>2026-05-01T09:14:34.999Z</time></trkpt><trkpt lat="45.21797293213857" lon="11.900911654614823"><ele>3.0</ele><time>2026-05-01T09:14:35.999Z</time></trkpt><trkpt lat="45.218034392298584" lon="11.900792257337454"><ele>2.8</ele><time>2026-05-01T09:14:36.999Z</time></trkpt><trkpt lat="45.21809352743499" lon="11.900670667712323"><ele>2.5999999999999996</ele><time>2026-05-01T09:14:37.999Z</time></trkpt><trkpt lat="45.218156290528455" lon="11.90054757001518"><ele>2.4000000000000004</ele><time>2026-05-01T09:14:38.999Z</time></trkpt><trkpt lat="45.218222085183505" lon="11.900422445937158"><ele>2.2</ele><time>2026-05-01T09:14:39.999Z</time></trkpt><trkpt lat="45.2182855190626" lon="11.900292385840576"><ele>2.0</ele><time>2026-05-01T09:14:40.999Z</time></trkpt><trkpt lat="45.21834647398207" lon="11.900164004154625"><ele>1.5</ele><time>2026-05-01T09:14:41.999Z</time></trkpt><trkpt lat="45.218412730742486" lon="11.900034411535293"><ele>1.0</ele><time>2026-05-01T09:14:42.999Z</time></trkpt><trkpt lat="45.21847753622186" lon="11.89990469133361"><ele>0.5</ele><time>2026-05-01T09:14:43.999Z</time></trkpt><trkpt lat="45.21853838163119" lon="11.899769806786832"><ele>0.0</ele><time>2026-05-01T09:14:44.999Z</time></trkpt><trkpt lat="45.218599739648454" lon="11.899633456267777"><ele>0.0</ele><time>2026-05-01T09:14:45.999Z</time></trkpt><trkpt lat="45.218663530139736" lon="11.899501237144262"><ele>0.0</ele><time>2026-05-01T09:14:46.999Z</time></trkpt><trkpt lat="45.21873149860976" lon="11.899373278707086"><ele>0.0</ele><time>2026-05-01T09:14:47.999Z</time></trkpt><trkpt lat="45.21880789477521" lon="11.89925480247114"><ele>0.0</ele><time>2026-05-01T09:14:48.999Z</time></trkpt><trkpt lat="45.21889956507457" lon="11.899161980610714"><ele>0.5</ele><time>2026-05-01T09:14:49.999Z</time></trkpt><trkpt lat="45.21900346753795" lon="11.899091928675668"><ele>1.0</ele><time>2026-05-01T09:14:50.999Z</time></trkpt><trkpt lat="45.219110477826675" lon="11.899037139811345"><ele>1.5</ele><time>2026-05-01T09:14:51.999Z</time></trkpt><trkpt lat="45.219221230904566" lon="11.898996464666848"><ele>2.0</ele><time>2026-05-01T09:14:52.999Z</time></trkpt><trkpt lat="45.21933020646791" lon="11.898963940759277"><ele>2.0</ele><time>2026-05-01T09:14:53.999Z</time></trkpt><trkpt lat="45.21944035143934" lon="11.898929509259233"><ele>2.0</ele><time>2026-05-01T09:14:54.999Z</time></trkpt><trkpt lat="45.21954799928008" lon="11.898888966370953"><ele>2.0</ele><time>2026-05-01T09:14:55.999Z</time></trkpt><trkpt lat="45.21965435694587" lon="11.898846047390855"><ele>2.0</ele><time>2026-05-01T09:14:56.999Z</time></trkpt><trkpt lat="45.21975383436897" lon="11.898795658244273"><ele>2.0</ele><time>2026-05-01T09:14:57.999Z</time></trkpt><trkpt lat="45.219845936572796" lon="11.898724851995796"><ele>2.2</ele><time>2026-05-01T09:14:58.999Z</time></trkpt><trkpt lat="45.21992973876229" lon="11.898627820726926"><ele>2.4000000000000004</ele><time>2026-05-01T09:14:59.999Z</time></trkpt><trkpt lat="45.2199993381845" lon="11.898510272949938"><ele>2.5999999999999996</ele><time>2026-05-01T09:15:00.999Z</time></trkpt><trkpt lat="45.220054861503854" lon="11.898372679421518"><ele>2.8</ele><time>2026-05-01T09:15:01.999Z</time></trkpt><trkpt lat="45.22009475169561" lon="11.898221262036417"><ele>3.0</ele><time>2026-05-01T09:15:02.999Z</time></trkpt><trkpt lat="45.22012594151643" lon="11.898066133190609"><ele>3.0</ele><time>2026-05-01T09:15:03.999Z</time></trkpt><trkpt lat="45.220156685469846" lon="11.89790739234358"><ele>3.0</ele><time>2026-05-01T09:15:04.999Z</time></trkpt><trkpt lat="45.2201864666139" lon="11.89774878644231"><ele>3.0</ele><time>2026-05-01T09:15:05.999Z</time></trkpt><trkpt lat="45.22021872825467" lon="11.8975916967288"><ele>3.0</ele><time>2026-05-01T09:15:06.999Z</time></trkpt><trkpt lat="45.22025356903099" lon="11.897435981399035"><ele>2.75</ele><time>2026-05-01T09:15:07.999Z</time></trkpt><trkpt lat="45.22029248863406" lon="11.89728872645404"><ele>2.5</ele><time>2026-05-01T09:15:08.999Z</time></trkpt><trkpt lat="45.220330950897164" lon="11.897136010373787"><ele>2.25</ele><time>2026-05-01T09:15:09.999Z</time></trkpt><trkpt lat="45.22036854448421" lon="11.896987389041065"><ele>2.0</ele><time>2026-05-01T09:15:10.999Z</time></trkpt><trkpt lat="45.220404548657456" lon="11.896832495286956"><ele>2.0</ele><time>2026-05-01T09:15:11.999Z</time></trkpt><trkpt lat="45.220441710483605" lon="11.896681125528252"><ele>2.0</ele><time>2026-05-01T09:15:12.999Z</time></trkpt><trkpt lat="45.220482774198615" lon="11.896530752659574"><ele>2.0</ele><time>2026-05-01T09:15:13.999Z</time></trkpt><trkpt lat="45.220518035461566" lon="11.896383504298486"><ele>2.0</ele><time>2026-05-01T09:15:14.999Z</time></trkpt><trkpt lat="45.220542616864385" lon="11.896246050590136"><ele>2.0</ele><time>2026-05-01T09:15:15.999Z</time></trkpt><trkpt lat="45.220579970260175" lon="11.896107026866718"><ele>2.0</ele><time>2026-05-01T09:15:16.999Z</time></trkpt><trkpt lat="45.22060276132534" lon="11.89597848266276"><ele>2.0</ele><time>2026-05-01T09:15:17.999Z</time></trkpt><trkpt lat="45.220618443070784" lon="11.895866917815306"><ele>2.0</ele><time>2026-05-01T09:15:18.999Z</time></trkpt><trkpt lat="45.22062575471804" lon="11.895766851876093"><ele>2.0</ele><time>2026-05-01T09:15:19.999Z</time></trkpt><trkpt lat="45.22063319253059" lon="11.89562466350897"><ele>2.0</ele><time>2026-05-01T09:15:21.999Z</time></trkpt><trkpt lat="45.2205220373398" lon="11.895532667766517"><ele>2.4000000000000004</ele><time>2026-05-01T09:15:26.999Z</time></trkpt><trkpt lat="45.22045162762962" lon="11.895528128247154"><ele>2.8000000000000003</ele><time>2026-05-01T09:15:27.999Z</time></trkpt><trkpt lat="45.2203761145779" lon="11.895494768974354"><ele>3.2</ele><time>2026-05-01T09:15:28.999Z</time></trkpt><trkpt lat="45.2203134858916" lon="11.895485615729298"><ele>3.6</ele><time>2026-05-01T09:15:29.999Z</time></trkpt><trkpt lat="45.22023576158596" lon="11.895474256253026"><ele>4.0</ele><time>2026-05-01T09:15:31.999Z</time></trkpt><trkpt lat="45.220173475337134" lon="11.895900562329844"><ele>4.0</ele><time>2026-05-01T09:16:02Z</time></trkpt><trkpt lat="45.220184317237326" lon="11.895994179929367"><ele>2.0</ele><time>2026-05-01T09:16:04Z</time></trkpt><trkpt lat="45.220188539381994" lon="11.896114340064726"><ele>2.0</ele><time>2026-05-01T09:16:07Z</time></trkpt></trkseg></trk></gpx>